<?xml version="1.0" encoding="UTF-8" standalone="no" ?>
<gpx xmlns="http://www.topografix.com/GPX/1/1" xmlns:xsi="http://www.w3.org/2001/XMLSchema-instance" xsi:schemaLocation="http://www.topografix.com/GPX/1/1 http://www.topografix.com/GPX/1/1/gpx.xsd" version="1.1" creator="VisuGPX - https://www.visugpx.com">
  <metadata>
    <name>montabon</name>
    <desc><![CDATA[Barraux - St Vincent - Le Vivier - Montabon]]></desc>
  </metadata>
  <trk>
    <name><![CDATA[montabon]]></name>
    <desc><![CDATA[<h1>OruxMaps</h1><br /><hr align="center" width="480" style="height: 2px; width: 517px"/><h2>Nom: montabon</h2><br /><p>Temps de départ: 05/08/2014 15:23</p><p>Temps d'arrivée: 05/08/2014 18:41</p><p>Distance: 31,6 km (03:18)</p><p>Temps déplacement: 02:04</p><p>Vitesse moyenne: 9,6 km/h</p><p>Vitesse moyenne: 15,2 km/h</p><p>Vitess Max.: 48,6 km/h</p><p>Altitude minimale: 222 m</p><p>Altitude maximale: 499 m</p><p>Vitesse d'élévation: 817,1 m/h</p><p>Vitesse de descente: -569,1 m/h</p><p>Gain Altitude: 838 m</p><p>Perte Altitude: -839 m</p><p>Temps d'élévation: 01:01</p><p>Temps de descente: 01:28</p><hr align="center" width="480" style="height: 2px; width: 517px"/>]]></desc>
    <trkseg>
      <trkpt lat="45.42924" lon="5.98394">
        <ele>330</ele>
        <time>2014-05-08T13:23:11Z</time>
      </trkpt>
      <trkpt lat="45.42923" lon="5.98368">
        <ele>330</ele>
        <time>2014-05-08T13:25:07Z</time>
      </trkpt>
      <trkpt lat="45.42932" lon="5.98342">
        <ele>330</ele>
        <time>2014-05-08T13:25:19Z</time>
      </trkpt>
      <trkpt lat="45.42939" lon="5.98317">
        <ele>330</ele>
        <time>2014-05-08T13:25:25Z</time>
      </trkpt>
      <trkpt lat="45.42954" lon="5.98298">
        <ele>330</ele>
        <time>2014-05-08T13:25:30Z</time>
      </trkpt>
      <trkpt lat="45.42968" lon="5.98276">
        <ele>330</ele>
        <time>2014-05-08T13:25:36Z</time>
      </trkpt>
      <trkpt lat="45.42982" lon="5.98251">
        <ele>329</ele>
        <time>2014-05-08T13:25:42Z</time>
      </trkpt>
      <trkpt lat="45.42995" lon="5.98229">
        <ele>329</ele>
        <time>2014-05-08T13:25:46Z</time>
      </trkpt>
      <trkpt lat="45.43006" lon="5.98206">
        <ele>329</ele>
        <time>2014-05-08T13:25:51Z</time>
      </trkpt>
      <trkpt lat="45.43018" lon="5.98185">
        <ele>329</ele>
        <time>2014-05-08T13:25:58Z</time>
      </trkpt>
      <trkpt lat="45.43026" lon="5.98162">
        <ele>330</ele>
        <time>2014-05-08T13:26:05Z</time>
      </trkpt>
      <trkpt lat="45.43007" lon="5.9815">
        <ele>329</ele>
        <time>2014-05-08T13:26:14Z</time>
      </trkpt>
      <trkpt lat="45.42985" lon="5.98151">
        <ele>330</ele>
        <time>2014-05-08T13:26:19Z</time>
      </trkpt>
      <trkpt lat="45.42965" lon="5.98152">
        <ele>330</ele>
        <time>2014-05-08T13:26:23Z</time>
      </trkpt>
      <trkpt lat="45.42944" lon="5.98148">
        <ele>330</ele>
        <time>2014-05-08T13:26:28Z</time>
      </trkpt>
      <trkpt lat="45.42927" lon="5.9814">
        <ele>331</ele>
        <time>2014-05-08T13:26:32Z</time>
      </trkpt>
      <trkpt lat="45.42909" lon="5.98125">
        <ele>331</ele>
        <time>2014-05-08T13:26:38Z</time>
      </trkpt>
      <trkpt lat="45.42894" lon="5.98106">
        <ele>332</ele>
        <time>2014-05-08T13:26:42Z</time>
      </trkpt>
      <trkpt lat="45.42876" lon="5.98087">
        <ele>331</ele>
        <time>2014-05-08T13:26:46Z</time>
      </trkpt>
      <trkpt lat="45.42858" lon="5.98071">
        <ele>334</ele>
        <time>2014-05-08T13:26:50Z</time>
      </trkpt>
      <trkpt lat="45.42841" lon="5.98054">
        <ele>334</ele>
        <time>2014-05-08T13:26:54Z</time>
      </trkpt>
      <trkpt lat="45.42826" lon="5.9804">
        <ele>333</ele>
        <time>2014-05-08T13:26:58Z</time>
      </trkpt>
      <trkpt lat="45.42808" lon="5.98027">
        <ele>333</ele>
        <time>2014-05-08T13:27:02Z</time>
      </trkpt>
      <trkpt lat="45.42792" lon="5.98015">
        <ele>333</ele>
        <time>2014-05-08T13:27:06Z</time>
      </trkpt>
      <trkpt lat="45.42772" lon="5.98">
        <ele>333</ele>
        <time>2014-05-08T13:27:11Z</time>
      </trkpt>
      <trkpt lat="45.42752" lon="5.97988">
        <ele>336</ele>
        <time>2014-05-08T13:27:16Z</time>
      </trkpt>
      <trkpt lat="45.42734" lon="5.97976">
        <ele>335</ele>
        <time>2014-05-08T13:27:21Z</time>
      </trkpt>
      <trkpt lat="45.42717" lon="5.97963">
        <ele>335</ele>
        <time>2014-05-08T13:27:27Z</time>
      </trkpt>
      <trkpt lat="45.42698" lon="5.97947">
        <ele>336</ele>
        <time>2014-05-08T13:27:32Z</time>
      </trkpt>
      <trkpt lat="45.4268" lon="5.97935">
        <ele>336</ele>
        <time>2014-05-08T13:27:37Z</time>
      </trkpt>
      <trkpt lat="45.42662" lon="5.97921">
        <ele>336</ele>
        <time>2014-05-08T13:27:43Z</time>
      </trkpt>
      <trkpt lat="45.42642" lon="5.97908">
        <ele>340</ele>
        <time>2014-05-08T13:27:49Z</time>
      </trkpt>
      <trkpt lat="45.42625" lon="5.97893">
        <ele>340</ele>
        <time>2014-05-08T13:27:55Z</time>
      </trkpt>
      <trkpt lat="45.42606" lon="5.97879">
        <ele>341</ele>
        <time>2014-05-08T13:28:02Z</time>
      </trkpt>
      <trkpt lat="45.42587" lon="5.97871">
        <ele>341</ele>
        <time>2014-05-08T13:28:22Z</time>
      </trkpt>
      <trkpt lat="45.42569" lon="5.97863">
        <ele>339</ele>
        <time>2014-05-08T13:28:28Z</time>
      </trkpt>
      <trkpt lat="45.42551" lon="5.97854">
        <ele>339</ele>
        <time>2014-05-08T13:28:35Z</time>
      </trkpt>
      <trkpt lat="45.42532" lon="5.97849">
        <ele>338</ele>
        <time>2014-05-08T13:28:43Z</time>
      </trkpt>
      <trkpt lat="45.42513" lon="5.97849">
        <ele>338</ele>
        <time>2014-05-08T13:28:50Z</time>
      </trkpt>
      <trkpt lat="45.42494" lon="5.97843">
        <ele>338</ele>
        <time>2014-05-08T13:28:54Z</time>
      </trkpt>
      <trkpt lat="45.42475" lon="5.97835">
        <ele>337</ele>
        <time>2014-05-08T13:28:59Z</time>
      </trkpt>
      <trkpt lat="45.42455" lon="5.97826">
        <ele>343</ele>
        <time>2014-05-08T13:29:06Z</time>
      </trkpt>
      <trkpt lat="45.42435" lon="5.97817">
        <ele>342</ele>
        <time>2014-05-08T13:29:11Z</time>
      </trkpt>
      <trkpt lat="45.42417" lon="5.97807">
        <ele>343</ele>
        <time>2014-05-08T13:29:17Z</time>
      </trkpt>
      <trkpt lat="45.42397" lon="5.97797">
        <ele>342</ele>
        <time>2014-05-08T13:29:23Z</time>
      </trkpt>
      <trkpt lat="45.42379" lon="5.97787">
        <ele>342</ele>
        <time>2014-05-08T13:29:28Z</time>
      </trkpt>
      <trkpt lat="45.42363" lon="5.97774">
        <ele>343</ele>
        <time>2014-05-08T13:29:34Z</time>
      </trkpt>
      <trkpt lat="45.42345" lon="5.97762">
        <ele>344</ele>
        <time>2014-05-08T13:29:39Z</time>
      </trkpt>
      <trkpt lat="45.42328" lon="5.97751">
        <ele>344</ele>
        <time>2014-05-08T13:29:44Z</time>
      </trkpt>
      <trkpt lat="45.42311" lon="5.97738">
        <ele>348</ele>
        <time>2014-05-08T13:29:49Z</time>
      </trkpt>
      <trkpt lat="45.42294" lon="5.97725">
        <ele>348</ele>
        <time>2014-05-08T13:29:54Z</time>
      </trkpt>
      <trkpt lat="45.42276" lon="5.97711">
        <ele>349</ele>
        <time>2014-05-08T13:30:00Z</time>
      </trkpt>
      <trkpt lat="45.42258" lon="5.97696">
        <ele>350</ele>
        <time>2014-05-08T13:30:05Z</time>
      </trkpt>
      <trkpt lat="45.42239" lon="5.97684">
        <ele>349</ele>
        <time>2014-05-08T13:30:11Z</time>
      </trkpt>
      <trkpt lat="45.4222" lon="5.97671">
        <ele>349</ele>
        <time>2014-05-08T13:30:18Z</time>
      </trkpt>
      <trkpt lat="45.42201" lon="5.9766">
        <ele>356</ele>
        <time>2014-05-08T13:30:24Z</time>
      </trkpt>
      <trkpt lat="45.42181" lon="5.97649">
        <ele>355</ele>
        <time>2014-05-08T13:30:30Z</time>
      </trkpt>
      <trkpt lat="45.42163" lon="5.97638">
        <ele>353</ele>
        <time>2014-05-08T13:30:36Z</time>
      </trkpt>
      <trkpt lat="45.42144" lon="5.97626">
        <ele>354</ele>
        <time>2014-05-08T13:30:42Z</time>
      </trkpt>
      <trkpt lat="45.42126" lon="5.97614">
        <ele>354</ele>
        <time>2014-05-08T13:30:48Z</time>
      </trkpt>
      <trkpt lat="45.42108" lon="5.97603">
        <ele>354</ele>
        <time>2014-05-08T13:30:54Z</time>
      </trkpt>
      <trkpt lat="45.42091" lon="5.97592">
        <ele>354</ele>
        <time>2014-05-08T13:30:59Z</time>
      </trkpt>
      <trkpt lat="45.42072" lon="5.97583">
        <ele>355</ele>
        <time>2014-05-08T13:31:04Z</time>
      </trkpt>
      <trkpt lat="45.42053" lon="5.97574">
        <ele>356</ele>
        <time>2014-05-08T13:31:10Z</time>
      </trkpt>
      <trkpt lat="45.42035" lon="5.97564">
        <ele>356</ele>
        <time>2014-05-08T13:31:15Z</time>
      </trkpt>
      <trkpt lat="45.42015" lon="5.97555">
        <ele>356</ele>
        <time>2014-05-08T13:31:22Z</time>
      </trkpt>
      <trkpt lat="45.41996" lon="5.97547">
        <ele>357</ele>
        <time>2014-05-08T13:31:29Z</time>
      </trkpt>
      <trkpt lat="45.41976" lon="5.97537">
        <ele>358</ele>
        <time>2014-05-08T13:31:36Z</time>
      </trkpt>
      <trkpt lat="45.41959" lon="5.97529">
        <ele>358</ele>
        <time>2014-05-08T13:31:43Z</time>
      </trkpt>
      <trkpt lat="45.4194" lon="5.97519">
        <ele>359</ele>
        <time>2014-05-08T13:31:50Z</time>
      </trkpt>
      <trkpt lat="45.41923" lon="5.97507">
        <ele>361</ele>
        <time>2014-05-08T13:31:58Z</time>
      </trkpt>
      <trkpt lat="45.41905" lon="5.97496">
        <ele>365</ele>
        <time>2014-05-08T13:32:05Z</time>
      </trkpt>
      <trkpt lat="45.41886" lon="5.9749">
        <ele>366</ele>
        <time>2014-05-08T13:32:13Z</time>
      </trkpt>
      <trkpt lat="45.41866" lon="5.97486">
        <ele>366</ele>
        <time>2014-05-08T13:32:21Z</time>
      </trkpt>
      <trkpt lat="45.41847" lon="5.97479">
        <ele>366</ele>
        <time>2014-05-08T13:32:29Z</time>
      </trkpt>
      <trkpt lat="45.41827" lon="5.97476">
        <ele>365</ele>
        <time>2014-05-08T13:32:38Z</time>
      </trkpt>
      <trkpt lat="45.41808" lon="5.97471">
        <ele>366</ele>
        <time>2014-05-08T13:32:46Z</time>
      </trkpt>
      <trkpt lat="45.41789" lon="5.97463">
        <ele>366</ele>
        <time>2014-05-08T13:32:55Z</time>
      </trkpt>
      <trkpt lat="45.41772" lon="5.97451">
        <ele>366</ele>
        <time>2014-05-08T13:33:02Z</time>
      </trkpt>
      <trkpt lat="45.41755" lon="5.97438">
        <ele>367</ele>
        <time>2014-05-08T13:33:11Z</time>
      </trkpt>
      <trkpt lat="45.41738" lon="5.97424">
        <ele>366</ele>
        <time>2014-05-08T13:33:18Z</time>
      </trkpt>
      <trkpt lat="45.41722" lon="5.97412">
        <ele>373</ele>
        <time>2014-05-08T13:33:25Z</time>
      </trkpt>
      <trkpt lat="45.41705" lon="5.97401">
        <ele>374</ele>
        <time>2014-05-08T13:33:32Z</time>
      </trkpt>
      <trkpt lat="45.41687" lon="5.97391">
        <ele>374</ele>
        <time>2014-05-08T13:33:42Z</time>
      </trkpt>
      <trkpt lat="45.41669" lon="5.97383">
        <ele>375</ele>
        <time>2014-05-08T13:33:50Z</time>
      </trkpt>
      <trkpt lat="45.41651" lon="5.97376">
        <ele>376</ele>
        <time>2014-05-08T13:33:58Z</time>
      </trkpt>
      <trkpt lat="45.41632" lon="5.97369">
        <ele>377</ele>
        <time>2014-05-08T13:34:07Z</time>
      </trkpt>
      <trkpt lat="45.41613" lon="5.97361">
        <ele>378</ele>
        <time>2014-05-08T13:34:16Z</time>
      </trkpt>
      <trkpt lat="45.41597" lon="5.9735">
        <ele>380</ele>
        <time>2014-05-08T13:34:24Z</time>
      </trkpt>
      <trkpt lat="45.41579" lon="5.9734">
        <ele>382</ele>
        <time>2014-05-08T13:34:35Z</time>
      </trkpt>
      <trkpt lat="45.41561" lon="5.97328">
        <ele>387</ele>
        <time>2014-05-08T13:34:45Z</time>
      </trkpt>
      <trkpt lat="45.41544" lon="5.97313">
        <ele>387</ele>
        <time>2014-05-08T13:34:52Z</time>
      </trkpt>
      <trkpt lat="45.41528" lon="5.97301">
        <ele>387</ele>
        <time>2014-05-08T13:34:59Z</time>
      </trkpt>
      <trkpt lat="45.41511" lon="5.97287">
        <ele>388</ele>
        <time>2014-05-08T13:35:06Z</time>
      </trkpt>
      <trkpt lat="45.41492" lon="5.97273">
        <ele>387</ele>
        <time>2014-05-08T13:35:14Z</time>
      </trkpt>
      <trkpt lat="45.41476" lon="5.97261">
        <ele>387</ele>
        <time>2014-05-08T13:35:21Z</time>
      </trkpt>
      <trkpt lat="45.41461" lon="5.97246">
        <ele>390</ele>
        <time>2014-05-08T13:35:28Z</time>
      </trkpt>
      <trkpt lat="45.41446" lon="5.97231">
        <ele>390</ele>
        <time>2014-05-08T13:35:36Z</time>
      </trkpt>
      <trkpt lat="45.4143" lon="5.97217">
        <ele>390</ele>
        <time>2014-05-08T13:35:44Z</time>
      </trkpt>
      <trkpt lat="45.41411" lon="5.97205">
        <ele>388</ele>
        <time>2014-05-08T13:35:52Z</time>
      </trkpt>
      <trkpt lat="45.41393" lon="5.97192">
        <ele>388</ele>
        <time>2014-05-08T13:36:02Z</time>
      </trkpt>
      <trkpt lat="45.41376" lon="5.97181">
        <ele>388</ele>
        <time>2014-05-08T13:36:09Z</time>
      </trkpt>
      <trkpt lat="45.41359" lon="5.9717">
        <ele>388</ele>
        <time>2014-05-08T13:36:16Z</time>
      </trkpt>
      <trkpt lat="45.41342" lon="5.97156">
        <ele>390</ele>
        <time>2014-05-08T13:36:22Z</time>
      </trkpt>
      <trkpt lat="45.41324" lon="5.9714">
        <ele>389</ele>
        <time>2014-05-08T13:36:28Z</time>
      </trkpt>
      <trkpt lat="45.41307" lon="5.97129">
        <ele>389</ele>
        <time>2014-05-08T13:36:33Z</time>
      </trkpt>
      <trkpt lat="45.41291" lon="5.97116">
        <ele>389</ele>
        <time>2014-05-08T13:36:38Z</time>
      </trkpt>
      <trkpt lat="45.41273" lon="5.97103">
        <ele>389</ele>
        <time>2014-05-08T13:36:44Z</time>
      </trkpt>
      <trkpt lat="45.41255" lon="5.97088">
        <ele>389</ele>
        <time>2014-05-08T13:36:50Z</time>
      </trkpt>
      <trkpt lat="45.41237" lon="5.97075">
        <ele>391</ele>
        <time>2014-05-08T13:36:55Z</time>
      </trkpt>
      <trkpt lat="45.4122" lon="5.97062">
        <ele>392</ele>
        <time>2014-05-08T13:37:01Z</time>
      </trkpt>
      <trkpt lat="45.41203" lon="5.9705">
        <ele>393</ele>
        <time>2014-05-08T13:37:06Z</time>
      </trkpt>
      <trkpt lat="45.41188" lon="5.97035">
        <ele>393</ele>
        <time>2014-05-08T13:37:11Z</time>
      </trkpt>
      <trkpt lat="45.41174" lon="5.97017">
        <ele>394</ele>
        <time>2014-05-08T13:37:17Z</time>
      </trkpt>
      <trkpt lat="45.41158" lon="5.96998">
        <ele>397</ele>
        <time>2014-05-08T13:37:25Z</time>
      </trkpt>
      <trkpt lat="45.4114" lon="5.96984">
        <ele>399</ele>
        <time>2014-05-08T13:37:32Z</time>
      </trkpt>
      <trkpt lat="45.41125" lon="5.96967">
        <ele>400</ele>
        <time>2014-05-08T13:37:40Z</time>
      </trkpt>
      <trkpt lat="45.41111" lon="5.96948">
        <ele>401</ele>
        <time>2014-05-08T13:37:48Z</time>
      </trkpt>
      <trkpt lat="45.41098" lon="5.96929">
        <ele>402</ele>
        <time>2014-05-08T13:37:54Z</time>
      </trkpt>
      <trkpt lat="45.41084" lon="5.96913">
        <ele>405</ele>
        <time>2014-05-08T13:38:01Z</time>
      </trkpt>
      <trkpt lat="45.41068" lon="5.96896">
        <ele>405</ele>
        <time>2014-05-08T13:38:08Z</time>
      </trkpt>
      <trkpt lat="45.41053" lon="5.96881">
        <ele>405</ele>
        <time>2014-05-08T13:38:15Z</time>
      </trkpt>
      <trkpt lat="45.41037" lon="5.96866">
        <ele>406</ele>
        <time>2014-05-08T13:38:22Z</time>
      </trkpt>
      <trkpt lat="45.41023" lon="5.9685">
        <ele>406</ele>
        <time>2014-05-08T13:38:29Z</time>
      </trkpt>
      <trkpt lat="45.41008" lon="5.96834">
        <ele>406</ele>
        <time>2014-05-08T13:38:36Z</time>
      </trkpt>
      <trkpt lat="45.40993" lon="5.96819">
        <ele>408</ele>
        <time>2014-05-08T13:38:43Z</time>
      </trkpt>
      <trkpt lat="45.40978" lon="5.96803">
        <ele>410</ele>
        <time>2014-05-08T13:38:51Z</time>
      </trkpt>
      <trkpt lat="45.40963" lon="5.96786">
        <ele>411</ele>
        <time>2014-05-08T13:38:58Z</time>
      </trkpt>
      <trkpt lat="45.40949" lon="5.96767">
        <ele>410</ele>
        <time>2014-05-08T13:39:06Z</time>
      </trkpt>
      <trkpt lat="45.40932" lon="5.96752">
        <ele>408</ele>
        <time>2014-05-08T13:39:14Z</time>
      </trkpt>
      <trkpt lat="45.40916" lon="5.96737">
        <ele>410</ele>
        <time>2014-05-08T13:39:22Z</time>
      </trkpt>
      <trkpt lat="45.40898" lon="5.96727">
        <ele>413</ele>
        <time>2014-05-08T13:39:30Z</time>
      </trkpt>
      <trkpt lat="45.40879" lon="5.96718">
        <ele>415</ele>
        <time>2014-05-08T13:39:39Z</time>
      </trkpt>
      <trkpt lat="45.40859" lon="5.96712">
        <ele>416</ele>
        <time>2014-05-08T13:39:47Z</time>
      </trkpt>
      <trkpt lat="45.40839" lon="5.9671">
        <ele>417</ele>
        <time>2014-05-08T13:39:54Z</time>
      </trkpt>
      <trkpt lat="45.4082" lon="5.96713">
        <ele>416</ele>
        <time>2014-05-08T13:40:03Z</time>
      </trkpt>
      <trkpt lat="45.40801" lon="5.96713">
        <ele>416</ele>
        <time>2014-05-08T13:40:14Z</time>
      </trkpt>
      <trkpt lat="45.40782" lon="5.96705">
        <ele>416</ele>
        <time>2014-05-08T13:40:24Z</time>
      </trkpt>
      <trkpt lat="45.40766" lon="5.96689">
        <ele>417</ele>
        <time>2014-05-08T13:40:33Z</time>
      </trkpt>
      <trkpt lat="45.40753" lon="5.96671">
        <ele>420</ele>
        <time>2014-05-08T13:40:41Z</time>
      </trkpt>
      <trkpt lat="45.40742" lon="5.9665">
        <ele>421</ele>
        <time>2014-05-08T13:40:50Z</time>
      </trkpt>
      <trkpt lat="45.40738" lon="5.96625">
        <ele>421</ele>
        <time>2014-05-08T13:40:57Z</time>
      </trkpt>
      <trkpt lat="45.40734" lon="5.96598">
        <ele>424</ele>
        <time>2014-05-08T13:41:04Z</time>
      </trkpt>
      <trkpt lat="45.40723" lon="5.96576">
        <ele>429</ele>
        <time>2014-05-08T13:41:11Z</time>
      </trkpt>
      <trkpt lat="45.40707" lon="5.96563">
        <ele>429</ele>
        <time>2014-05-08T13:41:16Z</time>
      </trkpt>
      <trkpt lat="45.40688" lon="5.96559">
        <ele>428</ele>
        <time>2014-05-08T13:41:22Z</time>
      </trkpt>
      <trkpt lat="45.40667" lon="5.96559">
        <ele>427</ele>
        <time>2014-05-08T13:41:28Z</time>
      </trkpt>
      <trkpt lat="45.40647" lon="5.9656">
        <ele>425</ele>
        <time>2014-05-08T13:41:34Z</time>
      </trkpt>
      <trkpt lat="45.40627" lon="5.96559">
        <ele>425</ele>
        <time>2014-05-08T13:41:40Z</time>
      </trkpt>
      <trkpt lat="45.4061" lon="5.96569">
        <ele>424</ele>
        <time>2014-05-08T13:41:46Z</time>
      </trkpt>
      <trkpt lat="45.40596" lon="5.96589">
        <ele>418</ele>
        <time>2014-05-08T13:41:50Z</time>
      </trkpt>
      <trkpt lat="45.40578" lon="5.96606">
        <ele>416</ele>
        <time>2014-05-08T13:41:53Z</time>
      </trkpt>
      <trkpt lat="45.40555" lon="5.96629">
        <ele>414</ele>
        <time>2014-05-08T13:41:56Z</time>
      </trkpt>
      <trkpt lat="45.40538" lon="5.96648">
        <ele>413</ele>
        <time>2014-05-08T13:41:58Z</time>
      </trkpt>
      <trkpt lat="45.40521" lon="5.96664">
        <ele>412</ele>
        <time>2014-05-08T13:42:00Z</time>
      </trkpt>
      <trkpt lat="45.40504" lon="5.96683">
        <ele>408</ele>
        <time>2014-05-08T13:42:02Z</time>
      </trkpt>
      <trkpt lat="45.40489" lon="5.96703">
        <ele>407</ele>
        <time>2014-05-08T13:42:04Z</time>
      </trkpt>
      <trkpt lat="45.40473" lon="5.96724">
        <ele>406</ele>
        <time>2014-05-08T13:42:06Z</time>
      </trkpt>
      <trkpt lat="45.40459" lon="5.96745">
        <ele>406</ele>
        <time>2014-05-08T13:42:08Z</time>
      </trkpt>
      <trkpt lat="45.40447" lon="5.96766">
        <ele>404</ele>
        <time>2014-05-08T13:42:10Z</time>
      </trkpt>
      <trkpt lat="45.40437" lon="5.96788">
        <ele>404</ele>
        <time>2014-05-08T13:42:12Z</time>
      </trkpt>
      <trkpt lat="45.40428" lon="5.96818">
        <ele>404</ele>
        <time>2014-05-08T13:42:15Z</time>
      </trkpt>
      <trkpt lat="45.40422" lon="5.96842">
        <ele>404</ele>
        <time>2014-05-08T13:42:17Z</time>
      </trkpt>
      <trkpt lat="45.40414" lon="5.96872">
        <ele>405</ele>
        <time>2014-05-08T13:42:20Z</time>
      </trkpt>
      <trkpt lat="45.40393" lon="5.96877">
        <ele>405</ele>
        <time>2014-05-08T13:42:26Z</time>
      </trkpt>
      <trkpt lat="45.40374" lon="5.96866">
        <ele>405</ele>
        <time>2014-05-08T13:42:31Z</time>
      </trkpt>
      <trkpt lat="45.40353" lon="5.96851">
        <ele>405</ele>
        <time>2014-05-08T13:42:36Z</time>
      </trkpt>
      <trkpt lat="45.40337" lon="5.96838">
        <ele>405</ele>
        <time>2014-05-08T13:42:40Z</time>
      </trkpt>
      <trkpt lat="45.40324" lon="5.96821">
        <ele>405</ele>
        <time>2014-05-08T13:42:44Z</time>
      </trkpt>
      <trkpt lat="45.40305" lon="5.96809">
        <ele>404</ele>
        <time>2014-05-08T13:42:49Z</time>
      </trkpt>
      <trkpt lat="45.40285" lon="5.96801">
        <ele>404</ele>
        <time>2014-05-08T13:42:54Z</time>
      </trkpt>
      <trkpt lat="45.40266" lon="5.96793">
        <ele>404</ele>
        <time>2014-05-08T13:42:58Z</time>
      </trkpt>
      <trkpt lat="45.40247" lon="5.96786">
        <ele>402</ele>
        <time>2014-05-08T13:43:02Z</time>
      </trkpt>
      <trkpt lat="45.40228" lon="5.96778">
        <ele>402</ele>
        <time>2014-05-08T13:43:06Z</time>
      </trkpt>
      <trkpt lat="45.40207" lon="5.96768">
        <ele>402</ele>
        <time>2014-05-08T13:43:11Z</time>
      </trkpt>
      <trkpt lat="45.4019" lon="5.96759">
        <ele>402</ele>
        <time>2014-05-08T13:43:15Z</time>
      </trkpt>
      <trkpt lat="45.40171" lon="5.96751">
        <ele>402</ele>
        <time>2014-05-08T13:43:21Z</time>
      </trkpt>
      <trkpt lat="45.40178" lon="5.96777">
        <ele>402</ele>
        <time>2014-05-08T13:43:29Z</time>
      </trkpt>
      <trkpt lat="45.40191" lon="5.96798">
        <ele>401</ele>
        <time>2014-05-08T13:43:33Z</time>
      </trkpt>
      <trkpt lat="45.40203" lon="5.96822">
        <ele>401</ele>
        <time>2014-05-08T13:43:37Z</time>
      </trkpt>
      <trkpt lat="45.40212" lon="5.96854">
        <ele>400</ele>
        <time>2014-05-08T13:43:41Z</time>
      </trkpt>
      <trkpt lat="45.40213" lon="5.96884">
        <ele>400</ele>
        <time>2014-05-08T13:43:44Z</time>
      </trkpt>
      <trkpt lat="45.40203" lon="5.96913">
        <ele>400</ele>
        <time>2014-05-08T13:43:47Z</time>
      </trkpt>
      <trkpt lat="45.40185" lon="5.96925">
        <ele>398</ele>
        <time>2014-05-08T13:43:50Z</time>
      </trkpt>
      <trkpt lat="45.40164" lon="5.96924">
        <ele>397</ele>
        <time>2014-05-08T13:43:54Z</time>
      </trkpt>
      <trkpt lat="45.40145" lon="5.96918">
        <ele>396</ele>
        <time>2014-05-08T13:43:59Z</time>
      </trkpt>
      <trkpt lat="45.40125" lon="5.96909">
        <ele>398</ele>
        <time>2014-05-08T13:44:05Z</time>
      </trkpt>
      <trkpt lat="45.40105" lon="5.96902">
        <ele>398</ele>
        <time>2014-05-08T13:44:10Z</time>
      </trkpt>
      <trkpt lat="45.40088" lon="5.96896">
        <ele>397</ele>
        <time>2014-05-08T13:44:14Z</time>
      </trkpt>
      <trkpt lat="45.40069" lon="5.96887">
        <ele>397</ele>
        <time>2014-05-08T13:44:18Z</time>
      </trkpt>
      <trkpt lat="45.4005" lon="5.96877">
        <ele>397</ele>
        <time>2014-05-08T13:44:22Z</time>
      </trkpt>
      <trkpt lat="45.40033" lon="5.96869">
        <ele>398</ele>
        <time>2014-05-08T13:44:26Z</time>
      </trkpt>
      <trkpt lat="45.40014" lon="5.96857">
        <ele>398</ele>
        <time>2014-05-08T13:44:33Z</time>
      </trkpt>
      <trkpt lat="45.39999" lon="5.96835">
        <ele>399</ele>
        <time>2014-05-08T13:44:39Z</time>
      </trkpt>
      <trkpt lat="45.39993" lon="5.96806">
        <ele>401</ele>
        <time>2014-05-08T13:44:44Z</time>
      </trkpt>
      <trkpt lat="45.39992" lon="5.96779">
        <ele>402</ele>
        <time>2014-05-08T13:44:49Z</time>
      </trkpt>
      <trkpt lat="45.39992" lon="5.96751">
        <ele>403</ele>
        <time>2014-05-08T13:44:57Z</time>
      </trkpt>
      <trkpt lat="45.39982" lon="5.96728">
        <ele>409</ele>
        <time>2014-05-08T13:45:10Z</time>
      </trkpt>
      <trkpt lat="45.39964" lon="5.9673">
        <ele>411</ele>
        <time>2014-05-08T13:45:18Z</time>
      </trkpt>
      <trkpt lat="45.39944" lon="5.96732">
        <ele>411</ele>
        <time>2014-05-08T13:45:28Z</time>
      </trkpt>
      <trkpt lat="45.39925" lon="5.96731">
        <ele>411</ele>
        <time>2014-05-08T13:45:39Z</time>
      </trkpt>
      <trkpt lat="45.39907" lon="5.96724">
        <ele>415</ele>
        <time>2014-05-08T13:45:50Z</time>
      </trkpt>
      <trkpt lat="45.39889" lon="5.9672">
        <ele>417</ele>
        <time>2014-05-08T13:46:01Z</time>
      </trkpt>
      <trkpt lat="45.3987" lon="5.96717">
        <ele>418</ele>
        <time>2014-05-08T13:46:11Z</time>
      </trkpt>
      <trkpt lat="45.39851" lon="5.96709">
        <ele>419</ele>
        <time>2014-05-08T13:46:22Z</time>
      </trkpt>
      <trkpt lat="45.39834" lon="5.96701">
        <ele>420</ele>
        <time>2014-05-08T13:46:32Z</time>
      </trkpt>
      <trkpt lat="45.39817" lon="5.96688">
        <ele>422</ele>
        <time>2014-05-08T13:46:44Z</time>
      </trkpt>
      <trkpt lat="45.39801" lon="5.96673">
        <ele>423</ele>
        <time>2014-05-08T13:46:55Z</time>
      </trkpt>
      <trkpt lat="45.39784" lon="5.96659">
        <ele>428</ele>
        <time>2014-05-08T13:47:05Z</time>
      </trkpt>
      <trkpt lat="45.39767" lon="5.96648">
        <ele>427</ele>
        <time>2014-05-08T13:47:14Z</time>
      </trkpt>
      <trkpt lat="45.39749" lon="5.96641">
        <ele>427</ele>
        <time>2014-05-08T13:47:25Z</time>
      </trkpt>
      <trkpt lat="45.39731" lon="5.96634">
        <ele>428</ele>
        <time>2014-05-08T13:47:34Z</time>
      </trkpt>
      <trkpt lat="45.39712" lon="5.96626">
        <ele>428</ele>
        <time>2014-05-08T13:47:42Z</time>
      </trkpt>
      <trkpt lat="45.39694" lon="5.96618">
        <ele>429</ele>
        <time>2014-05-08T13:47:50Z</time>
      </trkpt>
      <trkpt lat="45.39675" lon="5.96611">
        <ele>429</ele>
        <time>2014-05-08T13:48:01Z</time>
      </trkpt>
      <trkpt lat="45.39659" lon="5.96594">
        <ele>429</ele>
        <time>2014-05-08T13:48:44Z</time>
      </trkpt>
      <trkpt lat="45.39647" lon="5.96574">
        <ele>429</ele>
        <time>2014-05-08T13:48:51Z</time>
      </trkpt>
      <trkpt lat="45.39645" lon="5.96544">
        <ele>429</ele>
        <time>2014-05-08T13:48:56Z</time>
      </trkpt>
      <trkpt lat="45.39646" lon="5.96517">
        <ele>429</ele>
        <time>2014-05-08T13:49:01Z</time>
      </trkpt>
      <trkpt lat="45.39653" lon="5.96489">
        <ele>428</ele>
        <time>2014-05-08T13:49:05Z</time>
      </trkpt>
      <trkpt lat="45.39662" lon="5.96461">
        <ele>427</ele>
        <time>2014-05-08T13:49:09Z</time>
      </trkpt>
      <trkpt lat="45.39666" lon="5.96429">
        <ele>426</ele>
        <time>2014-05-08T13:49:14Z</time>
      </trkpt>
      <trkpt lat="45.39654" lon="5.96408">
        <ele>424</ele>
        <time>2014-05-08T13:49:23Z</time>
      </trkpt>
      <trkpt lat="45.39634" lon="5.96405">
        <ele>423</ele>
        <time>2014-05-08T13:49:29Z</time>
      </trkpt>
      <trkpt lat="45.39615" lon="5.96402">
        <ele>423</ele>
        <time>2014-05-08T13:49:36Z</time>
      </trkpt>
      <trkpt lat="45.39604" lon="5.96425">
        <ele>426</ele>
        <time>2014-05-08T13:49:44Z</time>
      </trkpt>
      <trkpt lat="45.39586" lon="5.9644">
        <ele>426</ele>
        <time>2014-05-08T13:49:50Z</time>
      </trkpt>
      <trkpt lat="45.39568" lon="5.9644">
        <ele>425</ele>
        <time>2014-05-08T13:49:54Z</time>
      </trkpt>
      <trkpt lat="45.39547" lon="5.96438">
        <ele>425</ele>
        <time>2014-05-08T13:49:59Z</time>
      </trkpt>
      <trkpt lat="45.39528" lon="5.96438">
        <ele>425</ele>
        <time>2014-05-08T13:50:04Z</time>
      </trkpt>
      <trkpt lat="45.39507" lon="5.96437">
        <ele>425</ele>
        <time>2014-05-08T13:50:09Z</time>
      </trkpt>
      <trkpt lat="45.39487" lon="5.96443">
        <ele>424</ele>
        <time>2014-05-08T13:50:15Z</time>
      </trkpt>
      <trkpt lat="45.39469" lon="5.96453">
        <ele>424</ele>
        <time>2014-05-08T13:50:20Z</time>
      </trkpt>
      <trkpt lat="45.3945" lon="5.96451">
        <ele>424</ele>
        <time>2014-05-08T13:50:26Z</time>
      </trkpt>
      <trkpt lat="45.39429" lon="5.96448">
        <ele>423</ele>
        <time>2014-05-08T13:50:31Z</time>
      </trkpt>
      <trkpt lat="45.39409" lon="5.96452">
        <ele>422</ele>
        <time>2014-05-08T13:50:36Z</time>
      </trkpt>
      <trkpt lat="45.39389" lon="5.9646">
        <ele>422</ele>
        <time>2014-05-08T13:50:41Z</time>
      </trkpt>
      <trkpt lat="45.39369" lon="5.96471">
        <ele>422</ele>
        <time>2014-05-08T13:50:45Z</time>
      </trkpt>
      <trkpt lat="45.39347" lon="5.96482">
        <ele>422</ele>
        <time>2014-05-08T13:50:49Z</time>
      </trkpt>
      <trkpt lat="45.3933" lon="5.96496">
        <ele>422</ele>
        <time>2014-05-08T13:50:52Z</time>
      </trkpt>
      <trkpt lat="45.39311" lon="5.9651">
        <ele>420</ele>
        <time>2014-05-08T13:50:55Z</time>
      </trkpt>
      <trkpt lat="45.39293" lon="5.96526">
        <ele>419</ele>
        <time>2014-05-08T13:50:58Z</time>
      </trkpt>
      <trkpt lat="45.39278" lon="5.96548">
        <ele>418</ele>
        <time>2014-05-08T13:51:01Z</time>
      </trkpt>
      <trkpt lat="45.39263" lon="5.96572">
        <ele>417</ele>
        <time>2014-05-08T13:51:04Z</time>
      </trkpt>
      <trkpt lat="45.3925" lon="5.96591">
        <ele>415</ele>
        <time>2014-05-08T13:51:07Z</time>
      </trkpt>
      <trkpt lat="45.3923" lon="5.96607">
        <ele>412</ele>
        <time>2014-05-08T13:51:10Z</time>
      </trkpt>
      <trkpt lat="45.39204" lon="5.9662">
        <ele>411</ele>
        <time>2014-05-08T13:51:13Z</time>
      </trkpt>
      <trkpt lat="45.39187" lon="5.9663">
        <ele>410</ele>
        <time>2014-05-08T13:51:15Z</time>
      </trkpt>
      <trkpt lat="45.39169" lon="5.96644">
        <ele>409</ele>
        <time>2014-05-08T13:51:17Z</time>
      </trkpt>
      <trkpt lat="45.39149" lon="5.96653">
        <ele>407</ele>
        <time>2014-05-08T13:51:19Z</time>
      </trkpt>
      <trkpt lat="45.39128" lon="5.96657">
        <ele>406</ele>
        <time>2014-05-08T13:51:21Z</time>
      </trkpt>
      <trkpt lat="45.39107" lon="5.96657">
        <ele>405</ele>
        <time>2014-05-08T13:51:23Z</time>
      </trkpt>
      <trkpt lat="45.39087" lon="5.96654">
        <ele>404</ele>
        <time>2014-05-08T13:51:25Z</time>
      </trkpt>
      <trkpt lat="45.39065" lon="5.96652">
        <ele>402</ele>
        <time>2014-05-08T13:51:28Z</time>
      </trkpt>
      <trkpt lat="45.39043" lon="5.96652">
        <ele>402</ele>
        <time>2014-05-08T13:51:32Z</time>
      </trkpt>
      <trkpt lat="45.39024" lon="5.96651">
        <ele>401</ele>
        <time>2014-05-08T13:51:35Z</time>
      </trkpt>
      <trkpt lat="45.39007" lon="5.96661">
        <ele>401</ele>
        <time>2014-05-08T13:51:40Z</time>
      </trkpt>
      <trkpt lat="45.38987" lon="5.96658">
        <ele>401</ele>
        <time>2014-05-08T13:51:47Z</time>
      </trkpt>
      <trkpt lat="45.38964" lon="5.96649">
        <ele>401</ele>
        <time>2014-05-08T13:51:58Z</time>
      </trkpt>
      <trkpt lat="45.38946" lon="5.96643">
        <ele>401</ele>
        <time>2014-05-08T13:52:05Z</time>
      </trkpt>
      <trkpt lat="45.38932" lon="5.96619">
        <ele>401</ele>
        <time>2014-05-08T13:52:14Z</time>
      </trkpt>
      <trkpt lat="45.38924" lon="5.96595">
        <ele>402</ele>
        <time>2014-05-08T13:52:22Z</time>
      </trkpt>
      <trkpt lat="45.38911" lon="5.96567">
        <ele>402</ele>
        <time>2014-05-08T13:52:29Z</time>
      </trkpt>
      <trkpt lat="45.38899" lon="5.96536">
        <ele>400</ele>
        <time>2014-05-08T13:52:35Z</time>
      </trkpt>
      <trkpt lat="45.38887" lon="5.96516">
        <ele>400</ele>
        <time>2014-05-08T13:52:43Z</time>
      </trkpt>
      <trkpt lat="45.38872" lon="5.96497">
        <ele>399</ele>
        <time>2014-05-08T13:52:47Z</time>
      </trkpt>
      <trkpt lat="45.38854" lon="5.96476">
        <ele>399</ele>
        <time>2014-05-08T13:52:51Z</time>
      </trkpt>
      <trkpt lat="45.38837" lon="5.96457">
        <ele>398</ele>
        <time>2014-05-08T13:52:55Z</time>
      </trkpt>
      <trkpt lat="45.38821" lon="5.96438">
        <ele>397</ele>
        <time>2014-05-08T13:52:58Z</time>
      </trkpt>
      <trkpt lat="45.38805" lon="5.96417">
        <ele>397</ele>
        <time>2014-05-08T13:53:01Z</time>
      </trkpt>
      <trkpt lat="45.38793" lon="5.96392">
        <ele>396</ele>
        <time>2014-05-08T13:53:05Z</time>
      </trkpt>
      <trkpt lat="45.38782" lon="5.96366">
        <ele>396</ele>
        <time>2014-05-08T13:53:10Z</time>
      </trkpt>
      <trkpt lat="45.3877" lon="5.9634">
        <ele>396</ele>
        <time>2014-05-08T13:53:14Z</time>
      </trkpt>
      <trkpt lat="45.3876" lon="5.96314">
        <ele>395</ele>
        <time>2014-05-08T13:53:17Z</time>
      </trkpt>
      <trkpt lat="45.38751" lon="5.96291">
        <ele>394</ele>
        <time>2014-05-08T13:53:20Z</time>
      </trkpt>
      <trkpt lat="45.38742" lon="5.96267">
        <ele>395</ele>
        <time>2014-05-08T13:53:24Z</time>
      </trkpt>
      <trkpt lat="45.38735" lon="5.96237">
        <ele>392</ele>
        <time>2014-05-08T13:53:28Z</time>
      </trkpt>
      <trkpt lat="45.38727" lon="5.96213">
        <ele>392</ele>
        <time>2014-05-08T13:53:31Z</time>
      </trkpt>
      <trkpt lat="45.38716" lon="5.96188">
        <ele>391</ele>
        <time>2014-05-08T13:53:34Z</time>
      </trkpt>
      <trkpt lat="45.38704" lon="5.96162">
        <ele>386</ele>
        <time>2014-05-08T13:53:37Z</time>
      </trkpt>
      <trkpt lat="45.38701" lon="5.96136">
        <ele>385</ele>
        <time>2014-05-08T13:53:40Z</time>
      </trkpt>
      <trkpt lat="45.38705" lon="5.96102">
        <ele>383</ele>
        <time>2014-05-08T13:53:43Z</time>
      </trkpt>
      <trkpt lat="45.38709" lon="5.96075">
        <ele>378</ele>
        <time>2014-05-08T13:53:45Z</time>
      </trkpt>
      <trkpt lat="45.38711" lon="5.96043">
        <ele>377</ele>
        <time>2014-05-08T13:53:47Z</time>
      </trkpt>
      <trkpt lat="45.38712" lon="5.96011">
        <ele>376</ele>
        <time>2014-05-08T13:53:49Z</time>
      </trkpt>
      <trkpt lat="45.38712" lon="5.95981">
        <ele>372</ele>
        <time>2014-05-08T13:53:51Z</time>
      </trkpt>
      <trkpt lat="45.3872" lon="5.9595">
        <ele>371</ele>
        <time>2014-05-08T13:53:54Z</time>
      </trkpt>
      <trkpt lat="45.38715" lon="5.95924">
        <ele>371</ele>
        <time>2014-05-08T13:54:01Z</time>
      </trkpt>
      <trkpt lat="45.387" lon="5.95906">
        <ele>368</ele>
        <time>2014-05-08T13:54:05Z</time>
      </trkpt>
      <trkpt lat="45.38682" lon="5.95884">
        <ele>368</ele>
        <time>2014-05-08T13:54:08Z</time>
      </trkpt>
      <trkpt lat="45.3866" lon="5.95864">
        <ele>364</ele>
        <time>2014-05-08T13:54:11Z</time>
      </trkpt>
      <trkpt lat="45.38644" lon="5.95848">
        <ele>364</ele>
        <time>2014-05-08T13:54:13Z</time>
      </trkpt>
      <trkpt lat="45.38631" lon="5.95822">
        <ele>360</ele>
        <time>2014-05-08T13:54:15Z</time>
      </trkpt>
      <trkpt lat="45.3862" lon="5.95795">
        <ele>360</ele>
        <time>2014-05-08T13:54:17Z</time>
      </trkpt>
      <trkpt lat="45.38615" lon="5.95767">
        <ele>359</ele>
        <time>2014-05-08T13:54:19Z</time>
      </trkpt>
      <trkpt lat="45.38616" lon="5.95734">
        <ele>358</ele>
        <time>2014-05-08T13:54:22Z</time>
      </trkpt>
      <trkpt lat="45.38614" lon="5.95704">
        <ele>359</ele>
        <time>2014-05-08T13:54:25Z</time>
      </trkpt>
      <trkpt lat="45.38611" lon="5.95676">
        <ele>358</ele>
        <time>2014-05-08T13:54:30Z</time>
      </trkpt>
      <trkpt lat="45.38604" lon="5.9565">
        <ele>361</ele>
        <time>2014-05-08T13:54:37Z</time>
      </trkpt>
      <trkpt lat="45.38592" lon="5.95629">
        <ele>363</ele>
        <time>2014-05-08T13:54:46Z</time>
      </trkpt>
      <trkpt lat="45.38578" lon="5.95613">
        <ele>356</ele>
        <time>2014-05-08T13:54:56Z</time>
      </trkpt>
      <trkpt lat="45.38569" lon="5.95586">
        <ele>358</ele>
        <time>2014-05-08T13:55:06Z</time>
      </trkpt>
      <trkpt lat="45.38565" lon="5.95554">
        <ele>360</ele>
        <time>2014-05-08T13:55:22Z</time>
      </trkpt>
      <trkpt lat="45.38573" lon="5.9553">
        <ele>362</ele>
        <time>2014-05-08T13:55:35Z</time>
      </trkpt>
      <trkpt lat="45.3858" lon="5.95502">
        <ele>367</ele>
        <time>2014-05-08T13:55:42Z</time>
      </trkpt>
      <trkpt lat="45.38574" lon="5.95478">
        <ele>363</ele>
        <time>2014-05-08T13:55:52Z</time>
      </trkpt>
      <trkpt lat="45.3858" lon="5.95451">
        <ele>361</ele>
        <time>2014-05-08T13:56:09Z</time>
      </trkpt>
      <trkpt lat="45.38594" lon="5.95431">
        <ele>369</ele>
        <time>2014-05-08T13:56:17Z</time>
      </trkpt>
      <trkpt lat="45.38611" lon="5.95413">
        <ele>369</ele>
        <time>2014-05-08T13:56:24Z</time>
      </trkpt>
      <trkpt lat="45.38622" lon="5.95388">
        <ele>370</ele>
        <time>2014-05-08T13:56:34Z</time>
      </trkpt>
      <trkpt lat="45.3863" lon="5.95357">
        <ele>371</ele>
        <time>2014-05-08T13:56:42Z</time>
      </trkpt>
      <trkpt lat="45.3864" lon="5.95331">
        <ele>371</ele>
        <time>2014-05-08T13:56:48Z</time>
      </trkpt>
      <trkpt lat="45.38646" lon="5.95304">
        <ele>370</ele>
        <time>2014-05-08T13:56:52Z</time>
      </trkpt>
      <trkpt lat="45.3865" lon="5.95273">
        <ele>370</ele>
        <time>2014-05-08T13:56:56Z</time>
      </trkpt>
      <trkpt lat="45.3865" lon="5.95245">
        <ele>373</ele>
        <time>2014-05-08T13:57:00Z</time>
      </trkpt>
      <trkpt lat="45.3864" lon="5.95221">
        <ele>373</ele>
        <time>2014-05-08T13:57:05Z</time>
      </trkpt>
      <trkpt lat="45.38624" lon="5.95206">
        <ele>373</ele>
        <time>2014-05-08T13:57:10Z</time>
      </trkpt>
      <trkpt lat="45.38603" lon="5.952">
        <ele>373</ele>
        <time>2014-05-08T13:57:15Z</time>
      </trkpt>
      <trkpt lat="45.38581" lon="5.95197">
        <ele>368</ele>
        <time>2014-05-08T13:57:19Z</time>
      </trkpt>
      <trkpt lat="45.38562" lon="5.95196">
        <ele>368</ele>
        <time>2014-05-08T13:57:22Z</time>
      </trkpt>
      <trkpt lat="45.38543" lon="5.95195">
        <ele>367</ele>
        <time>2014-05-08T13:57:25Z</time>
      </trkpt>
      <trkpt lat="45.38524" lon="5.95196">
        <ele>366</ele>
        <time>2014-05-08T13:57:28Z</time>
      </trkpt>
      <trkpt lat="45.38504" lon="5.95193">
        <ele>366</ele>
        <time>2014-05-08T13:57:31Z</time>
      </trkpt>
      <trkpt lat="45.38483" lon="5.9519">
        <ele>363</ele>
        <time>2014-05-08T13:57:34Z</time>
      </trkpt>
      <trkpt lat="45.3846" lon="5.95193">
        <ele>361</ele>
        <time>2014-05-08T13:57:37Z</time>
      </trkpt>
      <trkpt lat="45.38436" lon="5.95192">
        <ele>360</ele>
        <time>2014-05-08T13:57:40Z</time>
      </trkpt>
      <trkpt lat="45.38411" lon="5.95189">
        <ele>357</ele>
        <time>2014-05-08T13:57:43Z</time>
      </trkpt>
      <trkpt lat="45.38389" lon="5.95187">
        <ele>357</ele>
        <time>2014-05-08T13:57:46Z</time>
      </trkpt>
      <trkpt lat="45.38366" lon="5.9519">
        <ele>356</ele>
        <time>2014-05-08T13:57:50Z</time>
      </trkpt>
      <trkpt lat="45.38346" lon="5.95187">
        <ele>357</ele>
        <time>2014-05-08T13:57:58Z</time>
      </trkpt>
      <trkpt lat="45.38326" lon="5.95178">
        <ele>356</ele>
        <time>2014-05-08T13:58:04Z</time>
      </trkpt>
      <trkpt lat="45.38311" lon="5.95163">
        <ele>359</ele>
        <time>2014-05-08T13:58:09Z</time>
      </trkpt>
      <trkpt lat="45.3829" lon="5.95167">
        <ele>354</ele>
        <time>2014-05-08T13:58:16Z</time>
      </trkpt>
      <trkpt lat="45.38273" lon="5.95183">
        <ele>353</ele>
        <time>2014-05-08T13:58:19Z</time>
      </trkpt>
      <trkpt lat="45.38251" lon="5.95196">
        <ele>352</ele>
        <time>2014-05-08T13:58:23Z</time>
      </trkpt>
      <trkpt lat="45.38233" lon="5.95187">
        <ele>348</ele>
        <time>2014-05-08T13:58:26Z</time>
      </trkpt>
      <trkpt lat="45.38218" lon="5.95172">
        <ele>348</ele>
        <time>2014-05-08T13:58:29Z</time>
      </trkpt>
      <trkpt lat="45.38202" lon="5.95157">
        <ele>350</ele>
        <time>2014-05-08T13:58:32Z</time>
      </trkpt>
      <trkpt lat="45.38184" lon="5.95138">
        <ele>349</ele>
        <time>2014-05-08T13:58:36Z</time>
      </trkpt>
      <trkpt lat="45.38168" lon="5.95124">
        <ele>350</ele>
        <time>2014-05-08T13:58:39Z</time>
      </trkpt>
      <trkpt lat="45.38147" lon="5.9511">
        <ele>345</ele>
        <time>2014-05-08T13:58:43Z</time>
      </trkpt>
      <trkpt lat="45.38128" lon="5.95095">
        <ele>345</ele>
        <time>2014-05-08T13:58:47Z</time>
      </trkpt>
      <trkpt lat="45.38111" lon="5.95082">
        <ele>349</ele>
        <time>2014-05-08T13:58:50Z</time>
      </trkpt>
      <trkpt lat="45.38093" lon="5.95066">
        <ele>348</ele>
        <time>2014-05-08T13:58:54Z</time>
      </trkpt>
      <trkpt lat="45.38075" lon="5.9505">
        <ele>346</ele>
        <time>2014-05-08T13:58:58Z</time>
      </trkpt>
      <trkpt lat="45.38058" lon="5.95037">
        <ele>347</ele>
        <time>2014-05-08T13:59:02Z</time>
      </trkpt>
      <trkpt lat="45.38042" lon="5.95026">
        <ele>347</ele>
        <time>2014-05-08T13:59:05Z</time>
      </trkpt>
      <trkpt lat="45.38025" lon="5.95016">
        <ele>347</ele>
        <time>2014-05-08T13:59:08Z</time>
      </trkpt>
      <trkpt lat="45.38004" lon="5.95011">
        <ele>347</ele>
        <time>2014-05-08T13:59:12Z</time>
      </trkpt>
      <trkpt lat="45.37985" lon="5.95013">
        <ele>345</ele>
        <time>2014-05-08T13:59:16Z</time>
      </trkpt>
      <trkpt lat="45.37965" lon="5.95015">
        <ele>345</ele>
        <time>2014-05-08T13:59:20Z</time>
      </trkpt>
      <trkpt lat="45.37945" lon="5.95016">
        <ele>345</ele>
        <time>2014-05-08T13:59:24Z</time>
      </trkpt>
      <trkpt lat="45.37925" lon="5.95016">
        <ele>346</ele>
        <time>2014-05-08T13:59:29Z</time>
      </trkpt>
      <trkpt lat="45.37904" lon="5.95017">
        <ele>346</ele>
        <time>2014-05-08T13:59:34Z</time>
      </trkpt>
      <trkpt lat="45.37884" lon="5.95018">
        <ele>345</ele>
        <time>2014-05-08T13:59:39Z</time>
      </trkpt>
      <trkpt lat="45.37864" lon="5.95016">
        <ele>345</ele>
        <time>2014-05-08T13:59:44Z</time>
      </trkpt>
      <trkpt lat="45.37842" lon="5.95009">
        <ele>345</ele>
        <time>2014-05-08T13:59:49Z</time>
      </trkpt>
      <trkpt lat="45.37822" lon="5.94995">
        <ele>347</ele>
        <time>2014-05-08T13:59:54Z</time>
      </trkpt>
      <trkpt lat="45.37804" lon="5.94983">
        <ele>348</ele>
        <time>2014-05-08T13:59:59Z</time>
      </trkpt>
      <trkpt lat="45.37784" lon="5.94971">
        <ele>349</ele>
        <time>2014-05-08T14:00:04Z</time>
      </trkpt>
      <trkpt lat="45.37766" lon="5.94959">
        <ele>350</ele>
        <time>2014-05-08T14:00:08Z</time>
      </trkpt>
      <trkpt lat="45.37746" lon="5.94948">
        <ele>350</ele>
        <time>2014-05-08T14:00:13Z</time>
      </trkpt>
      <trkpt lat="45.37727" lon="5.94939">
        <ele>350</ele>
        <time>2014-05-08T14:00:17Z</time>
      </trkpt>
      <trkpt lat="45.3771" lon="5.9493">
        <ele>350</ele>
        <time>2014-05-08T14:00:21Z</time>
      </trkpt>
      <trkpt lat="45.37692" lon="5.94921">
        <ele>351</ele>
        <time>2014-05-08T14:00:25Z</time>
      </trkpt>
      <trkpt lat="45.37672" lon="5.94916">
        <ele>354</ele>
        <time>2014-05-08T14:00:29Z</time>
      </trkpt>
      <trkpt lat="45.37653" lon="5.94915">
        <ele>355</ele>
        <time>2014-05-08T14:00:33Z</time>
      </trkpt>
      <trkpt lat="45.37634" lon="5.94912">
        <ele>356</ele>
        <time>2014-05-08T14:00:37Z</time>
      </trkpt>
      <trkpt lat="45.37616" lon="5.94909">
        <ele>356</ele>
        <time>2014-05-08T14:00:41Z</time>
      </trkpt>
      <trkpt lat="45.37598" lon="5.94906">
        <ele>355</ele>
        <time>2014-05-08T14:00:46Z</time>
      </trkpt>
      <trkpt lat="45.37578" lon="5.94906">
        <ele>353</ele>
        <time>2014-05-08T14:00:51Z</time>
      </trkpt>
      <trkpt lat="45.37558" lon="5.94906">
        <ele>353</ele>
        <time>2014-05-08T14:00:56Z</time>
      </trkpt>
      <trkpt lat="45.37537" lon="5.94907">
        <ele>352</ele>
        <time>2014-05-08T14:01:02Z</time>
      </trkpt>
      <trkpt lat="45.37517" lon="5.94907">
        <ele>351</ele>
        <time>2014-05-08T14:01:07Z</time>
      </trkpt>
      <trkpt lat="45.37497" lon="5.94904">
        <ele>349</ele>
        <time>2014-05-08T14:01:12Z</time>
      </trkpt>
      <trkpt lat="45.37478" lon="5.94906">
        <ele>350</ele>
        <time>2014-05-08T14:01:17Z</time>
      </trkpt>
      <trkpt lat="45.37458" lon="5.94901">
        <ele>350</ele>
        <time>2014-05-08T14:01:21Z</time>
      </trkpt>
      <trkpt lat="45.37438" lon="5.94893">
        <ele>351</ele>
        <time>2014-05-08T14:01:25Z</time>
      </trkpt>
      <trkpt lat="45.37419" lon="5.94886">
        <ele>351</ele>
        <time>2014-05-08T14:01:29Z</time>
      </trkpt>
      <trkpt lat="45.37398" lon="5.94882">
        <ele>352</ele>
        <time>2014-05-08T14:01:34Z</time>
      </trkpt>
      <trkpt lat="45.37379" lon="5.94882">
        <ele>352</ele>
        <time>2014-05-08T14:01:39Z</time>
      </trkpt>
      <trkpt lat="45.3736" lon="5.94883">
        <ele>352</ele>
        <time>2014-05-08T14:01:45Z</time>
      </trkpt>
      <trkpt lat="45.37352" lon="5.94859">
        <ele>353</ele>
        <time>2014-05-08T14:01:53Z</time>
      </trkpt>
      <trkpt lat="45.37335" lon="5.94843">
        <ele>355</ele>
        <time>2014-05-08T14:02:03Z</time>
      </trkpt>
      <trkpt lat="45.37316" lon="5.94846">
        <ele>355</ele>
        <time>2014-05-08T14:02:10Z</time>
      </trkpt>
      <trkpt lat="45.37297" lon="5.94843">
        <ele>356</ele>
        <time>2014-05-08T14:02:19Z</time>
      </trkpt>
      <trkpt lat="45.37276" lon="5.9484">
        <ele>356</ele>
        <time>2014-05-08T14:02:27Z</time>
      </trkpt>
      <trkpt lat="45.37257" lon="5.94842">
        <ele>357</ele>
        <time>2014-05-08T14:02:35Z</time>
      </trkpt>
      <trkpt lat="45.3724" lon="5.94851">
        <ele>358</ele>
        <time>2014-05-08T14:02:45Z</time>
      </trkpt>
      <trkpt lat="45.37222" lon="5.94859">
        <ele>357</ele>
        <time>2014-05-08T14:02:52Z</time>
      </trkpt>
      <trkpt lat="45.37202" lon="5.94863">
        <ele>357</ele>
        <time>2014-05-08T14:02:59Z</time>
      </trkpt>
      <trkpt lat="45.37182" lon="5.94864">
        <ele>357</ele>
        <time>2014-05-08T14:03:05Z</time>
      </trkpt>
      <trkpt lat="45.37163" lon="5.94859">
        <ele>358</ele>
        <time>2014-05-08T14:03:11Z</time>
      </trkpt>
      <trkpt lat="45.37145" lon="5.94849">
        <ele>358</ele>
        <time>2014-05-08T14:03:17Z</time>
      </trkpt>
      <trkpt lat="45.37129" lon="5.94838">
        <ele>358</ele>
        <time>2014-05-08T14:03:24Z</time>
      </trkpt>
      <trkpt lat="45.3711" lon="5.94826">
        <ele>363</ele>
        <time>2014-05-08T14:03:30Z</time>
      </trkpt>
      <trkpt lat="45.3709" lon="5.94818">
        <ele>362</ele>
        <time>2014-05-08T14:03:36Z</time>
      </trkpt>
      <trkpt lat="45.37071" lon="5.94814">
        <ele>362</ele>
        <time>2014-05-08T14:03:42Z</time>
      </trkpt>
      <trkpt lat="45.37051" lon="5.94812">
        <ele>362</ele>
        <time>2014-05-08T14:03:49Z</time>
      </trkpt>
      <trkpt lat="45.37032" lon="5.94816">
        <ele>361</ele>
        <time>2014-05-08T14:03:56Z</time>
      </trkpt>
      <trkpt lat="45.37009" lon="5.9482">
        <ele>359</ele>
        <time>2014-05-08T14:04:02Z</time>
      </trkpt>
      <trkpt lat="45.36986" lon="5.94819">
        <ele>359</ele>
        <time>2014-05-08T14:04:06Z</time>
      </trkpt>
      <trkpt lat="45.36965" lon="5.94813">
        <ele>360</ele>
        <time>2014-05-08T14:04:09Z</time>
      </trkpt>
      <trkpt lat="45.36947" lon="5.94808">
        <ele>360</ele>
        <time>2014-05-08T14:04:12Z</time>
      </trkpt>
      <trkpt lat="45.36926" lon="5.94798">
        <ele>360</ele>
        <time>2014-05-08T14:04:17Z</time>
      </trkpt>
      <trkpt lat="45.36909" lon="5.94789">
        <ele>360</ele>
        <time>2014-05-08T14:04:22Z</time>
      </trkpt>
      <trkpt lat="45.36896" lon="5.94769">
        <ele>361</ele>
        <time>2014-05-08T14:04:27Z</time>
      </trkpt>
      <trkpt lat="45.36884" lon="5.94746">
        <ele>363</ele>
        <time>2014-05-08T14:04:32Z</time>
      </trkpt>
      <trkpt lat="45.36865" lon="5.94741">
        <ele>363</ele>
        <time>2014-05-08T14:04:37Z</time>
      </trkpt>
      <trkpt lat="45.36845" lon="5.94735">
        <ele>362</ele>
        <time>2014-05-08T14:04:42Z</time>
      </trkpt>
      <trkpt lat="45.36836" lon="5.94711">
        <ele>363</ele>
        <time>2014-05-08T14:04:46Z</time>
      </trkpt>
      <trkpt lat="45.3683" lon="5.94682">
        <ele>360</ele>
        <time>2014-05-08T14:04:51Z</time>
      </trkpt>
      <trkpt lat="45.36811" lon="5.94669">
        <ele>359</ele>
        <time>2014-05-08T14:04:57Z</time>
      </trkpt>
      <trkpt lat="45.36793" lon="5.94657">
        <ele>361</ele>
        <time>2014-05-08T14:05:03Z</time>
      </trkpt>
      <trkpt lat="45.36777" lon="5.94645">
        <ele>361</ele>
        <time>2014-05-08T14:05:08Z</time>
      </trkpt>
      <trkpt lat="45.36756" lon="5.94636">
        <ele>361</ele>
        <time>2014-05-08T14:05:14Z</time>
      </trkpt>
      <trkpt lat="45.36737" lon="5.94634">
        <ele>358</ele>
        <time>2014-05-08T14:05:18Z</time>
      </trkpt>
      <trkpt lat="45.36716" lon="5.94626">
        <ele>358</ele>
        <time>2014-05-08T14:05:22Z</time>
      </trkpt>
      <trkpt lat="45.36699" lon="5.94615">
        <ele>358</ele>
        <time>2014-05-08T14:05:26Z</time>
      </trkpt>
      <trkpt lat="45.36682" lon="5.94605">
        <ele>359</ele>
        <time>2014-05-08T14:05:31Z</time>
      </trkpt>
      <trkpt lat="45.36663" lon="5.94592">
        <ele>359</ele>
        <time>2014-05-08T14:05:36Z</time>
      </trkpt>
      <trkpt lat="45.36644" lon="5.94581">
        <ele>362</ele>
        <time>2014-05-08T14:05:41Z</time>
      </trkpt>
      <trkpt lat="45.36625" lon="5.94571">
        <ele>362</ele>
        <time>2014-05-08T14:05:46Z</time>
      </trkpt>
      <trkpt lat="45.36611" lon="5.94553">
        <ele>362</ele>
        <time>2014-05-08T14:05:51Z</time>
      </trkpt>
      <trkpt lat="45.36604" lon="5.94527">
        <ele>364</ele>
        <time>2014-05-08T14:05:57Z</time>
      </trkpt>
      <trkpt lat="45.36602" lon="5.945">
        <ele>365</ele>
        <time>2014-05-08T14:06:06Z</time>
      </trkpt>
      <trkpt lat="45.36602" lon="5.94472">
        <ele>370</ele>
        <time>2014-05-08T14:06:17Z</time>
      </trkpt>
      <trkpt lat="45.36601" lon="5.94446">
        <ele>372</ele>
        <time>2014-05-08T14:06:28Z</time>
      </trkpt>
      <trkpt lat="45.36587" lon="5.94429">
        <ele>374</ele>
        <time>2014-05-08T14:06:44Z</time>
      </trkpt>
      <trkpt lat="45.36568" lon="5.94425">
        <ele>374</ele>
        <time>2014-05-08T14:06:54Z</time>
      </trkpt>
      <trkpt lat="45.36549" lon="5.94423">
        <ele>373</ele>
        <time>2014-05-08T14:07:03Z</time>
      </trkpt>
      <trkpt lat="45.3653" lon="5.94421">
        <ele>373</ele>
        <time>2014-05-08T14:07:12Z</time>
      </trkpt>
      <trkpt lat="45.36511" lon="5.94422">
        <ele>374</ele>
        <time>2014-05-08T14:07:20Z</time>
      </trkpt>
      <trkpt lat="45.36492" lon="5.94416">
        <ele>376</ele>
        <time>2014-05-08T14:07:29Z</time>
      </trkpt>
      <trkpt lat="45.36473" lon="5.94416">
        <ele>376</ele>
        <time>2014-05-08T14:07:38Z</time>
      </trkpt>
      <trkpt lat="45.36455" lon="5.94412">
        <ele>376</ele>
        <time>2014-05-08T14:07:47Z</time>
      </trkpt>
      <trkpt lat="45.36435" lon="5.94408">
        <ele>376</ele>
        <time>2014-05-08T14:07:54Z</time>
      </trkpt>
      <trkpt lat="45.36417" lon="5.944">
        <ele>376</ele>
        <time>2014-05-08T14:07:59Z</time>
      </trkpt>
      <trkpt lat="45.36399" lon="5.94395">
        <ele>375</ele>
        <time>2014-05-08T14:08:05Z</time>
      </trkpt>
      <trkpt lat="45.36378" lon="5.9439">
        <ele>375</ele>
        <time>2014-05-08T14:08:12Z</time>
      </trkpt>
      <trkpt lat="45.36357" lon="5.94384">
        <ele>375</ele>
        <time>2014-05-08T14:08:18Z</time>
      </trkpt>
      <trkpt lat="45.36338" lon="5.94379">
        <ele>374</ele>
        <time>2014-05-08T14:08:22Z</time>
      </trkpt>
      <trkpt lat="45.36321" lon="5.94373">
        <ele>374</ele>
        <time>2014-05-08T14:08:26Z</time>
      </trkpt>
      <trkpt lat="45.36302" lon="5.94365">
        <ele>374</ele>
        <time>2014-05-08T14:08:31Z</time>
      </trkpt>
      <trkpt lat="45.36283" lon="5.9436">
        <ele>375</ele>
        <time>2014-05-08T14:08:38Z</time>
      </trkpt>
      <trkpt lat="45.36267" lon="5.94346">
        <ele>376</ele>
        <time>2014-05-08T14:08:48Z</time>
      </trkpt>
      <trkpt lat="45.36269" lon="5.9432">
        <ele>382</ele>
        <time>2014-05-08T14:08:56Z</time>
      </trkpt>
      <trkpt lat="45.36253" lon="5.94306">
        <ele>383</ele>
        <time>2014-05-08T14:09:07Z</time>
      </trkpt>
      <trkpt lat="45.36235" lon="5.94309">
        <ele>387</ele>
        <time>2014-05-08T14:09:15Z</time>
      </trkpt>
      <trkpt lat="45.36216" lon="5.94312">
        <ele>388</ele>
        <time>2014-05-08T14:09:25Z</time>
      </trkpt>
      <trkpt lat="45.36197" lon="5.94314">
        <ele>388</ele>
        <time>2014-05-08T14:09:35Z</time>
      </trkpt>
      <trkpt lat="45.36178" lon="5.94316">
        <ele>388</ele>
        <time>2014-05-08T14:09:47Z</time>
      </trkpt>
      <trkpt lat="45.36159" lon="5.94317">
        <ele>393</ele>
        <time>2014-05-08T14:10:01Z</time>
      </trkpt>
      <trkpt lat="45.3614" lon="5.94318">
        <ele>396</ele>
        <time>2014-05-08T14:10:14Z</time>
      </trkpt>
      <trkpt lat="45.36122" lon="5.94322">
        <ele>398</ele>
        <time>2014-05-08T14:10:31Z</time>
      </trkpt>
      <trkpt lat="45.36103" lon="5.94322">
        <ele>399</ele>
        <time>2014-05-08T14:10:44Z</time>
      </trkpt>
      <trkpt lat="45.36084" lon="5.94313">
        <ele>400</ele>
        <time>2014-05-08T14:10:54Z</time>
      </trkpt>
      <trkpt lat="45.36068" lon="5.943">
        <ele>404</ele>
        <time>2014-05-08T14:11:07Z</time>
      </trkpt>
      <trkpt lat="45.36055" lon="5.94281">
        <ele>406</ele>
        <time>2014-05-08T14:11:23Z</time>
      </trkpt>
      <trkpt lat="45.36044" lon="5.94259">
        <ele>407</ele>
        <time>2014-05-08T14:11:36Z</time>
      </trkpt>
      <trkpt lat="45.36032" lon="5.94239">
        <ele>416</ele>
        <time>2014-05-08T14:11:47Z</time>
      </trkpt>
      <trkpt lat="45.36021" lon="5.94219">
        <ele>416</ele>
        <time>2014-05-08T14:11:58Z</time>
      </trkpt>
      <trkpt lat="45.36007" lon="5.94201">
        <ele>418</ele>
        <time>2014-05-08T14:12:10Z</time>
      </trkpt>
      <trkpt lat="45.35995" lon="5.9418">
        <ele>414</ele>
        <time>2014-05-08T14:12:20Z</time>
      </trkpt>
      <trkpt lat="45.35981" lon="5.94159">
        <ele>419</ele>
        <time>2014-05-08T14:12:29Z</time>
      </trkpt>
      <trkpt lat="45.3597" lon="5.94137">
        <ele>418</ele>
        <time>2014-05-08T14:12:36Z</time>
      </trkpt>
      <trkpt lat="45.35961" lon="5.94112">
        <ele>419</ele>
        <time>2014-05-08T14:12:44Z</time>
      </trkpt>
      <trkpt lat="45.3596" lon="5.94086">
        <ele>420</ele>
        <time>2014-05-08T14:14:00Z</time>
      </trkpt>
      <trkpt lat="45.35963" lon="5.94058">
        <ele>428</ele>
        <time>2014-05-08T14:14:05Z</time>
      </trkpt>
      <trkpt lat="45.35952" lon="5.94037">
        <ele>430</ele>
        <time>2014-05-08T14:14:15Z</time>
      </trkpt>
      <trkpt lat="45.35934" lon="5.94035">
        <ele>430</ele>
        <time>2014-05-08T14:14:26Z</time>
      </trkpt>
      <trkpt lat="45.35916" lon="5.94045">
        <ele>427</ele>
        <time>2014-05-08T14:14:38Z</time>
      </trkpt>
      <trkpt lat="45.35894" lon="5.94044">
        <ele>427</ele>
        <time>2014-05-08T14:14:45Z</time>
      </trkpt>
      <trkpt lat="45.35875" lon="5.94042">
        <ele>427</ele>
        <time>2014-05-08T14:14:52Z</time>
      </trkpt>
      <trkpt lat="45.35856" lon="5.94036">
        <ele>427</ele>
        <time>2014-05-08T14:14:59Z</time>
      </trkpt>
      <trkpt lat="45.35838" lon="5.94037">
        <ele>427</ele>
        <time>2014-05-08T14:15:04Z</time>
      </trkpt>
      <trkpt lat="45.35817" lon="5.94049">
        <ele>420</ele>
        <time>2014-05-08T14:15:10Z</time>
      </trkpt>
      <trkpt lat="45.35798" lon="5.94046">
        <ele>420</ele>
        <time>2014-05-08T14:15:13Z</time>
      </trkpt>
      <trkpt lat="45.35782" lon="5.94033">
        <ele>421</ele>
        <time>2014-05-08T14:15:17Z</time>
      </trkpt>
      <trkpt lat="45.35768" lon="5.94016">
        <ele>422</ele>
        <time>2014-05-08T14:15:21Z</time>
      </trkpt>
      <trkpt lat="45.3575" lon="5.94005">
        <ele>422</ele>
        <time>2014-05-08T14:15:27Z</time>
      </trkpt>
      <trkpt lat="45.35731" lon="5.93994">
        <ele>428</ele>
        <time>2014-05-08T14:15:37Z</time>
      </trkpt>
      <trkpt lat="45.35718" lon="5.93976">
        <ele>430</ele>
        <time>2014-05-08T14:15:47Z</time>
      </trkpt>
      <trkpt lat="45.35698" lon="5.93967">
        <ele>430</ele>
        <time>2014-05-08T14:15:56Z</time>
      </trkpt>
      <trkpt lat="45.3568" lon="5.93955">
        <ele>431</ele>
        <time>2014-05-08T14:16:02Z</time>
      </trkpt>
      <trkpt lat="45.35662" lon="5.93952">
        <ele>425</ele>
        <time>2014-05-08T14:16:10Z</time>
      </trkpt>
      <trkpt lat="45.35646" lon="5.9394">
        <ele>426</ele>
        <time>2014-05-08T14:16:29Z</time>
      </trkpt>
      <trkpt lat="45.35627" lon="5.93931">
        <ele>426</ele>
        <time>2014-05-08T14:16:50Z</time>
      </trkpt>
      <trkpt lat="45.35612" lon="5.93916">
        <ele>439</ele>
        <time>2014-05-08T14:17:13Z</time>
      </trkpt>
      <trkpt lat="45.35596" lon="5.93901">
        <ele>438</ele>
        <time>2014-05-08T14:17:30Z</time>
      </trkpt>
      <trkpt lat="45.35583" lon="5.93883">
        <ele>438</ele>
        <time>2014-05-08T14:17:50Z</time>
      </trkpt>
      <trkpt lat="45.35569" lon="5.93866">
        <ele>441</ele>
        <time>2014-05-08T14:18:01Z</time>
      </trkpt>
      <trkpt lat="45.35552" lon="5.93859">
        <ele>441</ele>
        <time>2014-05-08T14:18:09Z</time>
      </trkpt>
      <trkpt lat="45.35534" lon="5.93851">
        <ele>442</ele>
        <time>2014-05-08T14:18:19Z</time>
      </trkpt>
      <trkpt lat="45.3552" lon="5.93834">
        <ele>444</ele>
        <time>2014-05-08T14:18:33Z</time>
      </trkpt>
      <trkpt lat="45.35503" lon="5.93815">
        <ele>454</ele>
        <time>2014-05-08T14:18:47Z</time>
      </trkpt>
      <trkpt lat="45.35488" lon="5.93793">
        <ele>448</ele>
        <time>2014-05-08T14:18:56Z</time>
      </trkpt>
      <trkpt lat="45.35474" lon="5.93776">
        <ele>449</ele>
        <time>2014-05-08T14:19:04Z</time>
      </trkpt>
      <trkpt lat="45.35458" lon="5.93759">
        <ele>448</ele>
        <time>2014-05-08T14:19:09Z</time>
      </trkpt>
      <trkpt lat="45.35446" lon="5.93736">
        <ele>456</ele>
        <time>2014-05-08T14:19:26Z</time>
      </trkpt>
      <trkpt lat="45.35441" lon="5.93709">
        <ele>458</ele>
        <time>2014-05-08T14:19:39Z</time>
      </trkpt>
      <trkpt lat="45.35444" lon="5.93683">
        <ele>460</ele>
        <time>2014-05-08T14:19:56Z</time>
      </trkpt>
      <trkpt lat="45.3544" lon="5.93656">
        <ele>465</ele>
        <time>2014-05-08T14:20:12Z</time>
      </trkpt>
      <trkpt lat="45.3544" lon="5.93628">
        <ele>468</ele>
        <time>2014-05-08T14:20:24Z</time>
      </trkpt>
      <trkpt lat="45.35446" lon="5.93603">
        <ele>469</ele>
        <time>2014-05-08T14:20:34Z</time>
      </trkpt>
      <trkpt lat="45.3546" lon="5.93579">
        <ele>476</ele>
        <time>2014-05-08T14:20:42Z</time>
      </trkpt>
      <trkpt lat="45.35475" lon="5.93564">
        <ele>477</ele>
        <time>2014-05-08T14:20:48Z</time>
      </trkpt>
      <trkpt lat="45.35487" lon="5.93543">
        <ele>478</ele>
        <time>2014-05-08T14:20:57Z</time>
      </trkpt>
      <trkpt lat="45.3549" lon="5.93516">
        <ele>480</ele>
        <time>2014-05-08T14:21:10Z</time>
      </trkpt>
      <trkpt lat="45.35486" lon="5.93491">
        <ele>483</ele>
        <time>2014-05-08T14:21:22Z</time>
      </trkpt>
      <trkpt lat="45.35504" lon="5.93488">
        <ele>485</ele>
        <time>2014-05-08T14:23:49Z</time>
      </trkpt>
      <trkpt lat="45.3549" lon="5.93504">
        <ele>480</ele>
        <time>2014-05-08T14:24:52Z</time>
      </trkpt>
      <trkpt lat="45.35477" lon="5.93486">
        <ele>483</ele>
        <time>2014-05-08T14:25:58Z</time>
      </trkpt>
      <trkpt lat="45.35461" lon="5.93472">
        <ele>484</ele>
        <time>2014-05-08T14:30:48Z</time>
      </trkpt>
      <trkpt lat="45.35446" lon="5.93456">
        <ele>484</ele>
        <time>2014-05-08T14:31:02Z</time>
      </trkpt>
      <trkpt lat="45.35427" lon="5.9347">
        <ele>484</ele>
        <time>2014-05-08T14:31:07Z</time>
      </trkpt>
      <trkpt lat="45.35413" lon="5.93493">
        <ele>485</ele>
        <time>2014-05-08T14:31:10Z</time>
      </trkpt>
      <trkpt lat="45.35402" lon="5.93518">
        <ele>481</ele>
        <time>2014-05-08T14:31:14Z</time>
      </trkpt>
      <trkpt lat="45.35389" lon="5.93541">
        <ele>480</ele>
        <time>2014-05-08T14:31:20Z</time>
      </trkpt>
      <trkpt lat="45.35372" lon="5.93563">
        <ele>479</ele>
        <time>2014-05-08T14:31:26Z</time>
      </trkpt>
      <trkpt lat="45.35359" lon="5.93586">
        <ele>469</ele>
        <time>2014-05-08T14:31:32Z</time>
      </trkpt>
      <trkpt lat="45.35345" lon="5.93607">
        <ele>469</ele>
        <time>2014-05-08T14:31:43Z</time>
      </trkpt>
      <trkpt lat="45.3534" lon="5.93644">
        <ele>465</ele>
        <time>2014-05-08T14:32:09Z</time>
      </trkpt>
      <trkpt lat="45.35344" lon="5.93672">
        <ele>459</ele>
        <time>2014-05-08T14:32:16Z</time>
      </trkpt>
      <trkpt lat="45.35342" lon="5.93706">
        <ele>453</ele>
        <time>2014-05-08T14:32:23Z</time>
      </trkpt>
      <trkpt lat="45.35331" lon="5.93728">
        <ele>451</ele>
        <time>2014-05-08T14:32:26Z</time>
      </trkpt>
      <trkpt lat="45.35313" lon="5.93729">
        <ele>451</ele>
        <time>2014-05-08T14:32:31Z</time>
      </trkpt>
      <trkpt lat="45.35295" lon="5.93727">
        <ele>452</ele>
        <time>2014-05-08T14:32:36Z</time>
      </trkpt>
      <trkpt lat="45.35274" lon="5.93715">
        <ele>453</ele>
        <time>2014-05-08T14:32:40Z</time>
      </trkpt>
      <trkpt lat="45.35257" lon="5.93701">
        <ele>454</ele>
        <time>2014-05-08T14:32:44Z</time>
      </trkpt>
      <trkpt lat="45.35238" lon="5.93701">
        <ele>458</ele>
        <time>2014-05-08T14:32:49Z</time>
      </trkpt>
      <trkpt lat="45.35216" lon="5.93709">
        <ele>458</ele>
        <time>2014-05-08T14:32:52Z</time>
      </trkpt>
      <trkpt lat="45.35202" lon="5.93729">
        <ele>457</ele>
        <time>2014-05-08T14:32:55Z</time>
      </trkpt>
      <trkpt lat="45.35192" lon="5.93751">
        <ele>446</ele>
        <time>2014-05-08T14:32:58Z</time>
      </trkpt>
      <trkpt lat="45.35175" lon="5.93776">
        <ele>445</ele>
        <time>2014-05-08T14:33:01Z</time>
      </trkpt>
      <trkpt lat="45.35156" lon="5.93796">
        <ele>444</ele>
        <time>2014-05-08T14:33:05Z</time>
      </trkpt>
      <trkpt lat="45.35138" lon="5.93806">
        <ele>443</ele>
        <time>2014-05-08T14:33:08Z</time>
      </trkpt>
      <trkpt lat="45.3512" lon="5.93815">
        <ele>442</ele>
        <time>2014-05-08T14:33:10Z</time>
      </trkpt>
      <trkpt lat="45.35097" lon="5.93823">
        <ele>440</ele>
        <time>2014-05-08T14:33:12Z</time>
      </trkpt>
      <trkpt lat="45.35082" lon="5.9384">
        <ele>432</ele>
        <time>2014-05-08T14:33:15Z</time>
      </trkpt>
      <trkpt lat="45.35063" lon="5.93862">
        <ele>427</ele>
        <time>2014-05-08T14:33:18Z</time>
      </trkpt>
      <trkpt lat="45.35043" lon="5.93872">
        <ele>425</ele>
        <time>2014-05-08T14:33:21Z</time>
      </trkpt>
      <trkpt lat="45.35025" lon="5.93885">
        <ele>424</ele>
        <time>2014-05-08T14:33:24Z</time>
      </trkpt>
      <trkpt lat="45.35003" lon="5.93894">
        <ele>422</ele>
        <time>2014-05-08T14:34:51Z</time>
      </trkpt>
      <trkpt lat="45.34988" lon="5.93918">
        <ele>411</ele>
        <time>2014-05-08T14:34:57Z</time>
      </trkpt>
      <trkpt lat="45.34992" lon="5.93943">
        <ele>406</ele>
        <time>2014-05-08T14:35:02Z</time>
      </trkpt>
      <trkpt lat="45.35014" lon="5.9395">
        <ele>404</ele>
        <time>2014-05-08T14:35:06Z</time>
      </trkpt>
      <trkpt lat="45.35033" lon="5.93965">
        <ele>401</ele>
        <time>2014-05-08T14:35:09Z</time>
      </trkpt>
      <trkpt lat="45.35053" lon="5.93976">
        <ele>399</ele>
        <time>2014-05-08T14:35:12Z</time>
      </trkpt>
      <trkpt lat="45.35076" lon="5.93987">
        <ele>394</ele>
        <time>2014-05-08T14:35:15Z</time>
      </trkpt>
      <trkpt lat="45.35095" lon="5.93992">
        <ele>393</ele>
        <time>2014-05-08T14:35:17Z</time>
      </trkpt>
      <trkpt lat="45.35119" lon="5.94002">
        <ele>379</ele>
        <time>2014-05-08T14:35:19Z</time>
      </trkpt>
      <trkpt lat="45.35144" lon="5.94013">
        <ele>379</ele>
        <time>2014-05-08T14:35:21Z</time>
      </trkpt>
      <trkpt lat="45.35164" lon="5.94023">
        <ele>379</ele>
        <time>2014-05-08T14:35:23Z</time>
      </trkpt>
      <trkpt lat="45.35183" lon="5.94036">
        <ele>377</ele>
        <time>2014-05-08T14:35:25Z</time>
      </trkpt>
      <trkpt lat="45.35201" lon="5.94042">
        <ele>377</ele>
        <time>2014-05-08T14:35:27Z</time>
      </trkpt>
      <trkpt lat="45.35225" lon="5.94051">
        <ele>375</ele>
        <time>2014-05-08T14:35:30Z</time>
      </trkpt>
      <trkpt lat="45.35242" lon="5.94066">
        <ele>371</ele>
        <time>2014-05-08T14:35:40Z</time>
      </trkpt>
      <trkpt lat="45.35243" lon="5.94094">
        <ele>359</ele>
        <time>2014-05-08T14:35:46Z</time>
      </trkpt>
      <trkpt lat="45.35224" lon="5.94107">
        <ele>355</ele>
        <time>2014-05-08T14:35:51Z</time>
      </trkpt>
      <trkpt lat="45.35199" lon="5.94107">
        <ele>355</ele>
        <time>2014-05-08T14:35:54Z</time>
      </trkpt>
      <trkpt lat="45.35173" lon="5.94106">
        <ele>357</ele>
        <time>2014-05-08T14:35:57Z</time>
      </trkpt>
      <trkpt lat="45.35146" lon="5.94108">
        <ele>355</ele>
        <time>2014-05-08T14:36:00Z</time>
      </trkpt>
      <trkpt lat="45.35127" lon="5.94112">
        <ele>353</ele>
        <time>2014-05-08T14:36:02Z</time>
      </trkpt>
      <trkpt lat="45.35107" lon="5.94118">
        <ele>352</ele>
        <time>2014-05-08T14:36:04Z</time>
      </trkpt>
      <trkpt lat="45.35087" lon="5.94124">
        <ele>350</ele>
        <time>2014-05-08T14:36:06Z</time>
      </trkpt>
      <trkpt lat="45.35065" lon="5.94126">
        <ele>349</ele>
        <time>2014-05-08T14:36:08Z</time>
      </trkpt>
      <trkpt lat="45.35043" lon="5.94127">
        <ele>349</ele>
        <time>2014-05-08T14:36:10Z</time>
      </trkpt>
      <trkpt lat="45.35022" lon="5.94128">
        <ele>348</ele>
        <time>2014-05-08T14:36:12Z</time>
      </trkpt>
      <trkpt lat="45.34999" lon="5.94133">
        <ele>347</ele>
        <time>2014-05-08T14:36:14Z</time>
      </trkpt>
      <trkpt lat="45.34975" lon="5.94138">
        <ele>346</ele>
        <time>2014-05-08T14:36:16Z</time>
      </trkpt>
      <trkpt lat="45.34952" lon="5.94142">
        <ele>346</ele>
        <time>2014-05-08T14:36:18Z</time>
      </trkpt>
      <trkpt lat="45.34934" lon="5.94148">
        <ele>343</ele>
        <time>2014-05-08T14:36:20Z</time>
      </trkpt>
      <trkpt lat="45.34919" lon="5.94162">
        <ele>337</ele>
        <time>2014-05-08T14:36:24Z</time>
      </trkpt>
      <trkpt lat="45.349" lon="5.94148">
        <ele>338</ele>
        <time>2014-05-08T14:36:29Z</time>
      </trkpt>
      <trkpt lat="45.34885" lon="5.94134">
        <ele>339</ele>
        <time>2014-05-08T14:36:34Z</time>
      </trkpt>
      <trkpt lat="45.34868" lon="5.94119">
        <ele>340</ele>
        <time>2014-05-08T14:36:39Z</time>
      </trkpt>
      <trkpt lat="45.3485" lon="5.94102">
        <ele>341</ele>
        <time>2014-05-08T14:36:44Z</time>
      </trkpt>
      <trkpt lat="45.34832" lon="5.94089">
        <ele>340</ele>
        <time>2014-05-08T14:36:49Z</time>
      </trkpt>
      <trkpt lat="45.34812" lon="5.94078">
        <ele>349</ele>
        <time>2014-05-08T14:36:55Z</time>
      </trkpt>
      <trkpt lat="45.34795" lon="5.94065">
        <ele>350</ele>
        <time>2014-05-08T14:37:01Z</time>
      </trkpt>
      <trkpt lat="45.34774" lon="5.94053">
        <ele>350</ele>
        <time>2014-05-08T14:37:07Z</time>
      </trkpt>
      <trkpt lat="45.34754" lon="5.94044">
        <ele>351</ele>
        <time>2014-05-08T14:37:12Z</time>
      </trkpt>
      <trkpt lat="45.34733" lon="5.94045">
        <ele>344</ele>
        <time>2014-05-08T14:37:16Z</time>
      </trkpt>
      <trkpt lat="45.34714" lon="5.94041">
        <ele>344</ele>
        <time>2014-05-08T14:37:20Z</time>
      </trkpt>
      <trkpt lat="45.34693" lon="5.9404">
        <ele>344</ele>
        <time>2014-05-08T14:37:25Z</time>
      </trkpt>
      <trkpt lat="45.34675" lon="5.94036">
        <ele>345</ele>
        <time>2014-05-08T14:37:29Z</time>
      </trkpt>
      <trkpt lat="45.34654" lon="5.94024">
        <ele>343</ele>
        <time>2014-05-08T14:37:35Z</time>
      </trkpt>
      <trkpt lat="45.34631" lon="5.94012">
        <ele>341</ele>
        <time>2014-05-08T14:37:39Z</time>
      </trkpt>
      <trkpt lat="45.34612" lon="5.94003">
        <ele>340</ele>
        <time>2014-05-08T14:37:42Z</time>
      </trkpt>
      <trkpt lat="45.3459" lon="5.93996">
        <ele>348</ele>
        <time>2014-05-08T14:37:45Z</time>
      </trkpt>
      <trkpt lat="45.34566" lon="5.93983">
        <ele>345</ele>
        <time>2014-05-08T14:37:48Z</time>
      </trkpt>
      <trkpt lat="45.34542" lon="5.93972">
        <ele>345</ele>
        <time>2014-05-08T14:37:51Z</time>
      </trkpt>
      <trkpt lat="45.34524" lon="5.93966">
        <ele>344</ele>
        <time>2014-05-08T14:37:53Z</time>
      </trkpt>
      <trkpt lat="45.34505" lon="5.9396">
        <ele>344</ele>
        <time>2014-05-08T14:37:55Z</time>
      </trkpt>
      <trkpt lat="45.34487" lon="5.93952">
        <ele>336</ele>
        <time>2014-05-08T14:37:57Z</time>
      </trkpt>
      <trkpt lat="45.34468" lon="5.93945">
        <ele>335</ele>
        <time>2014-05-08T14:37:59Z</time>
      </trkpt>
      <trkpt lat="45.34451" lon="5.93937">
        <ele>335</ele>
        <time>2014-05-08T14:38:01Z</time>
      </trkpt>
      <trkpt lat="45.34428" lon="5.93926">
        <ele>335</ele>
        <time>2014-05-08T14:38:04Z</time>
      </trkpt>
      <trkpt lat="45.34409" lon="5.93917">
        <ele>333</ele>
        <time>2014-05-08T14:38:07Z</time>
      </trkpt>
      <trkpt lat="45.3439" lon="5.93912">
        <ele>341</ele>
        <time>2014-05-08T14:38:10Z</time>
      </trkpt>
      <trkpt lat="45.34372" lon="5.93908">
        <ele>341</ele>
        <time>2014-05-08T14:38:13Z</time>
      </trkpt>
      <trkpt lat="45.34353" lon="5.93905">
        <ele>339</ele>
        <time>2014-05-08T14:38:16Z</time>
      </trkpt>
      <trkpt lat="45.3433" lon="5.93897">
        <ele>334</ele>
        <time>2014-05-08T14:38:20Z</time>
      </trkpt>
      <trkpt lat="45.34308" lon="5.93889">
        <ele>335</ele>
        <time>2014-05-08T14:38:24Z</time>
      </trkpt>
      <trkpt lat="45.34288" lon="5.93883">
        <ele>335</ele>
        <time>2014-05-08T14:38:27Z</time>
      </trkpt>
      <trkpt lat="45.34269" lon="5.93876">
        <ele>335</ele>
        <time>2014-05-08T14:38:30Z</time>
      </trkpt>
      <trkpt lat="45.34251" lon="5.93865">
        <ele>336</ele>
        <time>2014-05-08T14:38:34Z</time>
      </trkpt>
      <trkpt lat="45.34236" lon="5.9385">
        <ele>330</ele>
        <time>2014-05-08T14:38:38Z</time>
      </trkpt>
      <trkpt lat="45.34218" lon="5.93838">
        <ele>328</ele>
        <time>2014-05-08T14:38:42Z</time>
      </trkpt>
      <trkpt lat="45.34201" lon="5.93829">
        <ele>336</ele>
        <time>2014-05-08T14:38:47Z</time>
      </trkpt>
      <trkpt lat="45.34184" lon="5.93814">
        <ele>335</ele>
        <time>2014-05-08T14:38:54Z</time>
      </trkpt>
      <trkpt lat="45.34174" lon="5.93793">
        <ele>337</ele>
        <time>2014-05-08T14:39:00Z</time>
      </trkpt>
      <trkpt lat="45.34165" lon="5.93768">
        <ele>333</ele>
        <time>2014-05-08T14:39:04Z</time>
      </trkpt>
      <trkpt lat="45.34159" lon="5.93744">
        <ele>339</ele>
        <time>2014-05-08T14:39:07Z</time>
      </trkpt>
      <trkpt lat="45.34144" lon="5.93719">
        <ele>339</ele>
        <time>2014-05-08T14:39:11Z</time>
      </trkpt>
      <trkpt lat="45.34124" lon="5.93702">
        <ele>338</ele>
        <time>2014-05-08T14:39:14Z</time>
      </trkpt>
      <trkpt lat="45.34103" lon="5.93695">
        <ele>337</ele>
        <time>2014-05-08T14:39:17Z</time>
      </trkpt>
      <trkpt lat="45.34082" lon="5.93702">
        <ele>329</ele>
        <time>2014-05-08T14:39:21Z</time>
      </trkpt>
      <trkpt lat="45.34063" lon="5.93709">
        <ele>328</ele>
        <time>2014-05-08T14:39:28Z</time>
      </trkpt>
      <trkpt lat="45.34046" lon="5.93697">
        <ele>328</ele>
        <time>2014-05-08T14:39:34Z</time>
      </trkpt>
      <trkpt lat="45.34029" lon="5.93672">
        <ele>328</ele>
        <time>2014-05-08T14:39:38Z</time>
      </trkpt>
      <trkpt lat="45.34009" lon="5.93656">
        <ele>331</ele>
        <time>2014-05-08T14:39:41Z</time>
      </trkpt>
      <trkpt lat="45.3399" lon="5.93647">
        <ele>329</ele>
        <time>2014-05-08T14:39:45Z</time>
      </trkpt>
      <trkpt lat="45.33972" lon="5.93641">
        <ele>329</ele>
        <time>2014-05-08T14:39:49Z</time>
      </trkpt>
      <trkpt lat="45.33954" lon="5.93641">
        <ele>328</ele>
        <time>2014-05-08T14:39:56Z</time>
      </trkpt>
      <trkpt lat="45.33931" lon="5.93642">
        <ele>327</ele>
        <time>2014-05-08T14:40:03Z</time>
      </trkpt>
      <trkpt lat="45.33911" lon="5.93634">
        <ele>322</ele>
        <time>2014-05-08T14:40:11Z</time>
      </trkpt>
      <trkpt lat="45.33893" lon="5.93629">
        <ele>322</ele>
        <time>2014-05-08T14:40:19Z</time>
      </trkpt>
      <trkpt lat="45.33875" lon="5.9362">
        <ele>322</ele>
        <time>2014-05-08T14:40:29Z</time>
      </trkpt>
      <trkpt lat="45.33858" lon="5.93606">
        <ele>322</ele>
        <time>2014-05-08T14:40:38Z</time>
      </trkpt>
      <trkpt lat="45.33837" lon="5.93597">
        <ele>322</ele>
        <time>2014-05-08T14:40:51Z</time>
      </trkpt>
      <trkpt lat="45.33817" lon="5.93596">
        <ele>318</ele>
        <time>2014-05-08T14:40:56Z</time>
      </trkpt>
      <trkpt lat="45.33794" lon="5.93602">
        <ele>316</ele>
        <time>2014-05-08T14:41:00Z</time>
      </trkpt>
      <trkpt lat="45.33776" lon="5.93599">
        <ele>315</ele>
        <time>2014-05-08T14:41:03Z</time>
      </trkpt>
      <trkpt lat="45.33757" lon="5.93592">
        <ele>316</ele>
        <time>2014-05-08T14:41:06Z</time>
      </trkpt>
      <trkpt lat="45.3374" lon="5.93577">
        <ele>320</ele>
        <time>2014-05-08T14:41:10Z</time>
      </trkpt>
      <trkpt lat="45.33723" lon="5.93568">
        <ele>322</ele>
        <time>2014-05-08T14:41:16Z</time>
      </trkpt>
      <trkpt lat="45.33703" lon="5.93565">
        <ele>323</ele>
        <time>2014-05-08T14:41:22Z</time>
      </trkpt>
      <trkpt lat="45.33682" lon="5.93556">
        <ele>322</ele>
        <time>2014-05-08T14:41:39Z</time>
      </trkpt>
      <trkpt lat="45.33664" lon="5.93543">
        <ele>319</ele>
        <time>2014-05-08T14:41:51Z</time>
      </trkpt>
      <trkpt lat="45.33645" lon="5.93538">
        <ele>319</ele>
        <time>2014-05-08T14:41:57Z</time>
      </trkpt>
      <trkpt lat="45.33625" lon="5.93531">
        <ele>318</ele>
        <time>2014-05-08T14:42:01Z</time>
      </trkpt>
      <trkpt lat="45.33605" lon="5.93513">
        <ele>318</ele>
        <time>2014-05-08T14:42:05Z</time>
      </trkpt>
      <trkpt lat="45.33589" lon="5.93495">
        <ele>322</ele>
        <time>2014-05-08T14:42:08Z</time>
      </trkpt>
      <trkpt lat="45.33565" lon="5.93485">
        <ele>318</ele>
        <time>2014-05-08T14:42:12Z</time>
      </trkpt>
      <trkpt lat="45.33544" lon="5.93474">
        <ele>317</ele>
        <time>2014-05-08T14:42:15Z</time>
      </trkpt>
      <trkpt lat="45.33523" lon="5.93463">
        <ele>316</ele>
        <time>2014-05-08T14:42:18Z</time>
      </trkpt>
      <trkpt lat="45.33502" lon="5.93461">
        <ele>315</ele>
        <time>2014-05-08T14:42:21Z</time>
      </trkpt>
      <trkpt lat="45.33481" lon="5.93457">
        <ele>307</ele>
        <time>2014-05-08T14:42:24Z</time>
      </trkpt>
      <trkpt lat="45.33461" lon="5.93449">
        <ele>306</ele>
        <time>2014-05-08T14:42:27Z</time>
      </trkpt>
      <trkpt lat="45.33439" lon="5.93439">
        <ele>305</ele>
        <time>2014-05-08T14:42:30Z</time>
      </trkpt>
      <trkpt lat="45.33421" lon="5.93426">
        <ele>304</ele>
        <time>2014-05-08T14:42:33Z</time>
      </trkpt>
      <trkpt lat="45.33408" lon="5.93405">
        <ele>304</ele>
        <time>2014-05-08T14:42:36Z</time>
      </trkpt>
      <trkpt lat="45.33396" lon="5.93384">
        <ele>304</ele>
        <time>2014-05-08T14:42:39Z</time>
      </trkpt>
      <trkpt lat="45.33382" lon="5.93368">
        <ele>304</ele>
        <time>2014-05-08T14:42:43Z</time>
      </trkpt>
      <trkpt lat="45.33364" lon="5.93359">
        <ele>304</ele>
        <time>2014-05-08T14:42:47Z</time>
      </trkpt>
      <trkpt lat="45.33344" lon="5.93352">
        <ele>303</ele>
        <time>2014-05-08T14:42:51Z</time>
      </trkpt>
      <trkpt lat="45.33321" lon="5.93342">
        <ele>297</ele>
        <time>2014-05-08T14:42:55Z</time>
      </trkpt>
      <trkpt lat="45.333" lon="5.93329">
        <ele>302</ele>
        <time>2014-05-08T14:42:59Z</time>
      </trkpt>
      <trkpt lat="45.33281" lon="5.93316">
        <ele>301</ele>
        <time>2014-05-08T14:43:03Z</time>
      </trkpt>
      <trkpt lat="45.33264" lon="5.93306">
        <ele>300</ele>
        <time>2014-05-08T14:43:07Z</time>
      </trkpt>
      <trkpt lat="45.33246" lon="5.93297">
        <ele>293</ele>
        <time>2014-05-08T14:43:12Z</time>
      </trkpt>
      <trkpt lat="45.3323" lon="5.93286">
        <ele>294</ele>
        <time>2014-05-08T14:43:19Z</time>
      </trkpt>
      <trkpt lat="45.33211" lon="5.93274">
        <ele>294</ele>
        <time>2014-05-08T14:43:27Z</time>
      </trkpt>
      <trkpt lat="45.332" lon="5.9325">
        <ele>302</ele>
        <time>2014-05-08T14:43:34Z</time>
      </trkpt>
      <trkpt lat="45.3319" lon="5.93229">
        <ele>302</ele>
        <time>2014-05-08T14:43:44Z</time>
      </trkpt>
      <trkpt lat="45.33174" lon="5.93214">
        <ele>303</ele>
        <time>2014-05-08T14:43:55Z</time>
      </trkpt>
      <trkpt lat="45.33154" lon="5.93206">
        <ele>297</ele>
        <time>2014-05-08T14:44:30Z</time>
      </trkpt>
      <trkpt lat="45.33135" lon="5.93192">
        <ele>297</ele>
        <time>2014-05-08T14:44:36Z</time>
      </trkpt>
      <trkpt lat="45.33118" lon="5.93181">
        <ele>296</ele>
        <time>2014-05-08T14:44:40Z</time>
      </trkpt>
      <trkpt lat="45.331" lon="5.93169">
        <ele>295</ele>
        <time>2014-05-08T14:44:44Z</time>
      </trkpt>
      <trkpt lat="45.33078" lon="5.93155">
        <ele>293</ele>
        <time>2014-05-08T14:44:48Z</time>
      </trkpt>
      <trkpt lat="45.33056" lon="5.9314">
        <ele>291</ele>
        <time>2014-05-08T14:44:51Z</time>
      </trkpt>
      <trkpt lat="45.33038" lon="5.93126">
        <ele>290</ele>
        <time>2014-05-08T14:44:53Z</time>
      </trkpt>
      <trkpt lat="45.3302" lon="5.93111">
        <ele>289</ele>
        <time>2014-05-08T14:44:55Z</time>
      </trkpt>
      <trkpt lat="45.33004" lon="5.93097">
        <ele>288</ele>
        <time>2014-05-08T14:44:57Z</time>
      </trkpt>
      <trkpt lat="45.32986" lon="5.93085">
        <ele>284</ele>
        <time>2014-05-08T14:45:00Z</time>
      </trkpt>
      <trkpt lat="45.32967" lon="5.93097">
        <ele>282</ele>
        <time>2014-05-08T14:45:03Z</time>
      </trkpt>
      <trkpt lat="45.32948" lon="5.93123">
        <ele>280</ele>
        <time>2014-05-08T14:45:06Z</time>
      </trkpt>
      <trkpt lat="45.32935" lon="5.93156">
        <ele>279</ele>
        <time>2014-05-08T14:45:09Z</time>
      </trkpt>
      <trkpt lat="45.32928" lon="5.93182">
        <ele>277</ele>
        <time>2014-05-08T14:45:11Z</time>
      </trkpt>
      <trkpt lat="45.32922" lon="5.93206">
        <ele>276</ele>
        <time>2014-05-08T14:45:13Z</time>
      </trkpt>
      <trkpt lat="45.32911" lon="5.93232">
        <ele>273</ele>
        <time>2014-05-08T14:45:16Z</time>
      </trkpt>
      <trkpt lat="45.32889" lon="5.93236">
        <ele>273</ele>
        <time>2014-05-08T14:45:20Z</time>
      </trkpt>
      <trkpt lat="45.32872" lon="5.93225">
        <ele>273</ele>
        <time>2014-05-08T14:45:23Z</time>
      </trkpt>
      <trkpt lat="45.32855" lon="5.93215">
        <ele>272</ele>
        <time>2014-05-08T14:45:30Z</time>
      </trkpt>
      <trkpt lat="45.32871" lon="5.93227">
        <ele>273</ele>
        <time>2014-05-08T14:53:18Z</time>
      </trkpt>
      <trkpt lat="45.32858" lon="5.93208">
        <ele>273</ele>
        <time>2014-05-08T15:32:43Z</time>
      </trkpt>
      <trkpt lat="45.32839" lon="5.932">
        <ele>272</ele>
        <time>2014-05-08T15:32:49Z</time>
      </trkpt>
      <trkpt lat="45.32819" lon="5.932">
        <ele>270</ele>
        <time>2014-05-08T15:32:53Z</time>
      </trkpt>
      <trkpt lat="45.328" lon="5.93203">
        <ele>270</ele>
        <time>2014-05-08T15:32:57Z</time>
      </trkpt>
      <trkpt lat="45.32778" lon="5.93201">
        <ele>270</ele>
        <time>2014-05-08T15:33:01Z</time>
      </trkpt>
      <trkpt lat="45.32759" lon="5.93193">
        <ele>270</ele>
        <time>2014-05-08T15:33:04Z</time>
      </trkpt>
      <trkpt lat="45.32741" lon="5.93198">
        <ele>268</ele>
        <time>2014-05-08T15:33:07Z</time>
      </trkpt>
      <trkpt lat="45.3272" lon="5.93209">
        <ele>267</ele>
        <time>2014-05-08T15:33:10Z</time>
      </trkpt>
      <trkpt lat="45.32704" lon="5.9323">
        <ele>266</ele>
        <time>2014-05-08T15:33:13Z</time>
      </trkpt>
      <trkpt lat="45.32691" lon="5.93256">
        <ele>264</ele>
        <time>2014-05-08T15:33:16Z</time>
      </trkpt>
      <trkpt lat="45.32678" lon="5.93282">
        <ele>264</ele>
        <time>2014-05-08T15:33:19Z</time>
      </trkpt>
      <trkpt lat="45.32665" lon="5.93305">
        <ele>261</ele>
        <time>2014-05-08T15:33:22Z</time>
      </trkpt>
      <trkpt lat="45.32652" lon="5.93327">
        <ele>261</ele>
        <time>2014-05-08T15:33:26Z</time>
      </trkpt>
      <trkpt lat="45.32639" lon="5.93346">
        <ele>260</ele>
        <time>2014-05-08T15:33:30Z</time>
      </trkpt>
      <trkpt lat="45.32629" lon="5.93369">
        <ele>259</ele>
        <time>2014-05-08T15:33:37Z</time>
      </trkpt>
      <trkpt lat="45.32616" lon="5.9335">
        <ele>259</ele>
        <time>2014-05-08T15:33:49Z</time>
      </trkpt>
      <trkpt lat="45.32603" lon="5.93332">
        <ele>259</ele>
        <time>2014-05-08T15:33:55Z</time>
      </trkpt>
      <trkpt lat="45.32588" lon="5.93305">
        <ele>260</ele>
        <time>2014-05-08T15:34:01Z</time>
      </trkpt>
      <trkpt lat="45.32577" lon="5.93278">
        <ele>258</ele>
        <time>2014-05-08T15:34:06Z</time>
      </trkpt>
      <trkpt lat="45.32562" lon="5.93257">
        <ele>258</ele>
        <time>2014-05-08T15:34:10Z</time>
      </trkpt>
      <trkpt lat="45.32547" lon="5.93233">
        <ele>258</ele>
        <time>2014-05-08T15:34:14Z</time>
      </trkpt>
      <trkpt lat="45.32534" lon="5.93216">
        <ele>258</ele>
        <time>2014-05-08T15:34:17Z</time>
      </trkpt>
      <trkpt lat="45.32514" lon="5.932">
        <ele>258</ele>
        <time>2014-05-08T15:34:21Z</time>
      </trkpt>
      <trkpt lat="45.32495" lon="5.93183">
        <ele>255</ele>
        <time>2014-05-08T15:34:25Z</time>
      </trkpt>
      <trkpt lat="45.3248" lon="5.93169">
        <ele>255</ele>
        <time>2014-05-08T15:34:28Z</time>
      </trkpt>
      <trkpt lat="45.32463" lon="5.93157">
        <ele>256</ele>
        <time>2014-05-08T15:34:31Z</time>
      </trkpt>
      <trkpt lat="45.32446" lon="5.93171">
        <ele>254</ele>
        <time>2014-05-08T15:34:34Z</time>
      </trkpt>
      <trkpt lat="45.32433" lon="5.93195">
        <ele>254</ele>
        <time>2014-05-08T15:34:38Z</time>
      </trkpt>
      <trkpt lat="45.32419" lon="5.93219">
        <ele>253</ele>
        <time>2014-05-08T15:34:42Z</time>
      </trkpt>
      <trkpt lat="45.32408" lon="5.93239">
        <ele>252</ele>
        <time>2014-05-08T15:34:45Z</time>
      </trkpt>
      <trkpt lat="45.32396" lon="5.93259">
        <ele>251</ele>
        <time>2014-05-08T15:34:48Z</time>
      </trkpt>
      <trkpt lat="45.32384" lon="5.93279">
        <ele>251</ele>
        <time>2014-05-08T15:34:51Z</time>
      </trkpt>
      <trkpt lat="45.32376" lon="5.93303">
        <ele>251</ele>
        <time>2014-05-08T15:34:56Z</time>
      </trkpt>
      <trkpt lat="45.32367" lon="5.9333">
        <ele>251</ele>
        <time>2014-05-08T15:35:04Z</time>
      </trkpt>
      <trkpt lat="45.32364" lon="5.93358">
        <ele>251</ele>
        <time>2014-05-08T15:35:17Z</time>
      </trkpt>
      <trkpt lat="45.3237" lon="5.93383">
        <ele>251</ele>
        <time>2014-05-08T15:35:23Z</time>
      </trkpt>
      <trkpt lat="45.32383" lon="5.93402">
        <ele>251</ele>
        <time>2014-05-08T15:35:30Z</time>
      </trkpt>
      <trkpt lat="45.324" lon="5.93417">
        <ele>251</ele>
        <time>2014-05-08T15:35:36Z</time>
      </trkpt>
      <trkpt lat="45.32416" lon="5.93432">
        <ele>251</ele>
        <time>2014-05-08T15:35:42Z</time>
      </trkpt>
      <trkpt lat="45.32434" lon="5.93444">
        <ele>252</ele>
        <time>2014-05-08T15:35:49Z</time>
      </trkpt>
      <trkpt lat="45.32449" lon="5.93462">
        <ele>252</ele>
        <time>2014-05-08T15:35:54Z</time>
      </trkpt>
      <trkpt lat="45.32464" lon="5.9348">
        <ele>252</ele>
        <time>2014-05-08T15:35:59Z</time>
      </trkpt>
      <trkpt lat="45.32479" lon="5.93498">
        <ele>252</ele>
        <time>2014-05-08T15:36:05Z</time>
      </trkpt>
      <trkpt lat="45.32495" lon="5.93517">
        <ele>251</ele>
        <time>2014-05-08T15:36:13Z</time>
      </trkpt>
      <trkpt lat="45.32489" lon="5.93543">
        <ele>250</ele>
        <time>2014-05-08T15:36:20Z</time>
      </trkpt>
      <trkpt lat="45.32483" lon="5.93568">
        <ele>249</ele>
        <time>2014-05-08T15:36:25Z</time>
      </trkpt>
      <trkpt lat="45.32475" lon="5.93594">
        <ele>247</ele>
        <time>2014-05-08T15:36:29Z</time>
      </trkpt>
      <trkpt lat="45.32467" lon="5.93617">
        <ele>247</ele>
        <time>2014-05-08T15:36:32Z</time>
      </trkpt>
      <trkpt lat="45.32455" lon="5.93642">
        <ele>246</ele>
        <time>2014-05-08T15:36:35Z</time>
      </trkpt>
      <trkpt lat="45.32439" lon="5.93667">
        <ele>243</ele>
        <time>2014-05-08T15:36:39Z</time>
      </trkpt>
      <trkpt lat="45.32426" lon="5.93687">
        <ele>243</ele>
        <time>2014-05-08T15:36:42Z</time>
      </trkpt>
      <trkpt lat="45.3241" lon="5.93711">
        <ele>241</ele>
        <time>2014-05-08T15:36:45Z</time>
      </trkpt>
      <trkpt lat="45.32395" lon="5.93734">
        <ele>241</ele>
        <time>2014-05-08T15:36:48Z</time>
      </trkpt>
      <trkpt lat="45.32381" lon="5.93755">
        <ele>241</ele>
        <time>2014-05-08T15:36:52Z</time>
      </trkpt>
      <trkpt lat="45.3239" lon="5.93783">
        <ele>241</ele>
        <time>2014-05-08T15:36:58Z</time>
      </trkpt>
      <trkpt lat="45.32405" lon="5.93802">
        <ele>241</ele>
        <time>2014-05-08T15:37:02Z</time>
      </trkpt>
      <trkpt lat="45.32422" lon="5.93822">
        <ele>241</ele>
        <time>2014-05-08T15:37:06Z</time>
      </trkpt>
      <trkpt lat="45.32436" lon="5.93842">
        <ele>239</ele>
        <time>2014-05-08T15:37:11Z</time>
      </trkpt>
      <trkpt lat="45.32449" lon="5.9386">
        <ele>239</ele>
        <time>2014-05-08T15:37:18Z</time>
      </trkpt>
      <trkpt lat="45.32468" lon="5.9388">
        <ele>238</ele>
        <time>2014-05-08T15:37:23Z</time>
      </trkpt>
      <trkpt lat="45.32485" lon="5.93893">
        <ele>238</ele>
        <time>2014-05-08T15:37:27Z</time>
      </trkpt>
      <trkpt lat="45.32503" lon="5.93906">
        <ele>238</ele>
        <time>2014-05-08T15:37:31Z</time>
      </trkpt>
      <trkpt lat="45.32508" lon="5.93935">
        <ele>237</ele>
        <time>2014-05-08T15:37:35Z</time>
      </trkpt>
      <trkpt lat="45.32505" lon="5.93963">
        <ele>237</ele>
        <time>2014-05-08T15:37:38Z</time>
      </trkpt>
      <trkpt lat="45.32501" lon="5.93989">
        <ele>236</ele>
        <time>2014-05-08T15:37:41Z</time>
      </trkpt>
      <trkpt lat="45.32492" lon="5.94017">
        <ele>236</ele>
        <time>2014-05-08T15:37:45Z</time>
      </trkpt>
      <trkpt lat="45.3248" lon="5.94041">
        <ele>235</ele>
        <time>2014-05-08T15:37:50Z</time>
      </trkpt>
      <trkpt lat="45.32477" lon="5.94072">
        <ele>235</ele>
        <time>2014-05-08T15:37:55Z</time>
      </trkpt>
      <trkpt lat="45.32492" lon="5.94098">
        <ele>234</ele>
        <time>2014-05-08T15:37:59Z</time>
      </trkpt>
      <trkpt lat="45.32507" lon="5.94117">
        <ele>234</ele>
        <time>2014-05-08T15:38:03Z</time>
      </trkpt>
      <trkpt lat="45.32524" lon="5.94135">
        <ele>234</ele>
        <time>2014-05-08T15:38:07Z</time>
      </trkpt>
      <trkpt lat="45.3254" lon="5.9415">
        <ele>234</ele>
        <time>2014-05-08T15:38:11Z</time>
      </trkpt>
      <trkpt lat="45.32556" lon="5.94166">
        <ele>234</ele>
        <time>2014-05-08T15:38:15Z</time>
      </trkpt>
      <trkpt lat="45.3257" lon="5.94185">
        <ele>235</ele>
        <time>2014-05-08T15:38:19Z</time>
      </trkpt>
      <trkpt lat="45.32581" lon="5.94206">
        <ele>235</ele>
        <time>2014-05-08T15:38:23Z</time>
      </trkpt>
      <trkpt lat="45.32589" lon="5.94232">
        <ele>236</ele>
        <time>2014-05-08T15:38:27Z</time>
      </trkpt>
      <trkpt lat="45.32597" lon="5.94258">
        <ele>236</ele>
        <time>2014-05-08T15:38:31Z</time>
      </trkpt>
      <trkpt lat="45.32602" lon="5.94288">
        <ele>237</ele>
        <time>2014-05-08T15:38:36Z</time>
      </trkpt>
      <trkpt lat="45.32606" lon="5.94319">
        <ele>237</ele>
        <time>2014-05-08T15:38:40Z</time>
      </trkpt>
      <trkpt lat="45.32615" lon="5.94345">
        <ele>237</ele>
        <time>2014-05-08T15:38:45Z</time>
      </trkpt>
      <trkpt lat="45.3263" lon="5.94361">
        <ele>237</ele>
        <time>2014-05-08T15:38:50Z</time>
      </trkpt>
      <trkpt lat="45.32647" lon="5.94379">
        <ele>237</ele>
        <time>2014-05-08T15:38:55Z</time>
      </trkpt>
      <trkpt lat="45.32663" lon="5.94398">
        <ele>237</ele>
        <time>2014-05-08T15:38:59Z</time>
      </trkpt>
      <trkpt lat="45.32678" lon="5.94416">
        <ele>237</ele>
        <time>2014-05-08T15:39:03Z</time>
      </trkpt>
      <trkpt lat="45.32691" lon="5.94436">
        <ele>237</ele>
        <time>2014-05-08T15:39:07Z</time>
      </trkpt>
      <trkpt lat="45.32691" lon="5.94465">
        <ele>237</ele>
        <time>2014-05-08T15:39:11Z</time>
      </trkpt>
      <trkpt lat="45.32685" lon="5.94492">
        <ele>236</ele>
        <time>2014-05-08T15:39:15Z</time>
      </trkpt>
      <trkpt lat="45.32676" lon="5.94517">
        <ele>235</ele>
        <time>2014-05-08T15:39:19Z</time>
      </trkpt>
      <trkpt lat="45.32666" lon="5.94545">
        <ele>235</ele>
        <time>2014-05-08T15:39:23Z</time>
      </trkpt>
      <trkpt lat="45.32658" lon="5.9457">
        <ele>235</ele>
        <time>2014-05-08T15:39:27Z</time>
      </trkpt>
      <trkpt lat="45.32651" lon="5.94599">
        <ele>235</ele>
        <time>2014-05-08T15:39:32Z</time>
      </trkpt>
      <trkpt lat="45.3265" lon="5.94626">
        <ele>235</ele>
        <time>2014-05-08T15:39:37Z</time>
      </trkpt>
      <trkpt lat="45.32657" lon="5.94654">
        <ele>235</ele>
        <time>2014-05-08T15:39:42Z</time>
      </trkpt>
      <trkpt lat="45.32666" lon="5.94679">
        <ele>235</ele>
        <time>2014-05-08T15:39:47Z</time>
      </trkpt>
      <trkpt lat="45.32674" lon="5.94703">
        <ele>236</ele>
        <time>2014-05-08T15:39:52Z</time>
      </trkpt>
      <trkpt lat="45.32681" lon="5.9473">
        <ele>236</ele>
        <time>2014-05-08T15:39:57Z</time>
      </trkpt>
      <trkpt lat="45.32688" lon="5.94759">
        <ele>236</ele>
        <time>2014-05-08T15:40:02Z</time>
      </trkpt>
      <trkpt lat="45.32691" lon="5.94784">
        <ele>236</ele>
        <time>2014-05-08T15:40:06Z</time>
      </trkpt>
      <trkpt lat="45.32692" lon="5.94811">
        <ele>236</ele>
        <time>2014-05-08T15:40:10Z</time>
      </trkpt>
      <trkpt lat="45.32694" lon="5.94837">
        <ele>237</ele>
        <time>2014-05-08T15:40:14Z</time>
      </trkpt>
      <trkpt lat="45.32698" lon="5.94866">
        <ele>237</ele>
        <time>2014-05-08T15:40:19Z</time>
      </trkpt>
      <trkpt lat="45.32708" lon="5.9489">
        <ele>237</ele>
        <time>2014-05-08T15:40:25Z</time>
      </trkpt>
      <trkpt lat="45.32719" lon="5.94917">
        <ele>237</ele>
        <time>2014-05-08T15:40:30Z</time>
      </trkpt>
      <trkpt lat="45.32728" lon="5.94939">
        <ele>237</ele>
        <time>2014-05-08T15:40:35Z</time>
      </trkpt>
      <trkpt lat="45.3274" lon="5.94961">
        <ele>237</ele>
        <time>2014-05-08T15:40:40Z</time>
      </trkpt>
      <trkpt lat="45.32754" lon="5.94984">
        <ele>236</ele>
        <time>2014-05-08T15:40:45Z</time>
      </trkpt>
      <trkpt lat="45.32766" lon="5.95005">
        <ele>236</ele>
        <time>2014-05-08T15:40:50Z</time>
      </trkpt>
      <trkpt lat="45.32781" lon="5.95027">
        <ele>237</ele>
        <time>2014-05-08T15:40:56Z</time>
      </trkpt>
      <trkpt lat="45.328" lon="5.95025">
        <ele>237</ele>
        <time>2014-05-08T15:41:04Z</time>
      </trkpt>
      <trkpt lat="45.32811" lon="5.95002">
        <ele>236</ele>
        <time>2014-05-08T15:41:10Z</time>
      </trkpt>
      <trkpt lat="45.32819" lon="5.94979">
        <ele>236</ele>
        <time>2014-05-08T15:41:17Z</time>
      </trkpt>
      <trkpt lat="45.32828" lon="5.94953">
        <ele>237</ele>
        <time>2014-05-08T15:41:24Z</time>
      </trkpt>
      <trkpt lat="45.32838" lon="5.94931">
        <ele>237</ele>
        <time>2014-05-08T15:41:30Z</time>
      </trkpt>
      <trkpt lat="45.32853" lon="5.94912">
        <ele>237</ele>
        <time>2014-05-08T15:41:34Z</time>
      </trkpt>
      <trkpt lat="45.32872" lon="5.94893">
        <ele>237</ele>
        <time>2014-05-08T15:41:37Z</time>
      </trkpt>
      <trkpt lat="45.32887" lon="5.94876">
        <ele>237</ele>
        <time>2014-05-08T15:41:41Z</time>
      </trkpt>
      <trkpt lat="45.32903" lon="5.94859">
        <ele>237</ele>
        <time>2014-05-08T15:41:46Z</time>
      </trkpt>
      <trkpt lat="45.32918" lon="5.94839">
        <ele>236</ele>
        <time>2014-05-08T15:41:51Z</time>
      </trkpt>
      <trkpt lat="45.32931" lon="5.94817">
        <ele>236</ele>
        <time>2014-05-08T15:41:56Z</time>
      </trkpt>
      <trkpt lat="45.32943" lon="5.94796">
        <ele>236</ele>
        <time>2014-05-08T15:42:01Z</time>
      </trkpt>
      <trkpt lat="45.32957" lon="5.94773">
        <ele>236</ele>
        <time>2014-05-08T15:42:07Z</time>
      </trkpt>
      <trkpt lat="45.32971" lon="5.94754">
        <ele>235</ele>
        <time>2014-05-08T15:42:11Z</time>
      </trkpt>
      <trkpt lat="45.32985" lon="5.94734">
        <ele>235</ele>
        <time>2014-05-08T15:42:15Z</time>
      </trkpt>
      <trkpt lat="45.32998" lon="5.94716">
        <ele>235</ele>
        <time>2014-05-08T15:42:19Z</time>
      </trkpt>
      <trkpt lat="45.3301" lon="5.94696">
        <ele>235</ele>
        <time>2014-05-08T15:42:23Z</time>
      </trkpt>
      <trkpt lat="45.33023" lon="5.94674">
        <ele>235</ele>
        <time>2014-05-08T15:42:28Z</time>
      </trkpt>
      <trkpt lat="45.33037" lon="5.94651">
        <ele>235</ele>
        <time>2014-05-08T15:42:33Z</time>
      </trkpt>
      <trkpt lat="45.3305" lon="5.94631">
        <ele>235</ele>
        <time>2014-05-08T15:42:37Z</time>
      </trkpt>
      <trkpt lat="45.33064" lon="5.9461">
        <ele>235</ele>
        <time>2014-05-08T15:42:41Z</time>
      </trkpt>
      <trkpt lat="45.33078" lon="5.94589">
        <ele>235</ele>
        <time>2014-05-08T15:42:45Z</time>
      </trkpt>
      <trkpt lat="45.3309" lon="5.9457">
        <ele>235</ele>
        <time>2014-05-08T15:42:49Z</time>
      </trkpt>
      <trkpt lat="45.33103" lon="5.9455">
        <ele>235</ele>
        <time>2014-05-08T15:42:53Z</time>
      </trkpt>
      <trkpt lat="45.33118" lon="5.94527">
        <ele>235</ele>
        <time>2014-05-08T15:42:58Z</time>
      </trkpt>
      <trkpt lat="45.33133" lon="5.94509">
        <ele>235</ele>
        <time>2014-05-08T15:43:03Z</time>
      </trkpt>
      <trkpt lat="45.33144" lon="5.94535">
        <ele>235</ele>
        <time>2014-05-08T15:43:09Z</time>
      </trkpt>
      <trkpt lat="45.33153" lon="5.94562">
        <ele>235</ele>
        <time>2014-05-08T15:43:14Z</time>
      </trkpt>
      <trkpt lat="45.33161" lon="5.94587">
        <ele>235</ele>
        <time>2014-05-08T15:43:18Z</time>
      </trkpt>
      <trkpt lat="45.33169" lon="5.94612">
        <ele>235</ele>
        <time>2014-05-08T15:43:22Z</time>
      </trkpt>
      <trkpt lat="45.33177" lon="5.94636">
        <ele>235</ele>
        <time>2014-05-08T15:43:26Z</time>
      </trkpt>
      <trkpt lat="45.33185" lon="5.94661">
        <ele>235</ele>
        <time>2014-05-08T15:43:30Z</time>
      </trkpt>
      <trkpt lat="45.33193" lon="5.94687">
        <ele>235</ele>
        <time>2014-05-08T15:43:34Z</time>
      </trkpt>
      <trkpt lat="45.33201" lon="5.94715">
        <ele>235</ele>
        <time>2014-05-08T15:43:39Z</time>
      </trkpt>
      <trkpt lat="45.33211" lon="5.9474">
        <ele>235</ele>
        <time>2014-05-08T15:43:44Z</time>
      </trkpt>
      <trkpt lat="45.33227" lon="5.9476">
        <ele>234</ele>
        <time>2014-05-08T15:43:49Z</time>
      </trkpt>
      <trkpt lat="45.33243" lon="5.94776">
        <ele>234</ele>
        <time>2014-05-08T15:43:53Z</time>
      </trkpt>
      <trkpt lat="45.33258" lon="5.94792">
        <ele>234</ele>
        <time>2014-05-08T15:43:57Z</time>
      </trkpt>
      <trkpt lat="45.33273" lon="5.94809">
        <ele>234</ele>
        <time>2014-05-08T15:44:01Z</time>
      </trkpt>
      <trkpt lat="45.33291" lon="5.94829">
        <ele>234</ele>
        <time>2014-05-08T15:44:06Z</time>
      </trkpt>
      <trkpt lat="45.33305" lon="5.94843">
        <ele>235</ele>
        <time>2014-05-08T15:44:10Z</time>
      </trkpt>
      <trkpt lat="45.33322" lon="5.94864">
        <ele>235</ele>
        <time>2014-05-08T15:44:15Z</time>
      </trkpt>
      <trkpt lat="45.33336" lon="5.94881">
        <ele>235</ele>
        <time>2014-05-08T15:44:19Z</time>
      </trkpt>
      <trkpt lat="45.33353" lon="5.94897">
        <ele>235</ele>
        <time>2014-05-08T15:44:23Z</time>
      </trkpt>
      <trkpt lat="45.33373" lon="5.94913">
        <ele>235</ele>
        <time>2014-05-08T15:44:28Z</time>
      </trkpt>
      <trkpt lat="45.33391" lon="5.9493">
        <ele>235</ele>
        <time>2014-05-08T15:44:33Z</time>
      </trkpt>
      <trkpt lat="45.33407" lon="5.94944">
        <ele>235</ele>
        <time>2014-05-08T15:44:37Z</time>
      </trkpt>
      <trkpt lat="45.3342" lon="5.94963">
        <ele>235</ele>
        <time>2014-05-08T15:44:41Z</time>
      </trkpt>
      <trkpt lat="45.3343" lon="5.94986">
        <ele>235</ele>
        <time>2014-05-08T15:44:45Z</time>
      </trkpt>
      <trkpt lat="45.33437" lon="5.9501">
        <ele>235</ele>
        <time>2014-05-08T15:44:49Z</time>
      </trkpt>
      <trkpt lat="45.33444" lon="5.95035">
        <ele>235</ele>
        <time>2014-05-08T15:44:53Z</time>
      </trkpt>
      <trkpt lat="45.33453" lon="5.95058">
        <ele>235</ele>
        <time>2014-05-08T15:44:57Z</time>
      </trkpt>
      <trkpt lat="45.33465" lon="5.9508">
        <ele>235</ele>
        <time>2014-05-08T15:45:01Z</time>
      </trkpt>
      <trkpt lat="45.33479" lon="5.95102">
        <ele>236</ele>
        <time>2014-05-08T15:45:05Z</time>
      </trkpt>
      <trkpt lat="45.33491" lon="5.95121">
        <ele>236</ele>
        <time>2014-05-08T15:45:09Z</time>
      </trkpt>
      <trkpt lat="45.33506" lon="5.95146">
        <ele>236</ele>
        <time>2014-05-08T15:45:14Z</time>
      </trkpt>
      <trkpt lat="45.33519" lon="5.95166">
        <ele>236</ele>
        <time>2014-05-08T15:45:18Z</time>
      </trkpt>
      <trkpt lat="45.3353" lon="5.95189">
        <ele>236</ele>
        <time>2014-05-08T15:45:22Z</time>
      </trkpt>
      <trkpt lat="45.33544" lon="5.95213">
        <ele>237</ele>
        <time>2014-05-08T15:45:27Z</time>
      </trkpt>
      <trkpt lat="45.3356" lon="5.95234">
        <ele>237</ele>
        <time>2014-05-08T15:45:32Z</time>
      </trkpt>
      <trkpt lat="45.33577" lon="5.95252">
        <ele>237</ele>
        <time>2014-05-08T15:45:37Z</time>
      </trkpt>
      <trkpt lat="45.3359" lon="5.95271">
        <ele>237</ele>
        <time>2014-05-08T15:45:41Z</time>
      </trkpt>
      <trkpt lat="45.336" lon="5.95293">
        <ele>237</ele>
        <time>2014-05-08T15:45:45Z</time>
      </trkpt>
      <trkpt lat="45.33612" lon="5.9532">
        <ele>237</ele>
        <time>2014-05-08T15:45:50Z</time>
      </trkpt>
      <trkpt lat="45.33625" lon="5.95341">
        <ele>238</ele>
        <time>2014-05-08T15:45:54Z</time>
      </trkpt>
      <trkpt lat="45.3364" lon="5.95361">
        <ele>238</ele>
        <time>2014-05-08T15:45:59Z</time>
      </trkpt>
      <trkpt lat="45.33655" lon="5.95383">
        <ele>238</ele>
        <time>2014-05-08T15:46:04Z</time>
      </trkpt>
      <trkpt lat="45.3367" lon="5.95404">
        <ele>239</ele>
        <time>2014-05-08T15:46:09Z</time>
      </trkpt>
      <trkpt lat="45.33686" lon="5.95426">
        <ele>241</ele>
        <time>2014-05-08T15:46:15Z</time>
      </trkpt>
      <trkpt lat="45.33697" lon="5.95446">
        <ele>241</ele>
        <time>2014-05-08T15:47:23Z</time>
      </trkpt>
      <trkpt lat="45.33714" lon="5.95464">
        <ele>242</ele>
        <time>2014-05-08T15:47:30Z</time>
      </trkpt>
      <trkpt lat="45.3373" lon="5.95486">
        <ele>243</ele>
        <time>2014-05-08T15:47:35Z</time>
      </trkpt>
      <trkpt lat="45.33744" lon="5.95507">
        <ele>244</ele>
        <time>2014-05-08T15:47:39Z</time>
      </trkpt>
      <trkpt lat="45.33758" lon="5.95529">
        <ele>244</ele>
        <time>2014-05-08T15:47:43Z</time>
      </trkpt>
      <trkpt lat="45.33768" lon="5.95553">
        <ele>244</ele>
        <time>2014-05-08T15:47:47Z</time>
      </trkpt>
      <trkpt lat="45.33773" lon="5.9558">
        <ele>244</ele>
        <time>2014-05-08T15:47:51Z</time>
      </trkpt>
      <trkpt lat="45.33785" lon="5.95602">
        <ele>243</ele>
        <time>2014-05-08T15:47:57Z</time>
      </trkpt>
      <trkpt lat="45.338" lon="5.9562">
        <ele>243</ele>
        <time>2014-05-08T15:48:04Z</time>
      </trkpt>
      <trkpt lat="45.33816" lon="5.95638">
        <ele>243</ele>
        <time>2014-05-08T15:48:09Z</time>
      </trkpt>
      <trkpt lat="45.33834" lon="5.95655">
        <ele>242</ele>
        <time>2014-05-08T15:48:14Z</time>
      </trkpt>
      <trkpt lat="45.33848" lon="5.95674">
        <ele>242</ele>
        <time>2014-05-08T15:48:17Z</time>
      </trkpt>
      <trkpt lat="45.33862" lon="5.95695">
        <ele>242</ele>
        <time>2014-05-08T15:48:21Z</time>
      </trkpt>
      <trkpt lat="45.33876" lon="5.95721">
        <ele>241</ele>
        <time>2014-05-08T15:48:26Z</time>
      </trkpt>
      <trkpt lat="45.33891" lon="5.95743">
        <ele>241</ele>
        <time>2014-05-08T15:48:32Z</time>
      </trkpt>
      <trkpt lat="45.33904" lon="5.95761">
        <ele>242</ele>
        <time>2014-05-08T15:48:37Z</time>
      </trkpt>
      <trkpt lat="45.33921" lon="5.95776">
        <ele>240</ele>
        <time>2014-05-08T15:48:42Z</time>
      </trkpt>
      <trkpt lat="45.33937" lon="5.95789">
        <ele>240</ele>
        <time>2014-05-08T15:48:46Z</time>
      </trkpt>
      <trkpt lat="45.33956" lon="5.958">
        <ele>240</ele>
        <time>2014-05-08T15:48:51Z</time>
      </trkpt>
      <trkpt lat="45.33974" lon="5.95807">
        <ele>239</ele>
        <time>2014-05-08T15:48:55Z</time>
      </trkpt>
      <trkpt lat="45.33995" lon="5.95816">
        <ele>239</ele>
        <time>2014-05-08T15:49:00Z</time>
      </trkpt>
      <trkpt lat="45.34014" lon="5.95824">
        <ele>238</ele>
        <time>2014-05-08T15:49:05Z</time>
      </trkpt>
      <trkpt lat="45.34035" lon="5.95831">
        <ele>238</ele>
        <time>2014-05-08T15:49:10Z</time>
      </trkpt>
      <trkpt lat="45.34053" lon="5.95838">
        <ele>238</ele>
        <time>2014-05-08T15:49:15Z</time>
      </trkpt>
      <trkpt lat="45.34074" lon="5.95846">
        <ele>238</ele>
        <time>2014-05-08T15:49:20Z</time>
      </trkpt>
      <trkpt lat="45.34094" lon="5.95855">
        <ele>238</ele>
        <time>2014-05-08T15:49:25Z</time>
      </trkpt>
      <trkpt lat="45.34115" lon="5.95867">
        <ele>238</ele>
        <time>2014-05-08T15:49:30Z</time>
      </trkpt>
      <trkpt lat="45.34133" lon="5.9588">
        <ele>238</ele>
        <time>2014-05-08T15:49:35Z</time>
      </trkpt>
      <trkpt lat="45.34151" lon="5.95893">
        <ele>238</ele>
        <time>2014-05-08T15:49:40Z</time>
      </trkpt>
      <trkpt lat="45.34169" lon="5.95906">
        <ele>238</ele>
        <time>2014-05-08T15:49:45Z</time>
      </trkpt>
      <trkpt lat="45.34188" lon="5.95923">
        <ele>238</ele>
        <time>2014-05-08T15:49:50Z</time>
      </trkpt>
      <trkpt lat="45.34207" lon="5.95937">
        <ele>238</ele>
        <time>2014-05-08T15:49:55Z</time>
      </trkpt>
      <trkpt lat="45.34227" lon="5.95948">
        <ele>238</ele>
        <time>2014-05-08T15:50:00Z</time>
      </trkpt>
      <trkpt lat="45.34246" lon="5.95956">
        <ele>238</ele>
        <time>2014-05-08T15:50:05Z</time>
      </trkpt>
      <trkpt lat="45.34267" lon="5.95964">
        <ele>237</ele>
        <time>2014-05-08T15:50:10Z</time>
      </trkpt>
      <trkpt lat="45.34285" lon="5.95972">
        <ele>237</ele>
        <time>2014-05-08T15:50:14Z</time>
      </trkpt>
      <trkpt lat="45.34304" lon="5.95984">
        <ele>237</ele>
        <time>2014-05-08T15:50:19Z</time>
      </trkpt>
      <trkpt lat="45.34322" lon="5.95999">
        <ele>236</ele>
        <time>2014-05-08T15:50:24Z</time>
      </trkpt>
      <trkpt lat="45.34339" lon="5.96015">
        <ele>236</ele>
        <time>2014-05-08T15:50:29Z</time>
      </trkpt>
      <trkpt lat="45.34356" lon="5.96032">
        <ele>237</ele>
        <time>2014-05-08T15:50:34Z</time>
      </trkpt>
      <trkpt lat="45.34371" lon="5.96048">
        <ele>237</ele>
        <time>2014-05-08T15:50:39Z</time>
      </trkpt>
      <trkpt lat="45.3439" lon="5.9606">
        <ele>237</ele>
        <time>2014-05-08T15:50:44Z</time>
      </trkpt>
      <trkpt lat="45.34411" lon="5.96068">
        <ele>237</ele>
        <time>2014-05-08T15:50:49Z</time>
      </trkpt>
      <trkpt lat="45.34431" lon="5.96079">
        <ele>237</ele>
        <time>2014-05-08T15:50:54Z</time>
      </trkpt>
      <trkpt lat="45.3445" lon="5.96092">
        <ele>238</ele>
        <time>2014-05-08T15:50:59Z</time>
      </trkpt>
      <trkpt lat="45.34469" lon="5.96106">
        <ele>238</ele>
        <time>2014-05-08T15:51:04Z</time>
      </trkpt>
      <trkpt lat="45.34485" lon="5.96118">
        <ele>238</ele>
        <time>2014-05-08T15:51:08Z</time>
      </trkpt>
      <trkpt lat="45.34504" lon="5.9613">
        <ele>239</ele>
        <time>2014-05-08T15:51:13Z</time>
      </trkpt>
      <trkpt lat="45.34523" lon="5.96144">
        <ele>239</ele>
        <time>2014-05-08T15:51:18Z</time>
      </trkpt>
      <trkpt lat="45.3454" lon="5.96154">
        <ele>239</ele>
        <time>2014-05-08T15:51:23Z</time>
      </trkpt>
      <trkpt lat="45.3456" lon="5.96165">
        <ele>239</ele>
        <time>2014-05-08T15:51:28Z</time>
      </trkpt>
      <trkpt lat="45.34581" lon="5.96178">
        <ele>240</ele>
        <time>2014-05-08T15:51:33Z</time>
      </trkpt>
      <trkpt lat="45.34601" lon="5.96191">
        <ele>241</ele>
        <time>2014-05-08T15:51:38Z</time>
      </trkpt>
      <trkpt lat="45.3462" lon="5.96202">
        <ele>241</ele>
        <time>2014-05-08T15:51:43Z</time>
      </trkpt>
      <trkpt lat="45.34637" lon="5.96211">
        <ele>241</ele>
        <time>2014-05-08T15:51:48Z</time>
      </trkpt>
      <trkpt lat="45.34653" lon="5.96225">
        <ele>242</ele>
        <time>2014-05-08T15:51:52Z</time>
      </trkpt>
      <trkpt lat="45.3467" lon="5.96238">
        <ele>242</ele>
        <time>2014-05-08T15:51:57Z</time>
      </trkpt>
      <trkpt lat="45.3469" lon="5.96247">
        <ele>241</ele>
        <time>2014-05-08T15:52:02Z</time>
      </trkpt>
      <trkpt lat="45.34707" lon="5.9626">
        <ele>242</ele>
        <time>2014-05-08T15:52:07Z</time>
      </trkpt>
      <trkpt lat="45.34725" lon="5.96275">
        <ele>241</ele>
        <time>2014-05-08T15:52:12Z</time>
      </trkpt>
      <trkpt lat="45.34746" lon="5.96285">
        <ele>241</ele>
        <time>2014-05-08T15:52:16Z</time>
      </trkpt>
      <trkpt lat="45.34767" lon="5.96295">
        <ele>240</ele>
        <time>2014-05-08T15:52:21Z</time>
      </trkpt>
      <trkpt lat="45.34784" lon="5.96307">
        <ele>240</ele>
        <time>2014-05-08T15:52:25Z</time>
      </trkpt>
      <trkpt lat="45.34803" lon="5.96319">
        <ele>240</ele>
        <time>2014-05-08T15:52:29Z</time>
      </trkpt>
      <trkpt lat="45.34822" lon="5.96331">
        <ele>239</ele>
        <time>2014-05-08T15:52:34Z</time>
      </trkpt>
      <trkpt lat="45.34842" lon="5.96334">
        <ele>239</ele>
        <time>2014-05-08T15:52:39Z</time>
      </trkpt>
      <trkpt lat="45.34861" lon="5.96324">
        <ele>239</ele>
        <time>2014-05-08T15:52:45Z</time>
      </trkpt>
      <trkpt lat="45.34878" lon="5.96314">
        <ele>239</ele>
        <time>2014-05-08T15:52:49Z</time>
      </trkpt>
      <trkpt lat="45.34897" lon="5.96307">
        <ele>239</ele>
        <time>2014-05-08T15:52:55Z</time>
      </trkpt>
      <trkpt lat="45.34916" lon="5.96301">
        <ele>239</ele>
        <time>2014-05-08T15:52:59Z</time>
      </trkpt>
      <trkpt lat="45.34935" lon="5.96294">
        <ele>239</ele>
        <time>2014-05-08T15:53:03Z</time>
      </trkpt>
      <trkpt lat="45.34956" lon="5.96289">
        <ele>240</ele>
        <time>2014-05-08T15:53:07Z</time>
      </trkpt>
      <trkpt lat="45.34974" lon="5.96286">
        <ele>239</ele>
        <time>2014-05-08T15:53:11Z</time>
      </trkpt>
      <trkpt lat="45.34993" lon="5.96281">
        <ele>239</ele>
        <time>2014-05-08T15:53:15Z</time>
      </trkpt>
      <trkpt lat="45.35012" lon="5.96276">
        <ele>239</ele>
        <time>2014-05-08T15:53:19Z</time>
      </trkpt>
      <trkpt lat="45.35033" lon="5.96273">
        <ele>239</ele>
        <time>2014-05-08T15:53:24Z</time>
      </trkpt>
      <trkpt lat="45.35053" lon="5.96268">
        <ele>239</ele>
        <time>2014-05-08T15:53:29Z</time>
      </trkpt>
      <trkpt lat="45.35072" lon="5.96263">
        <ele>238</ele>
        <time>2014-05-08T15:53:33Z</time>
      </trkpt>
      <trkpt lat="45.35093" lon="5.96257">
        <ele>238</ele>
        <time>2014-05-08T15:53:38Z</time>
      </trkpt>
      <trkpt lat="45.35115" lon="5.96252">
        <ele>238</ele>
        <time>2014-05-08T15:53:43Z</time>
      </trkpt>
      <trkpt lat="45.35134" lon="5.96261">
        <ele>238</ele>
        <time>2014-05-08T15:53:48Z</time>
      </trkpt>
      <trkpt lat="45.3514" lon="5.96286">
        <ele>238</ele>
        <time>2014-05-08T15:53:53Z</time>
      </trkpt>
      <trkpt lat="45.35151" lon="5.96306">
        <ele>238</ele>
        <time>2014-05-08T15:53:58Z</time>
      </trkpt>
      <trkpt lat="45.35167" lon="5.96321">
        <ele>238</ele>
        <time>2014-05-08T15:54:03Z</time>
      </trkpt>
      <trkpt lat="45.35168" lon="5.96347">
        <ele>238</ele>
        <time>2014-05-08T15:54:12Z</time>
      </trkpt>
      <trkpt lat="45.3517" lon="5.96373">
        <ele>239</ele>
        <time>2014-05-08T15:54:17Z</time>
      </trkpt>
      <trkpt lat="45.35176" lon="5.96397">
        <ele>239</ele>
        <time>2014-05-08T15:54:23Z</time>
      </trkpt>
      <trkpt lat="45.35175" lon="5.96425">
        <ele>239</ele>
        <time>2014-05-08T15:54:29Z</time>
      </trkpt>
      <trkpt lat="45.35168" lon="5.96449">
        <ele>239</ele>
        <time>2014-05-08T15:54:34Z</time>
      </trkpt>
      <trkpt lat="45.35158" lon="5.96474">
        <ele>240</ele>
        <time>2014-05-08T15:54:40Z</time>
      </trkpt>
      <trkpt lat="45.3515" lon="5.96501">
        <ele>240</ele>
        <time>2014-05-08T15:54:46Z</time>
      </trkpt>
      <trkpt lat="45.35141" lon="5.96525">
        <ele>240</ele>
        <time>2014-05-08T15:54:51Z</time>
      </trkpt>
      <trkpt lat="45.3515" lon="5.96549">
        <ele>240</ele>
        <time>2014-05-08T15:54:57Z</time>
      </trkpt>
      <trkpt lat="45.35167" lon="5.96563">
        <ele>240</ele>
        <time>2014-05-08T15:55:02Z</time>
      </trkpt>
      <trkpt lat="45.35183" lon="5.96576">
        <ele>240</ele>
        <time>2014-05-08T15:55:06Z</time>
      </trkpt>
      <trkpt lat="45.352" lon="5.96586">
        <ele>241</ele>
        <time>2014-05-08T15:55:10Z</time>
      </trkpt>
      <trkpt lat="45.35217" lon="5.96597">
        <ele>242</ele>
        <time>2014-05-08T15:55:14Z</time>
      </trkpt>
      <trkpt lat="45.35234" lon="5.96606">
        <ele>242</ele>
        <time>2014-05-08T15:55:18Z</time>
      </trkpt>
      <trkpt lat="45.35253" lon="5.96615">
        <ele>243</ele>
        <time>2014-05-08T15:55:24Z</time>
      </trkpt>
      <trkpt lat="45.35266" lon="5.96636">
        <ele>244</ele>
        <time>2014-05-08T15:55:29Z</time>
      </trkpt>
      <trkpt lat="45.35284" lon="5.9665">
        <ele>244</ele>
        <time>2014-05-08T15:55:34Z</time>
      </trkpt>
      <trkpt lat="45.35305" lon="5.96654">
        <ele>244</ele>
        <time>2014-05-08T15:55:38Z</time>
      </trkpt>
      <trkpt lat="45.35327" lon="5.9666">
        <ele>245</ele>
        <time>2014-05-08T15:55:42Z</time>
      </trkpt>
      <trkpt lat="45.35345" lon="5.96664">
        <ele>244</ele>
        <time>2014-05-08T15:55:45Z</time>
      </trkpt>
      <trkpt lat="45.35369" lon="5.9667">
        <ele>242</ele>
        <time>2014-05-08T15:55:49Z</time>
      </trkpt>
      <trkpt lat="45.35391" lon="5.96672">
        <ele>241</ele>
        <time>2014-05-08T15:55:53Z</time>
      </trkpt>
      <trkpt lat="45.35411" lon="5.96675">
        <ele>240</ele>
        <time>2014-05-08T15:55:58Z</time>
      </trkpt>
      <trkpt lat="45.35431" lon="5.9668">
        <ele>240</ele>
        <time>2014-05-08T15:56:04Z</time>
      </trkpt>
      <trkpt lat="45.35453" lon="5.96683">
        <ele>240</ele>
        <time>2014-05-08T15:56:09Z</time>
      </trkpt>
      <trkpt lat="45.35472" lon="5.96686">
        <ele>240</ele>
        <time>2014-05-08T15:56:13Z</time>
      </trkpt>
      <trkpt lat="45.35491" lon="5.96689">
        <ele>240</ele>
        <time>2014-05-08T15:56:17Z</time>
      </trkpt>
      <trkpt lat="45.3551" lon="5.96691">
        <ele>242</ele>
        <time>2014-05-08T15:56:21Z</time>
      </trkpt>
      <trkpt lat="45.35529" lon="5.96694">
        <ele>243</ele>
        <time>2014-05-08T15:56:25Z</time>
      </trkpt>
      <trkpt lat="45.3555" lon="5.96694">
        <ele>243</ele>
        <time>2014-05-08T15:56:29Z</time>
      </trkpt>
      <trkpt lat="45.35573" lon="5.967">
        <ele>244</ele>
        <time>2014-05-08T15:56:35Z</time>
      </trkpt>
      <trkpt lat="45.35594" lon="5.96705">
        <ele>245</ele>
        <time>2014-05-08T15:56:39Z</time>
      </trkpt>
      <trkpt lat="45.35614" lon="5.96708">
        <ele>245</ele>
        <time>2014-05-08T15:56:43Z</time>
      </trkpt>
      <trkpt lat="45.35632" lon="5.96713">
        <ele>245</ele>
        <time>2014-05-08T15:56:47Z</time>
      </trkpt>
      <trkpt lat="45.35652" lon="5.96718">
        <ele>245</ele>
        <time>2014-05-08T15:56:51Z</time>
      </trkpt>
      <trkpt lat="45.35672" lon="5.96721">
        <ele>244</ele>
        <time>2014-05-08T15:56:55Z</time>
      </trkpt>
      <trkpt lat="45.35691" lon="5.96722">
        <ele>244</ele>
        <time>2014-05-08T15:57:00Z</time>
      </trkpt>
      <trkpt lat="45.35712" lon="5.96723">
        <ele>243</ele>
        <time>2014-05-08T15:57:07Z</time>
      </trkpt>
      <trkpt lat="45.3573" lon="5.96728">
        <ele>243</ele>
        <time>2014-05-08T15:57:12Z</time>
      </trkpt>
      <trkpt lat="45.3575" lon="5.96732">
        <ele>242</ele>
        <time>2014-05-08T15:57:19Z</time>
      </trkpt>
      <trkpt lat="45.35769" lon="5.9674">
        <ele>242</ele>
        <time>2014-05-08T15:57:26Z</time>
      </trkpt>
      <trkpt lat="45.35789" lon="5.96749">
        <ele>243</ele>
        <time>2014-05-08T15:57:32Z</time>
      </trkpt>
      <trkpt lat="45.35808" lon="5.96755">
        <ele>243</ele>
        <time>2014-05-08T15:57:37Z</time>
      </trkpt>
      <trkpt lat="45.35826" lon="5.96757">
        <ele>243</ele>
        <time>2014-05-08T15:57:42Z</time>
      </trkpt>
      <trkpt lat="45.35846" lon="5.96756">
        <ele>243</ele>
        <time>2014-05-08T15:57:47Z</time>
      </trkpt>
      <trkpt lat="45.35867" lon="5.96754">
        <ele>244</ele>
        <time>2014-05-08T15:57:52Z</time>
      </trkpt>
      <trkpt lat="45.35885" lon="5.96754">
        <ele>244</ele>
        <time>2014-05-08T15:57:57Z</time>
      </trkpt>
      <trkpt lat="45.35904" lon="5.96756">
        <ele>245</ele>
        <time>2014-05-08T15:58:02Z</time>
      </trkpt>
      <trkpt lat="45.35923" lon="5.96759">
        <ele>246</ele>
        <time>2014-05-08T15:58:07Z</time>
      </trkpt>
      <trkpt lat="45.35941" lon="5.96762">
        <ele>246</ele>
        <time>2014-05-08T15:58:12Z</time>
      </trkpt>
      <trkpt lat="45.35962" lon="5.96762">
        <ele>247</ele>
        <time>2014-05-08T15:58:17Z</time>
      </trkpt>
      <trkpt lat="45.35981" lon="5.96759">
        <ele>247</ele>
        <time>2014-05-08T15:58:22Z</time>
      </trkpt>
      <trkpt lat="45.36" lon="5.96756">
        <ele>249</ele>
        <time>2014-05-08T15:58:28Z</time>
      </trkpt>
      <trkpt lat="45.36021" lon="5.96753">
        <ele>250</ele>
        <time>2014-05-08T15:58:34Z</time>
      </trkpt>
      <trkpt lat="45.3604" lon="5.96744">
        <ele>250</ele>
        <time>2014-05-08T15:58:43Z</time>
      </trkpt>
      <trkpt lat="45.36061" lon="5.96746">
        <ele>251</ele>
        <time>2014-05-08T15:58:50Z</time>
      </trkpt>
      <trkpt lat="45.36081" lon="5.96747">
        <ele>252</ele>
        <time>2014-05-08T15:58:56Z</time>
      </trkpt>
      <trkpt lat="45.36099" lon="5.96752">
        <ele>252</ele>
        <time>2014-05-08T15:59:00Z</time>
      </trkpt>
      <trkpt lat="45.36117" lon="5.9675">
        <ele>253</ele>
        <time>2014-05-08T15:59:12Z</time>
      </trkpt>
      <trkpt lat="45.36137" lon="5.96747">
        <ele>254</ele>
        <time>2014-05-08T15:59:19Z</time>
      </trkpt>
      <trkpt lat="45.36157" lon="5.96744">
        <ele>254</ele>
        <time>2014-05-08T15:59:26Z</time>
      </trkpt>
      <trkpt lat="45.36176" lon="5.96741">
        <ele>254</ele>
        <time>2014-05-08T15:59:31Z</time>
      </trkpt>
      <trkpt lat="45.36195" lon="5.96736">
        <ele>254</ele>
        <time>2014-05-08T15:59:37Z</time>
      </trkpt>
      <trkpt lat="45.36214" lon="5.96737">
        <ele>253</ele>
        <time>2014-05-08T15:59:43Z</time>
      </trkpt>
      <trkpt lat="45.36233" lon="5.9674">
        <ele>252</ele>
        <time>2014-05-08T15:59:49Z</time>
      </trkpt>
      <trkpt lat="45.36254" lon="5.96743">
        <ele>252</ele>
        <time>2014-05-08T15:59:56Z</time>
      </trkpt>
      <trkpt lat="45.36272" lon="5.96743">
        <ele>252</ele>
        <time>2014-05-08T16:00:01Z</time>
      </trkpt>
      <trkpt lat="45.36291" lon="5.96744">
        <ele>253</ele>
        <time>2014-05-08T16:00:06Z</time>
      </trkpt>
      <trkpt lat="45.36309" lon="5.96744">
        <ele>253</ele>
        <time>2014-05-08T16:00:11Z</time>
      </trkpt>
      <trkpt lat="45.36327" lon="5.9674">
        <ele>253</ele>
        <time>2014-05-08T16:00:16Z</time>
      </trkpt>
      <trkpt lat="45.36348" lon="5.96734">
        <ele>254</ele>
        <time>2014-05-08T16:00:22Z</time>
      </trkpt>
      <trkpt lat="45.36369" lon="5.96738">
        <ele>254</ele>
        <time>2014-05-08T16:00:28Z</time>
      </trkpt>
      <trkpt lat="45.36387" lon="5.96747">
        <ele>253</ele>
        <time>2014-05-08T16:00:33Z</time>
      </trkpt>
      <trkpt lat="45.36408" lon="5.96756">
        <ele>252</ele>
        <time>2014-05-08T16:00:38Z</time>
      </trkpt>
      <trkpt lat="45.36426" lon="5.96762">
        <ele>251</ele>
        <time>2014-05-08T16:00:42Z</time>
      </trkpt>
      <trkpt lat="45.36448" lon="5.96768">
        <ele>251</ele>
        <time>2014-05-08T16:00:47Z</time>
      </trkpt>
      <trkpt lat="45.36469" lon="5.96774">
        <ele>251</ele>
        <time>2014-05-08T16:00:52Z</time>
      </trkpt>
      <trkpt lat="45.36487" lon="5.96779">
        <ele>251</ele>
        <time>2014-05-08T16:00:56Z</time>
      </trkpt>
      <trkpt lat="45.36506" lon="5.96785">
        <ele>251</ele>
        <time>2014-05-08T16:01:00Z</time>
      </trkpt>
      <trkpt lat="45.36525" lon="5.96789">
        <ele>251</ele>
        <time>2014-05-08T16:01:04Z</time>
      </trkpt>
      <trkpt lat="45.36546" lon="5.9679">
        <ele>251</ele>
        <time>2014-05-08T16:01:09Z</time>
      </trkpt>
      <trkpt lat="45.36566" lon="5.96792">
        <ele>251</ele>
        <time>2014-05-08T16:01:13Z</time>
      </trkpt>
      <trkpt lat="45.36584" lon="5.96797">
        <ele>251</ele>
        <time>2014-05-08T16:01:17Z</time>
      </trkpt>
      <trkpt lat="45.36602" lon="5.96804">
        <ele>251</ele>
        <time>2014-05-08T16:01:21Z</time>
      </trkpt>
      <trkpt lat="45.3662" lon="5.96812">
        <ele>251</ele>
        <time>2014-05-08T16:01:26Z</time>
      </trkpt>
      <trkpt lat="45.36639" lon="5.96818">
        <ele>251</ele>
        <time>2014-05-08T16:01:31Z</time>
      </trkpt>
      <trkpt lat="45.36659" lon="5.96824">
        <ele>251</ele>
        <time>2014-05-08T16:01:36Z</time>
      </trkpt>
      <trkpt lat="45.36679" lon="5.96828">
        <ele>251</ele>
        <time>2014-05-08T16:01:42Z</time>
      </trkpt>
      <trkpt lat="45.36698" lon="5.96835">
        <ele>250</ele>
        <time>2014-05-08T16:01:47Z</time>
      </trkpt>
      <trkpt lat="45.36717" lon="5.96846">
        <ele>250</ele>
        <time>2014-05-08T16:01:53Z</time>
      </trkpt>
      <trkpt lat="45.36734" lon="5.96861">
        <ele>250</ele>
        <time>2014-05-08T16:01:58Z</time>
      </trkpt>
      <trkpt lat="45.36754" lon="5.96876">
        <ele>251</ele>
        <time>2014-05-08T16:02:03Z</time>
      </trkpt>
      <trkpt lat="45.36772" lon="5.96887">
        <ele>251</ele>
        <time>2014-05-08T16:02:07Z</time>
      </trkpt>
      <trkpt lat="45.3679" lon="5.96899">
        <ele>251</ele>
        <time>2014-05-08T16:02:11Z</time>
      </trkpt>
      <trkpt lat="45.3681" lon="5.9691">
        <ele>251</ele>
        <time>2014-05-08T16:02:15Z</time>
      </trkpt>
      <trkpt lat="45.36827" lon="5.9692">
        <ele>250</ele>
        <time>2014-05-08T16:02:19Z</time>
      </trkpt>
      <trkpt lat="45.36846" lon="5.96932">
        <ele>250</ele>
        <time>2014-05-08T16:02:23Z</time>
      </trkpt>
      <trkpt lat="45.36866" lon="5.96946">
        <ele>251</ele>
        <time>2014-05-08T16:02:27Z</time>
      </trkpt>
      <trkpt lat="45.36884" lon="5.9696">
        <ele>251</ele>
        <time>2014-05-08T16:02:31Z</time>
      </trkpt>
      <trkpt lat="45.36903" lon="5.96974">
        <ele>251</ele>
        <time>2014-05-08T16:02:35Z</time>
      </trkpt>
      <trkpt lat="45.36922" lon="5.96988">
        <ele>251</ele>
        <time>2014-05-08T16:02:39Z</time>
      </trkpt>
      <trkpt lat="45.36944" lon="5.96999">
        <ele>250</ele>
        <time>2014-05-08T16:02:43Z</time>
      </trkpt>
      <trkpt lat="45.36966" lon="5.97007">
        <ele>246</ele>
        <time>2014-05-08T16:02:47Z</time>
      </trkpt>
      <trkpt lat="45.36988" lon="5.97015">
        <ele>245</ele>
        <time>2014-05-08T16:02:51Z</time>
      </trkpt>
      <trkpt lat="45.3701" lon="5.97019">
        <ele>244</ele>
        <time>2014-05-08T16:02:55Z</time>
      </trkpt>
      <trkpt lat="45.37028" lon="5.97015">
        <ele>244</ele>
        <time>2014-05-08T16:02:58Z</time>
      </trkpt>
      <trkpt lat="45.37046" lon="5.97008">
        <ele>244</ele>
        <time>2014-05-08T16:03:01Z</time>
      </trkpt>
      <trkpt lat="45.37066" lon="5.97003">
        <ele>244</ele>
        <time>2014-05-08T16:03:04Z</time>
      </trkpt>
      <trkpt lat="45.37086" lon="5.97005">
        <ele>244</ele>
        <time>2014-05-08T16:03:07Z</time>
      </trkpt>
      <trkpt lat="45.37107" lon="5.97015">
        <ele>243</ele>
        <time>2014-05-08T16:03:11Z</time>
      </trkpt>
      <trkpt lat="45.37128" lon="5.97027">
        <ele>243</ele>
        <time>2014-05-08T16:03:15Z</time>
      </trkpt>
      <trkpt lat="45.37146" lon="5.97038">
        <ele>242</ele>
        <time>2014-05-08T16:03:19Z</time>
      </trkpt>
      <trkpt lat="45.37165" lon="5.9705">
        <ele>242</ele>
        <time>2014-05-08T16:03:23Z</time>
      </trkpt>
      <trkpt lat="45.37183" lon="5.97062">
        <ele>242</ele>
        <time>2014-05-08T16:03:27Z</time>
      </trkpt>
      <trkpt lat="45.37203" lon="5.97074">
        <ele>242</ele>
        <time>2014-05-08T16:03:31Z</time>
      </trkpt>
      <trkpt lat="45.37222" lon="5.97084">
        <ele>243</ele>
        <time>2014-05-08T16:03:35Z</time>
      </trkpt>
      <trkpt lat="45.37241" lon="5.97095">
        <ele>243</ele>
        <time>2014-05-08T16:03:40Z</time>
      </trkpt>
      <trkpt lat="45.37261" lon="5.97109">
        <ele>244</ele>
        <time>2014-05-08T16:03:45Z</time>
      </trkpt>
      <trkpt lat="45.37277" lon="5.97122">
        <ele>245</ele>
        <time>2014-05-08T16:03:49Z</time>
      </trkpt>
      <trkpt lat="45.37296" lon="5.97138">
        <ele>245</ele>
        <time>2014-05-08T16:03:54Z</time>
      </trkpt>
      <trkpt lat="45.37312" lon="5.97153">
        <ele>245</ele>
        <time>2014-05-08T16:03:59Z</time>
      </trkpt>
      <trkpt lat="45.37328" lon="5.97167">
        <ele>246</ele>
        <time>2014-05-08T16:04:04Z</time>
      </trkpt>
      <trkpt lat="45.37348" lon="5.97179">
        <ele>246</ele>
        <time>2014-05-08T16:04:10Z</time>
      </trkpt>
      <trkpt lat="45.37368" lon="5.97189">
        <ele>246</ele>
        <time>2014-05-08T16:04:15Z</time>
      </trkpt>
      <trkpt lat="45.37387" lon="5.97196">
        <ele>246</ele>
        <time>2014-05-08T16:04:20Z</time>
      </trkpt>
      <trkpt lat="45.37405" lon="5.97202">
        <ele>246</ele>
        <time>2014-05-08T16:04:25Z</time>
      </trkpt>
      <trkpt lat="45.37425" lon="5.97207">
        <ele>248</ele>
        <time>2014-05-08T16:04:31Z</time>
      </trkpt>
      <trkpt lat="45.37446" lon="5.97215">
        <ele>248</ele>
        <time>2014-05-08T16:04:37Z</time>
      </trkpt>
      <trkpt lat="45.37465" lon="5.97221">
        <ele>249</ele>
        <time>2014-05-08T16:04:43Z</time>
      </trkpt>
      <trkpt lat="45.37486" lon="5.97227">
        <ele>250</ele>
        <time>2014-05-08T16:04:49Z</time>
      </trkpt>
      <trkpt lat="45.37504" lon="5.97231">
        <ele>252</ele>
        <time>2014-05-08T16:04:55Z</time>
      </trkpt>
      <trkpt lat="45.37525" lon="5.97234">
        <ele>252</ele>
        <time>2014-05-08T16:05:01Z</time>
      </trkpt>
      <trkpt lat="45.37543" lon="5.97239">
        <ele>253</ele>
        <time>2014-05-08T16:05:08Z</time>
      </trkpt>
      <trkpt lat="45.37563" lon="5.97241">
        <ele>253</ele>
        <time>2014-05-08T16:05:15Z</time>
      </trkpt>
      <trkpt lat="45.37585" lon="5.97241">
        <ele>254</ele>
        <time>2014-05-08T16:05:21Z</time>
      </trkpt>
      <trkpt lat="45.37606" lon="5.97239">
        <ele>255</ele>
        <time>2014-05-08T16:05:27Z</time>
      </trkpt>
      <trkpt lat="45.37625" lon="5.9724">
        <ele>255</ele>
        <time>2014-05-08T16:05:33Z</time>
      </trkpt>
      <trkpt lat="45.37647" lon="5.97249">
        <ele>256</ele>
        <time>2014-05-08T16:05:39Z</time>
      </trkpt>
      <trkpt lat="45.37669" lon="5.9726">
        <ele>255</ele>
        <time>2014-05-08T16:05:43Z</time>
      </trkpt>
      <trkpt lat="45.37688" lon="5.97268">
        <ele>255</ele>
        <time>2014-05-08T16:05:47Z</time>
      </trkpt>
      <trkpt lat="45.37707" lon="5.97273">
        <ele>254</ele>
        <time>2014-05-08T16:05:51Z</time>
      </trkpt>
      <trkpt lat="45.37728" lon="5.97279">
        <ele>254</ele>
        <time>2014-05-08T16:05:56Z</time>
      </trkpt>
      <trkpt lat="45.37747" lon="5.9728">
        <ele>254</ele>
        <time>2014-05-08T16:06:01Z</time>
      </trkpt>
      <trkpt lat="45.37767" lon="5.97282">
        <ele>253</ele>
        <time>2014-05-08T16:06:06Z</time>
      </trkpt>
      <trkpt lat="45.37786" lon="5.97286">
        <ele>253</ele>
        <time>2014-05-08T16:06:11Z</time>
      </trkpt>
      <trkpt lat="45.37805" lon="5.97292">
        <ele>253</ele>
        <time>2014-05-08T16:06:16Z</time>
      </trkpt>
      <trkpt lat="45.37823" lon="5.97295">
        <ele>253</ele>
        <time>2014-05-08T16:06:21Z</time>
      </trkpt>
      <trkpt lat="45.37842" lon="5.97294">
        <ele>252</ele>
        <time>2014-05-08T16:06:27Z</time>
      </trkpt>
      <trkpt lat="45.37861" lon="5.97292">
        <ele>252</ele>
        <time>2014-05-08T16:06:34Z</time>
      </trkpt>
      <trkpt lat="45.37882" lon="5.97294">
        <ele>252</ele>
        <time>2014-05-08T16:06:39Z</time>
      </trkpt>
      <trkpt lat="45.37902" lon="5.97294">
        <ele>252</ele>
        <time>2014-05-08T16:06:44Z</time>
      </trkpt>
      <trkpt lat="45.37922" lon="5.97293">
        <ele>252</ele>
        <time>2014-05-08T16:06:49Z</time>
      </trkpt>
      <trkpt lat="45.37943" lon="5.97293">
        <ele>252</ele>
        <time>2014-05-08T16:06:55Z</time>
      </trkpt>
      <trkpt lat="45.37965" lon="5.97295">
        <ele>251</ele>
        <time>2014-05-08T16:07:00Z</time>
      </trkpt>
      <trkpt lat="45.37988" lon="5.97295">
        <ele>251</ele>
        <time>2014-05-08T16:07:04Z</time>
      </trkpt>
      <trkpt lat="45.38007" lon="5.97296">
        <ele>251</ele>
        <time>2014-05-08T16:07:08Z</time>
      </trkpt>
      <trkpt lat="45.38027" lon="5.97299">
        <ele>251</ele>
        <time>2014-05-08T16:07:13Z</time>
      </trkpt>
      <trkpt lat="45.38046" lon="5.97303">
        <ele>251</ele>
        <time>2014-05-08T16:07:17Z</time>
      </trkpt>
      <trkpt lat="45.38066" lon="5.97309">
        <ele>251</ele>
        <time>2014-05-08T16:07:21Z</time>
      </trkpt>
      <trkpt lat="45.38083" lon="5.97317">
        <ele>250</ele>
        <time>2014-05-08T16:07:25Z</time>
      </trkpt>
      <trkpt lat="45.38102" lon="5.97326">
        <ele>250</ele>
        <time>2014-05-08T16:07:30Z</time>
      </trkpt>
      <trkpt lat="45.38121" lon="5.97334">
        <ele>248</ele>
        <time>2014-05-08T16:07:36Z</time>
      </trkpt>
      <trkpt lat="45.3814" lon="5.97336">
        <ele>248</ele>
        <time>2014-05-08T16:07:42Z</time>
      </trkpt>
      <trkpt lat="45.38161" lon="5.97328">
        <ele>250</ele>
        <time>2014-05-08T16:07:48Z</time>
      </trkpt>
      <trkpt lat="45.38177" lon="5.97314">
        <ele>250</ele>
        <time>2014-05-08T16:07:53Z</time>
      </trkpt>
      <trkpt lat="45.38198" lon="5.97304">
        <ele>250</ele>
        <time>2014-05-08T16:07:58Z</time>
      </trkpt>
      <trkpt lat="45.38217" lon="5.97305">
        <ele>250</ele>
        <time>2014-05-08T16:08:02Z</time>
      </trkpt>
      <trkpt lat="45.38238" lon="5.9731">
        <ele>249</ele>
        <time>2014-05-08T16:08:06Z</time>
      </trkpt>
      <trkpt lat="45.38257" lon="5.97314">
        <ele>248</ele>
        <time>2014-05-08T16:08:10Z</time>
      </trkpt>
      <trkpt lat="45.38275" lon="5.97326">
        <ele>248</ele>
        <time>2014-05-08T16:08:15Z</time>
      </trkpt>
      <trkpt lat="45.38292" lon="5.97335">
        <ele>247</ele>
        <time>2014-05-08T16:08:20Z</time>
      </trkpt>
      <trkpt lat="45.38311" lon="5.97347">
        <ele>247</ele>
        <time>2014-05-08T16:08:25Z</time>
      </trkpt>
      <trkpt lat="45.38328" lon="5.97358">
        <ele>247</ele>
        <time>2014-05-08T16:08:30Z</time>
      </trkpt>
      <trkpt lat="45.38346" lon="5.97369">
        <ele>246</ele>
        <time>2014-05-08T16:08:35Z</time>
      </trkpt>
      <trkpt lat="45.38365" lon="5.9738">
        <ele>246</ele>
        <time>2014-05-08T16:08:40Z</time>
      </trkpt>
      <trkpt lat="45.38386" lon="5.97391">
        <ele>246</ele>
        <time>2014-05-08T16:08:45Z</time>
      </trkpt>
      <trkpt lat="45.38406" lon="5.97402">
        <ele>245</ele>
        <time>2014-05-08T16:08:49Z</time>
      </trkpt>
      <trkpt lat="45.38427" lon="5.97412">
        <ele>245</ele>
        <time>2014-05-08T16:08:53Z</time>
      </trkpt>
      <trkpt lat="45.38445" lon="5.97423">
        <ele>244</ele>
        <time>2014-05-08T16:08:57Z</time>
      </trkpt>
      <trkpt lat="45.38463" lon="5.97433">
        <ele>244</ele>
        <time>2014-05-08T16:09:01Z</time>
      </trkpt>
      <trkpt lat="45.38481" lon="5.97443">
        <ele>244</ele>
        <time>2014-05-08T16:09:05Z</time>
      </trkpt>
      <trkpt lat="45.38498" lon="5.97454">
        <ele>244</ele>
        <time>2014-05-08T16:09:09Z</time>
      </trkpt>
      <trkpt lat="45.38516" lon="5.97466">
        <ele>244</ele>
        <time>2014-05-08T16:09:14Z</time>
      </trkpt>
      <trkpt lat="45.38536" lon="5.97475">
        <ele>244</ele>
        <time>2014-05-08T16:09:19Z</time>
      </trkpt>
      <trkpt lat="45.38556" lon="5.97484">
        <ele>244</ele>
        <time>2014-05-08T16:09:24Z</time>
      </trkpt>
      <trkpt lat="45.38574" lon="5.97495">
        <ele>244</ele>
        <time>2014-05-08T16:09:29Z</time>
      </trkpt>
      <trkpt lat="45.38593" lon="5.97507">
        <ele>244</ele>
        <time>2014-05-08T16:09:34Z</time>
      </trkpt>
      <trkpt lat="45.38614" lon="5.97518">
        <ele>245</ele>
        <time>2014-05-08T16:09:40Z</time>
      </trkpt>
      <trkpt lat="45.38633" lon="5.97528">
        <ele>245</ele>
        <time>2014-05-08T16:09:45Z</time>
      </trkpt>
      <trkpt lat="45.38654" lon="5.97537">
        <ele>245</ele>
        <time>2014-05-08T16:09:50Z</time>
      </trkpt>
      <trkpt lat="45.38672" lon="5.97547">
        <ele>245</ele>
        <time>2014-05-08T16:09:55Z</time>
      </trkpt>
      <trkpt lat="45.38691" lon="5.97556">
        <ele>245</ele>
        <time>2014-05-08T16:10:00Z</time>
      </trkpt>
      <trkpt lat="45.38709" lon="5.97565">
        <ele>245</ele>
        <time>2014-05-08T16:10:04Z</time>
      </trkpt>
      <trkpt lat="45.3873" lon="5.97575">
        <ele>244</ele>
        <time>2014-05-08T16:10:09Z</time>
      </trkpt>
      <trkpt lat="45.38752" lon="5.97587">
        <ele>243</ele>
        <time>2014-05-08T16:10:13Z</time>
      </trkpt>
      <trkpt lat="45.38772" lon="5.97599">
        <ele>244</ele>
        <time>2014-05-08T16:10:17Z</time>
      </trkpt>
      <trkpt lat="45.3879" lon="5.9761">
        <ele>244</ele>
        <time>2014-05-08T16:10:21Z</time>
      </trkpt>
      <trkpt lat="45.3881" lon="5.9762">
        <ele>244</ele>
        <time>2014-05-08T16:10:25Z</time>
      </trkpt>
      <trkpt lat="45.3883" lon="5.9763">
        <ele>245</ele>
        <time>2014-05-08T16:10:30Z</time>
      </trkpt>
      <trkpt lat="45.38847" lon="5.97642">
        <ele>245</ele>
        <time>2014-05-08T16:10:34Z</time>
      </trkpt>
      <trkpt lat="45.38865" lon="5.97656">
        <ele>245</ele>
        <time>2014-05-08T16:10:39Z</time>
      </trkpt>
      <trkpt lat="45.38886" lon="5.97669">
        <ele>245</ele>
        <time>2014-05-08T16:10:44Z</time>
      </trkpt>
      <trkpt lat="45.38905" lon="5.9768">
        <ele>245</ele>
        <time>2014-05-08T16:10:48Z</time>
      </trkpt>
      <trkpt lat="45.38927" lon="5.9769">
        <ele>244</ele>
        <time>2014-05-08T16:10:52Z</time>
      </trkpt>
      <trkpt lat="45.38946" lon="5.97701">
        <ele>244</ele>
        <time>2014-05-08T16:10:56Z</time>
      </trkpt>
      <trkpt lat="45.38963" lon="5.9771">
        <ele>245</ele>
        <time>2014-05-08T16:11:00Z</time>
      </trkpt>
      <trkpt lat="45.38981" lon="5.97719">
        <ele>245</ele>
        <time>2014-05-08T16:11:04Z</time>
      </trkpt>
      <trkpt lat="45.38998" lon="5.9773">
        <ele>245</ele>
        <time>2014-05-08T16:11:08Z</time>
      </trkpt>
      <trkpt lat="45.39016" lon="5.97741">
        <ele>245</ele>
        <time>2014-05-08T16:11:12Z</time>
      </trkpt>
      <trkpt lat="45.39035" lon="5.97749">
        <ele>245</ele>
        <time>2014-05-08T16:11:16Z</time>
      </trkpt>
      <trkpt lat="45.39055" lon="5.97761">
        <ele>245</ele>
        <time>2014-05-08T16:11:21Z</time>
      </trkpt>
      <trkpt lat="45.39072" lon="5.97772">
        <ele>245</ele>
        <time>2014-05-08T16:11:25Z</time>
      </trkpt>
      <trkpt lat="45.39092" lon="5.97783">
        <ele>244</ele>
        <time>2014-05-08T16:11:29Z</time>
      </trkpt>
      <trkpt lat="45.3911" lon="5.97792">
        <ele>244</ele>
        <time>2014-05-08T16:11:33Z</time>
      </trkpt>
      <trkpt lat="45.39127" lon="5.97801">
        <ele>244</ele>
        <time>2014-05-08T16:11:37Z</time>
      </trkpt>
      <trkpt lat="45.39145" lon="5.97811">
        <ele>244</ele>
        <time>2014-05-08T16:11:41Z</time>
      </trkpt>
      <trkpt lat="45.39163" lon="5.97821">
        <ele>244</ele>
        <time>2014-05-08T16:11:45Z</time>
      </trkpt>
      <trkpt lat="45.3918" lon="5.97831">
        <ele>244</ele>
        <time>2014-05-08T16:11:49Z</time>
      </trkpt>
      <trkpt lat="45.39197" lon="5.9784">
        <ele>244</ele>
        <time>2014-05-08T16:11:53Z</time>
      </trkpt>
      <trkpt lat="45.39217" lon="5.9785">
        <ele>245</ele>
        <time>2014-05-08T16:11:58Z</time>
      </trkpt>
      <trkpt lat="45.39237" lon="5.97858">
        <ele>245</ele>
        <time>2014-05-08T16:12:03Z</time>
      </trkpt>
      <trkpt lat="45.39255" lon="5.97866">
        <ele>245</ele>
        <time>2014-05-08T16:12:07Z</time>
      </trkpt>
      <trkpt lat="45.39272" lon="5.97876">
        <ele>245</ele>
        <time>2014-05-08T16:12:11Z</time>
      </trkpt>
      <trkpt lat="45.39291" lon="5.97885">
        <ele>246</ele>
        <time>2014-05-08T16:12:15Z</time>
      </trkpt>
      <trkpt lat="45.39308" lon="5.97893">
        <ele>246</ele>
        <time>2014-05-08T16:12:19Z</time>
      </trkpt>
      <trkpt lat="45.39329" lon="5.97903">
        <ele>246</ele>
        <time>2014-05-08T16:12:24Z</time>
      </trkpt>
      <trkpt lat="45.39348" lon="5.97913">
        <ele>247</ele>
        <time>2014-05-08T16:12:28Z</time>
      </trkpt>
      <trkpt lat="45.39369" lon="5.97925">
        <ele>246</ele>
        <time>2014-05-08T16:12:33Z</time>
      </trkpt>
      <trkpt lat="45.39387" lon="5.97934">
        <ele>246</ele>
        <time>2014-05-08T16:12:37Z</time>
      </trkpt>
      <trkpt lat="45.39405" lon="5.97946">
        <ele>246</ele>
        <time>2014-05-08T16:12:41Z</time>
      </trkpt>
      <trkpt lat="45.39424" lon="5.97958">
        <ele>246</ele>
        <time>2014-05-08T16:12:46Z</time>
      </trkpt>
      <trkpt lat="45.39443" lon="5.97967">
        <ele>246</ele>
        <time>2014-05-08T16:12:50Z</time>
      </trkpt>
      <trkpt lat="45.39462" lon="5.9798">
        <ele>245</ele>
        <time>2014-05-08T16:12:54Z</time>
      </trkpt>
      <trkpt lat="45.39481" lon="5.9799">
        <ele>245</ele>
        <time>2014-05-08T16:12:58Z</time>
      </trkpt>
      <trkpt lat="45.39501" lon="5.98">
        <ele>244</ele>
        <time>2014-05-08T16:13:04Z</time>
      </trkpt>
      <trkpt lat="45.39519" lon="5.9801">
        <ele>245</ele>
        <time>2014-05-08T16:13:09Z</time>
      </trkpt>
      <trkpt lat="45.39538" lon="5.98017">
        <ele>245</ele>
        <time>2014-05-08T16:13:13Z</time>
      </trkpt>
      <trkpt lat="45.39558" lon="5.98021">
        <ele>246</ele>
        <time>2014-05-08T16:13:18Z</time>
      </trkpt>
      <trkpt lat="45.39575" lon="5.9803">
        <ele>246</ele>
        <time>2014-05-08T16:13:22Z</time>
      </trkpt>
      <trkpt lat="45.39596" lon="5.9804">
        <ele>247</ele>
        <time>2014-05-08T16:13:27Z</time>
      </trkpt>
      <trkpt lat="45.39617" lon="5.98053">
        <ele>247</ele>
        <time>2014-05-08T16:13:32Z</time>
      </trkpt>
      <trkpt lat="45.39635" lon="5.98065">
        <ele>247</ele>
        <time>2014-05-08T16:13:37Z</time>
      </trkpt>
      <trkpt lat="45.39654" lon="5.98076">
        <ele>247</ele>
        <time>2014-05-08T16:13:42Z</time>
      </trkpt>
      <trkpt lat="45.39671" lon="5.98089">
        <ele>246</ele>
        <time>2014-05-08T16:13:46Z</time>
      </trkpt>
      <trkpt lat="45.39689" lon="5.98102">
        <ele>246</ele>
        <time>2014-05-08T16:13:50Z</time>
      </trkpt>
      <trkpt lat="45.39707" lon="5.98111">
        <ele>246</ele>
        <time>2014-05-08T16:13:54Z</time>
      </trkpt>
      <trkpt lat="45.39727" lon="5.98119">
        <ele>246</ele>
        <time>2014-05-08T16:13:58Z</time>
      </trkpt>
      <trkpt lat="45.39746" lon="5.98131">
        <ele>246</ele>
        <time>2014-05-08T16:14:04Z</time>
      </trkpt>
      <trkpt lat="45.39763" lon="5.98139">
        <ele>246</ele>
        <time>2014-05-08T16:14:08Z</time>
      </trkpt>
      <trkpt lat="45.39783" lon="5.98149">
        <ele>246</ele>
        <time>2014-05-08T16:14:12Z</time>
      </trkpt>
      <trkpt lat="45.39801" lon="5.98158">
        <ele>245</ele>
        <time>2014-05-08T16:14:16Z</time>
      </trkpt>
      <trkpt lat="45.3982" lon="5.98169">
        <ele>245</ele>
        <time>2014-05-08T16:14:20Z</time>
      </trkpt>
      <trkpt lat="45.39839" lon="5.98179">
        <ele>245</ele>
        <time>2014-05-08T16:14:24Z</time>
      </trkpt>
      <trkpt lat="45.39858" lon="5.98187">
        <ele>246</ele>
        <time>2014-05-08T16:14:28Z</time>
      </trkpt>
      <trkpt lat="45.39877" lon="5.98198">
        <ele>246</ele>
        <time>2014-05-08T16:14:33Z</time>
      </trkpt>
      <trkpt lat="45.39895" lon="5.98209">
        <ele>246</ele>
        <time>2014-05-08T16:14:38Z</time>
      </trkpt>
      <trkpt lat="45.39913" lon="5.98219">
        <ele>247</ele>
        <time>2014-05-08T16:14:43Z</time>
      </trkpt>
      <trkpt lat="45.3993" lon="5.98227">
        <ele>248</ele>
        <time>2014-05-08T16:14:48Z</time>
      </trkpt>
      <trkpt lat="45.39951" lon="5.98239">
        <ele>248</ele>
        <time>2014-05-08T16:14:53Z</time>
      </trkpt>
      <trkpt lat="45.39969" lon="5.98249">
        <ele>248</ele>
        <time>2014-05-08T16:14:57Z</time>
      </trkpt>
      <trkpt lat="45.39985" lon="5.98259">
        <ele>249</ele>
        <time>2014-05-08T16:15:02Z</time>
      </trkpt>
      <trkpt lat="45.40002" lon="5.98268">
        <ele>249</ele>
        <time>2014-05-08T16:15:15Z</time>
      </trkpt>
      <trkpt lat="45.40021" lon="5.98279">
        <ele>249</ele>
        <time>2014-05-08T16:15:25Z</time>
      </trkpt>
      <trkpt lat="45.40037" lon="5.98293">
        <ele>249</ele>
        <time>2014-05-08T16:15:31Z</time>
      </trkpt>
      <trkpt lat="45.40053" lon="5.98306">
        <ele>249</ele>
        <time>2014-05-08T16:15:38Z</time>
      </trkpt>
      <trkpt lat="45.4007" lon="5.98318">
        <ele>249</ele>
        <time>2014-05-08T16:15:45Z</time>
      </trkpt>
      <trkpt lat="45.40088" lon="5.98332">
        <ele>249</ele>
        <time>2014-05-08T16:15:53Z</time>
      </trkpt>
      <trkpt lat="45.40104" lon="5.98346">
        <ele>249</ele>
        <time>2014-05-08T16:16:00Z</time>
      </trkpt>
      <trkpt lat="45.40123" lon="5.98362">
        <ele>249</ele>
        <time>2014-05-08T16:16:07Z</time>
      </trkpt>
      <trkpt lat="45.4014" lon="5.98374">
        <ele>249</ele>
        <time>2014-05-08T16:16:13Z</time>
      </trkpt>
      <trkpt lat="45.4016" lon="5.98386">
        <ele>250</ele>
        <time>2014-05-08T16:16:19Z</time>
      </trkpt>
      <trkpt lat="45.40176" lon="5.98395">
        <ele>250</ele>
        <time>2014-05-08T16:16:24Z</time>
      </trkpt>
      <trkpt lat="45.40199" lon="5.98404">
        <ele>250</ele>
        <time>2014-05-08T16:16:30Z</time>
      </trkpt>
      <trkpt lat="45.4022" lon="5.9841">
        <ele>251</ele>
        <time>2014-05-08T16:16:35Z</time>
      </trkpt>
      <trkpt lat="45.4024" lon="5.98417">
        <ele>251</ele>
        <time>2014-05-08T16:16:41Z</time>
      </trkpt>
      <trkpt lat="45.40259" lon="5.98422">
        <ele>251</ele>
        <time>2014-05-08T16:16:47Z</time>
      </trkpt>
      <trkpt lat="45.40276" lon="5.98429">
        <ele>251</ele>
        <time>2014-05-08T16:16:54Z</time>
      </trkpt>
      <trkpt lat="45.40295" lon="5.98439">
        <ele>251</ele>
        <time>2014-05-08T16:16:59Z</time>
      </trkpt>
      <trkpt lat="45.40315" lon="5.98449">
        <ele>251</ele>
        <time>2014-05-08T16:17:03Z</time>
      </trkpt>
      <trkpt lat="45.40336" lon="5.98459">
        <ele>251</ele>
        <time>2014-05-08T16:17:07Z</time>
      </trkpt>
      <trkpt lat="45.40353" lon="5.98468">
        <ele>251</ele>
        <time>2014-05-08T16:17:10Z</time>
      </trkpt>
      <trkpt lat="45.40373" lon="5.98478">
        <ele>251</ele>
        <time>2014-05-08T16:17:14Z</time>
      </trkpt>
      <trkpt lat="45.40394" lon="5.9849">
        <ele>251</ele>
        <time>2014-05-08T16:17:19Z</time>
      </trkpt>
      <trkpt lat="45.40411" lon="5.985">
        <ele>251</ele>
        <time>2014-05-08T16:17:23Z</time>
      </trkpt>
      <trkpt lat="45.40427" lon="5.9851">
        <ele>250</ele>
        <time>2014-05-08T16:17:27Z</time>
      </trkpt>
      <trkpt lat="45.40444" lon="5.98521">
        <ele>250</ele>
        <time>2014-05-08T16:17:31Z</time>
      </trkpt>
      <trkpt lat="45.40463" lon="5.98532">
        <ele>250</ele>
        <time>2014-05-08T16:17:35Z</time>
      </trkpt>
      <trkpt lat="45.40481" lon="5.98541">
        <ele>250</ele>
        <time>2014-05-08T16:17:39Z</time>
      </trkpt>
      <trkpt lat="45.40501" lon="5.98552">
        <ele>250</ele>
        <time>2014-05-08T16:17:44Z</time>
      </trkpt>
      <trkpt lat="45.4052" lon="5.98564">
        <ele>250</ele>
        <time>2014-05-08T16:17:49Z</time>
      </trkpt>
      <trkpt lat="45.40538" lon="5.98573">
        <ele>250</ele>
        <time>2014-05-08T16:17:54Z</time>
      </trkpt>
      <trkpt lat="45.40555" lon="5.98582">
        <ele>250</ele>
        <time>2014-05-08T16:17:58Z</time>
      </trkpt>
      <trkpt lat="45.40575" lon="5.98594">
        <ele>249</ele>
        <time>2014-05-08T16:18:02Z</time>
      </trkpt>
      <trkpt lat="45.40596" lon="5.98603">
        <ele>249</ele>
        <time>2014-05-08T16:18:06Z</time>
      </trkpt>
      <trkpt lat="45.40617" lon="5.98614">
        <ele>250</ele>
        <time>2014-05-08T16:18:10Z</time>
      </trkpt>
      <trkpt lat="45.40637" lon="5.98623">
        <ele>250</ele>
        <time>2014-05-08T16:18:14Z</time>
      </trkpt>
      <trkpt lat="45.40656" lon="5.98633">
        <ele>250</ele>
        <time>2014-05-08T16:18:18Z</time>
      </trkpt>
      <trkpt lat="45.40677" lon="5.98644">
        <ele>251</ele>
        <time>2014-05-08T16:18:23Z</time>
      </trkpt>
      <trkpt lat="45.40694" lon="5.98651">
        <ele>251</ele>
        <time>2014-05-08T16:18:27Z</time>
      </trkpt>
      <trkpt lat="45.40712" lon="5.98658">
        <ele>251</ele>
        <time>2014-05-08T16:18:31Z</time>
      </trkpt>
      <trkpt lat="45.40733" lon="5.98664">
        <ele>251</ele>
        <time>2014-05-08T16:18:36Z</time>
      </trkpt>
      <trkpt lat="45.40752" lon="5.98676">
        <ele>250</ele>
        <time>2014-05-08T16:18:41Z</time>
      </trkpt>
      <trkpt lat="45.40773" lon="5.98688">
        <ele>250</ele>
        <time>2014-05-08T16:18:46Z</time>
      </trkpt>
      <trkpt lat="45.40794" lon="5.98698">
        <ele>249</ele>
        <time>2014-05-08T16:18:51Z</time>
      </trkpt>
      <trkpt lat="45.40812" lon="5.98706">
        <ele>249</ele>
        <time>2014-05-08T16:18:55Z</time>
      </trkpt>
      <trkpt lat="45.40829" lon="5.98715">
        <ele>249</ele>
        <time>2014-05-08T16:18:59Z</time>
      </trkpt>
      <trkpt lat="45.40847" lon="5.98723">
        <ele>248</ele>
        <time>2014-05-08T16:19:03Z</time>
      </trkpt>
      <trkpt lat="45.40864" lon="5.98732">
        <ele>248</ele>
        <time>2014-05-08T16:19:07Z</time>
      </trkpt>
      <trkpt lat="45.40882" lon="5.98741">
        <ele>249</ele>
        <time>2014-05-08T16:19:11Z</time>
      </trkpt>
      <trkpt lat="45.40902" lon="5.98752">
        <ele>249</ele>
        <time>2014-05-08T16:19:16Z</time>
      </trkpt>
      <trkpt lat="45.40919" lon="5.98761">
        <ele>249</ele>
        <time>2014-05-08T16:19:20Z</time>
      </trkpt>
      <trkpt lat="45.4094" lon="5.98771">
        <ele>249</ele>
        <time>2014-05-08T16:19:25Z</time>
      </trkpt>
      <trkpt lat="45.40957" lon="5.9878">
        <ele>249</ele>
        <time>2014-05-08T16:19:29Z</time>
      </trkpt>
      <trkpt lat="45.40979" lon="5.98789">
        <ele>249</ele>
        <time>2014-05-08T16:19:34Z</time>
      </trkpt>
      <trkpt lat="45.40997" lon="5.98794">
        <ele>248</ele>
        <time>2014-05-08T16:19:38Z</time>
      </trkpt>
      <trkpt lat="45.41018" lon="5.98801">
        <ele>248</ele>
        <time>2014-05-08T16:19:43Z</time>
      </trkpt>
      <trkpt lat="45.41038" lon="5.98809">
        <ele>248</ele>
        <time>2014-05-08T16:19:48Z</time>
      </trkpt>
      <trkpt lat="45.4106" lon="5.98819">
        <ele>248</ele>
        <time>2014-05-08T16:19:53Z</time>
      </trkpt>
      <trkpt lat="45.41081" lon="5.98829">
        <ele>248</ele>
        <time>2014-05-08T16:19:58Z</time>
      </trkpt>
      <trkpt lat="45.411" lon="5.98838">
        <ele>248</ele>
        <time>2014-05-08T16:20:02Z</time>
      </trkpt>
      <trkpt lat="45.4112" lon="5.98849">
        <ele>248</ele>
        <time>2014-05-08T16:20:07Z</time>
      </trkpt>
      <trkpt lat="45.41139" lon="5.98857">
        <ele>248</ele>
        <time>2014-05-08T16:20:12Z</time>
      </trkpt>
      <trkpt lat="45.41156" lon="5.98866">
        <ele>248</ele>
        <time>2014-05-08T16:20:16Z</time>
      </trkpt>
      <trkpt lat="45.41176" lon="5.98873">
        <ele>248</ele>
        <time>2014-05-08T16:20:21Z</time>
      </trkpt>
      <trkpt lat="45.41193" lon="5.98881">
        <ele>248</ele>
        <time>2014-05-08T16:20:25Z</time>
      </trkpt>
      <trkpt lat="45.41214" lon="5.9889">
        <ele>249</ele>
        <time>2014-05-08T16:20:30Z</time>
      </trkpt>
      <trkpt lat="45.41231" lon="5.98899">
        <ele>249</ele>
        <time>2014-05-08T16:20:34Z</time>
      </trkpt>
      <trkpt lat="45.41252" lon="5.98908">
        <ele>249</ele>
        <time>2014-05-08T16:20:39Z</time>
      </trkpt>
      <trkpt lat="45.41274" lon="5.98916">
        <ele>249</ele>
        <time>2014-05-08T16:20:44Z</time>
      </trkpt>
      <trkpt lat="45.41293" lon="5.98926">
        <ele>249</ele>
        <time>2014-05-08T16:20:49Z</time>
      </trkpt>
      <trkpt lat="45.41313" lon="5.98937">
        <ele>249</ele>
        <time>2014-05-08T16:20:54Z</time>
      </trkpt>
      <trkpt lat="45.4133" lon="5.98946">
        <ele>249</ele>
        <time>2014-05-08T16:20:58Z</time>
      </trkpt>
      <trkpt lat="45.4135" lon="5.98956">
        <ele>249</ele>
        <time>2014-05-08T16:21:03Z</time>
      </trkpt>
      <trkpt lat="45.4137" lon="5.98966">
        <ele>249</ele>
        <time>2014-05-08T16:21:08Z</time>
      </trkpt>
      <trkpt lat="45.4139" lon="5.98975">
        <ele>249</ele>
        <time>2014-05-08T16:21:13Z</time>
      </trkpt>
      <trkpt lat="45.41411" lon="5.98986">
        <ele>250</ele>
        <time>2014-05-08T16:21:18Z</time>
      </trkpt>
      <trkpt lat="45.41432" lon="5.98997">
        <ele>250</ele>
        <time>2014-05-08T16:21:23Z</time>
      </trkpt>
      <trkpt lat="45.41453" lon="5.99008">
        <ele>249</ele>
        <time>2014-05-08T16:21:28Z</time>
      </trkpt>
      <trkpt lat="45.41471" lon="5.99017">
        <ele>249</ele>
        <time>2014-05-08T16:21:32Z</time>
      </trkpt>
      <trkpt lat="45.41492" lon="5.99026">
        <ele>249</ele>
        <time>2014-05-08T16:21:37Z</time>
      </trkpt>
      <trkpt lat="45.4151" lon="5.99035">
        <ele>249</ele>
        <time>2014-05-08T16:21:41Z</time>
      </trkpt>
      <trkpt lat="45.41528" lon="5.99045">
        <ele>249</ele>
        <time>2014-05-08T16:21:45Z</time>
      </trkpt>
      <trkpt lat="45.41547" lon="5.99055">
        <ele>249</ele>
        <time>2014-05-08T16:21:50Z</time>
      </trkpt>
      <trkpt lat="45.41567" lon="5.99066">
        <ele>249</ele>
        <time>2014-05-08T16:21:55Z</time>
      </trkpt>
      <trkpt lat="45.41584" lon="5.99075">
        <ele>249</ele>
        <time>2014-05-08T16:21:59Z</time>
      </trkpt>
      <trkpt lat="45.41602" lon="5.99065">
        <ele>249</ele>
        <time>2014-05-08T16:22:04Z</time>
      </trkpt>
      <trkpt lat="45.41618" lon="5.99047">
        <ele>249</ele>
        <time>2014-05-08T16:22:10Z</time>
      </trkpt>
      <trkpt lat="45.41632" lon="5.99025">
        <ele>249</ele>
        <time>2014-05-08T16:22:15Z</time>
      </trkpt>
      <trkpt lat="45.41644" lon="5.99003">
        <ele>249</ele>
        <time>2014-05-08T16:22:19Z</time>
      </trkpt>
      <trkpt lat="45.41658" lon="5.98982">
        <ele>249</ele>
        <time>2014-05-08T16:22:24Z</time>
      </trkpt>
      <trkpt lat="45.41671" lon="5.98964">
        <ele>250</ele>
        <time>2014-05-08T16:22:28Z</time>
      </trkpt>
      <trkpt lat="45.41686" lon="5.98947">
        <ele>250</ele>
        <time>2014-05-08T16:22:32Z</time>
      </trkpt>
      <trkpt lat="45.41704" lon="5.98931">
        <ele>251</ele>
        <time>2014-05-08T16:22:37Z</time>
      </trkpt>
      <trkpt lat="45.41719" lon="5.98914">
        <ele>251</ele>
        <time>2014-05-08T16:22:43Z</time>
      </trkpt>
      <trkpt lat="45.41733" lon="5.98893">
        <ele>251</ele>
        <time>2014-05-08T16:22:49Z</time>
      </trkpt>
      <trkpt lat="45.4174" lon="5.98866">
        <ele>251</ele>
        <time>2014-05-08T16:22:54Z</time>
      </trkpt>
      <trkpt lat="45.41747" lon="5.98839">
        <ele>251</ele>
        <time>2014-05-08T16:22:59Z</time>
      </trkpt>
      <trkpt lat="45.41754" lon="5.98814">
        <ele>251</ele>
        <time>2014-05-08T16:23:04Z</time>
      </trkpt>
      <trkpt lat="45.4176" lon="5.9879">
        <ele>250</ele>
        <time>2014-05-08T16:23:09Z</time>
      </trkpt>
      <trkpt lat="45.41767" lon="5.98765">
        <ele>250</ele>
        <time>2014-05-08T16:23:14Z</time>
      </trkpt>
      <trkpt lat="45.41772" lon="5.98737">
        <ele>251</ele>
        <time>2014-05-08T16:23:19Z</time>
      </trkpt>
      <trkpt lat="45.41777" lon="5.98709">
        <ele>251</ele>
        <time>2014-05-08T16:23:24Z</time>
      </trkpt>
      <trkpt lat="45.41782" lon="5.98684">
        <ele>251</ele>
        <time>2014-05-08T16:23:29Z</time>
      </trkpt>
      <trkpt lat="45.41788" lon="5.98655">
        <ele>252</ele>
        <time>2014-05-08T16:23:34Z</time>
      </trkpt>
      <trkpt lat="45.41798" lon="5.98629">
        <ele>253</ele>
        <time>2014-05-08T16:23:41Z</time>
      </trkpt>
      <trkpt lat="45.41807" lon="5.98605">
        <ele>253</ele>
        <time>2014-05-08T16:23:51Z</time>
      </trkpt>
      <trkpt lat="45.41817" lon="5.98583">
        <ele>254</ele>
        <time>2014-05-08T16:23:58Z</time>
      </trkpt>
      <trkpt lat="45.41829" lon="5.98561">
        <ele>254</ele>
        <time>2014-05-08T16:24:06Z</time>
      </trkpt>
      <trkpt lat="45.41836" lon="5.98536">
        <ele>255</ele>
        <time>2014-05-08T16:24:12Z</time>
      </trkpt>
      <trkpt lat="45.4184" lon="5.98508">
        <ele>255</ele>
        <time>2014-05-08T16:24:19Z</time>
      </trkpt>
      <trkpt lat="45.41845" lon="5.98482">
        <ele>255</ele>
        <time>2014-05-08T16:24:24Z</time>
      </trkpt>
      <trkpt lat="45.41853" lon="5.98455">
        <ele>255</ele>
        <time>2014-05-08T16:24:30Z</time>
      </trkpt>
      <trkpt lat="45.41863" lon="5.98431">
        <ele>255</ele>
        <time>2014-05-08T16:24:38Z</time>
      </trkpt>
      <trkpt lat="45.41872" lon="5.98405">
        <ele>256</ele>
        <time>2014-05-08T16:24:46Z</time>
      </trkpt>
      <trkpt lat="45.41879" lon="5.98379">
        <ele>257</ele>
        <time>2014-05-08T16:24:54Z</time>
      </trkpt>
      <trkpt lat="45.41886" lon="5.98351">
        <ele>257</ele>
        <time>2014-05-08T16:25:02Z</time>
      </trkpt>
      <trkpt lat="45.41889" lon="5.98324">
        <ele>258</ele>
        <time>2014-05-08T16:25:09Z</time>
      </trkpt>
      <trkpt lat="45.41895" lon="5.98296">
        <ele>258</ele>
        <time>2014-05-08T16:25:16Z</time>
      </trkpt>
      <trkpt lat="45.41906" lon="5.98274">
        <ele>258</ele>
        <time>2014-05-08T16:25:24Z</time>
      </trkpt>
      <trkpt lat="45.41923" lon="5.98263">
        <ele>262</ele>
        <time>2014-05-08T16:30:18Z</time>
      </trkpt>
      <trkpt lat="45.41938" lon="5.98247">
        <ele>268</ele>
        <time>2014-05-08T16:30:27Z</time>
      </trkpt>
      <trkpt lat="45.41957" lon="5.98245">
        <ele>271</ele>
        <time>2014-05-08T16:30:41Z</time>
      </trkpt>
      <trkpt lat="45.41975" lon="5.98252">
        <ele>267</ele>
        <time>2014-05-08T16:30:55Z</time>
      </trkpt>
      <trkpt lat="45.41951" lon="5.98245">
        <ele>270</ele>
        <time>2014-05-08T16:31:07Z</time>
      </trkpt>
      <trkpt lat="45.41964" lon="5.98226">
        <ele>273</ele>
        <time>2014-05-08T16:31:15Z</time>
      </trkpt>
      <trkpt lat="45.41984" lon="5.98221">
        <ele>274</ele>
        <time>2014-05-08T16:31:22Z</time>
      </trkpt>
      <trkpt lat="45.42002" lon="5.98216">
        <ele>281</ele>
        <time>2014-05-08T16:31:32Z</time>
      </trkpt>
      <trkpt lat="45.41981" lon="5.98224">
        <ele>274</ele>
        <time>2014-05-08T16:31:58Z</time>
      </trkpt>
      <trkpt lat="45.41962" lon="5.98229">
        <ele>272</ele>
        <time>2014-05-08T16:32:02Z</time>
      </trkpt>
      <trkpt lat="45.41944" lon="5.9824">
        <ele>269</ele>
        <time>2014-05-08T16:32:07Z</time>
      </trkpt>
      <trkpt lat="45.4196" lon="5.9825">
        <ele>265</ele>
        <time>2014-05-08T16:32:16Z</time>
      </trkpt>
      <trkpt lat="45.4198" lon="5.98253">
        <ele>268</ele>
        <time>2014-05-08T16:32:24Z</time>
      </trkpt>
      <trkpt lat="45.42" lon="5.98255">
        <ele>271</ele>
        <time>2014-05-08T16:32:34Z</time>
      </trkpt>
      <trkpt lat="45.42019" lon="5.98256">
        <ele>274</ele>
        <time>2014-05-08T16:32:41Z</time>
      </trkpt>
      <trkpt lat="45.4204" lon="5.9826">
        <ele>275</ele>
        <time>2014-05-08T16:32:48Z</time>
      </trkpt>
      <trkpt lat="45.42059" lon="5.98258">
        <ele>276</ele>
        <time>2014-05-08T16:32:56Z</time>
      </trkpt>
      <trkpt lat="45.42077" lon="5.98255">
        <ele>279</ele>
        <time>2014-05-08T16:33:02Z</time>
      </trkpt>
      <trkpt lat="45.42094" lon="5.98244">
        <ele>285</ele>
        <time>2014-05-08T16:33:11Z</time>
      </trkpt>
      <trkpt lat="45.42102" lon="5.98267">
        <ele>284</ele>
        <time>2014-05-08T16:33:25Z</time>
      </trkpt>
      <trkpt lat="45.42092" lon="5.98289">
        <ele>284</ele>
        <time>2014-05-08T16:33:35Z</time>
      </trkpt>
      <trkpt lat="45.42096" lon="5.98316">
        <ele>283</ele>
        <time>2014-05-08T16:33:46Z</time>
      </trkpt>
      <trkpt lat="45.42111" lon="5.98333">
        <ele>285</ele>
        <time>2014-05-08T16:33:55Z</time>
      </trkpt>
      <trkpt lat="45.42128" lon="5.98325">
        <ele>287</ele>
        <time>2014-05-08T16:34:09Z</time>
      </trkpt>
      <trkpt lat="45.42121" lon="5.98301">
        <ele>286</ele>
        <time>2014-05-08T16:34:18Z</time>
      </trkpt>
      <trkpt lat="45.42125" lon="5.98275">
        <ele>287</ele>
        <time>2014-05-08T16:34:29Z</time>
      </trkpt>
      <trkpt lat="45.42141" lon="5.98264">
        <ele>289</ele>
        <time>2014-05-08T16:34:39Z</time>
      </trkpt>
      <trkpt lat="45.42159" lon="5.98271">
        <ele>290</ele>
        <time>2014-05-08T16:34:50Z</time>
      </trkpt>
      <trkpt lat="45.42172" lon="5.98288">
        <ele>300</ele>
        <time>2014-05-08T16:35:00Z</time>
      </trkpt>
      <trkpt lat="45.42189" lon="5.98302">
        <ele>300</ele>
        <time>2014-05-08T16:35:11Z</time>
      </trkpt>
      <trkpt lat="45.42205" lon="5.98317">
        <ele>302</ele>
        <time>2014-05-08T16:35:22Z</time>
      </trkpt>
      <trkpt lat="45.42225" lon="5.98321">
        <ele>305</ele>
        <time>2014-05-08T16:35:35Z</time>
      </trkpt>
      <trkpt lat="45.42242" lon="5.98312">
        <ele>306</ele>
        <time>2014-05-08T16:35:47Z</time>
      </trkpt>
      <trkpt lat="45.42258" lon="5.98294">
        <ele>315</ele>
        <time>2014-05-08T16:36:00Z</time>
      </trkpt>
      <trkpt lat="45.42274" lon="5.98279">
        <ele>316</ele>
        <time>2014-05-08T16:36:13Z</time>
      </trkpt>
      <trkpt lat="45.42288" lon="5.98263">
        <ele>317</ele>
        <time>2014-05-08T16:36:23Z</time>
      </trkpt>
      <trkpt lat="45.42303" lon="5.98247">
        <ele>317</ele>
        <time>2014-05-08T16:36:33Z</time>
      </trkpt>
      <trkpt lat="45.42318" lon="5.98232">
        <ele>318</ele>
        <time>2014-05-08T16:36:46Z</time>
      </trkpt>
      <trkpt lat="45.42334" lon="5.98216">
        <ele>323</ele>
        <time>2014-05-08T16:36:56Z</time>
      </trkpt>
      <trkpt lat="45.42349" lon="5.98199">
        <ele>323</ele>
        <time>2014-05-08T16:37:05Z</time>
      </trkpt>
      <trkpt lat="45.42365" lon="5.98182">
        <ele>323</ele>
        <time>2014-05-08T16:37:15Z</time>
      </trkpt>
      <trkpt lat="45.42382" lon="5.98173">
        <ele>324</ele>
        <time>2014-05-08T16:37:24Z</time>
      </trkpt>
      <trkpt lat="45.42399" lon="5.98167">
        <ele>323</ele>
        <time>2014-05-08T16:37:33Z</time>
      </trkpt>
      <trkpt lat="45.42419" lon="5.98168">
        <ele>327</ele>
        <time>2014-05-08T16:37:43Z</time>
      </trkpt>
      <trkpt lat="45.42437" lon="5.98168">
        <ele>328</ele>
        <time>2014-05-08T16:37:55Z</time>
      </trkpt>
      <trkpt lat="45.42456" lon="5.98168">
        <ele>329</ele>
        <time>2014-05-08T16:38:07Z</time>
      </trkpt>
      <trkpt lat="45.42475" lon="5.98167">
        <ele>330</ele>
        <time>2014-05-08T16:38:16Z</time>
      </trkpt>
      <trkpt lat="45.42493" lon="5.98168">
        <ele>330</ele>
        <time>2014-05-08T16:38:24Z</time>
      </trkpt>
      <trkpt lat="45.42512" lon="5.98165">
        <ele>330</ele>
        <time>2014-05-08T16:38:30Z</time>
      </trkpt>
      <trkpt lat="45.42532" lon="5.98166">
        <ele>329</ele>
        <time>2014-05-08T16:38:35Z</time>
      </trkpt>
      <trkpt lat="45.42551" lon="5.98166">
        <ele>330</ele>
        <time>2014-05-08T16:38:41Z</time>
      </trkpt>
      <trkpt lat="45.42571" lon="5.98164">
        <ele>330</ele>
        <time>2014-05-08T16:38:47Z</time>
      </trkpt>
      <trkpt lat="45.42591" lon="5.98164">
        <ele>330</ele>
        <time>2014-05-08T16:38:52Z</time>
      </trkpt>
      <trkpt lat="45.42613" lon="5.98164">
        <ele>328</ele>
        <time>2014-05-08T16:38:58Z</time>
      </trkpt>
      <trkpt lat="45.42634" lon="5.98164">
        <ele>328</ele>
        <time>2014-05-08T16:39:03Z</time>
      </trkpt>
      <trkpt lat="45.42655" lon="5.98164">
        <ele>327</ele>
        <time>2014-05-08T16:39:08Z</time>
      </trkpt>
      <trkpt lat="45.42673" lon="5.98163">
        <ele>327</ele>
        <time>2014-05-08T16:39:12Z</time>
      </trkpt>
      <trkpt lat="45.42691" lon="5.98163">
        <ele>327</ele>
        <time>2014-05-08T16:39:16Z</time>
      </trkpt>
      <trkpt lat="45.42711" lon="5.98162">
        <ele>327</ele>
        <time>2014-05-08T16:39:20Z</time>
      </trkpt>
      <trkpt lat="45.42733" lon="5.98162">
        <ele>327</ele>
        <time>2014-05-08T16:39:24Z</time>
      </trkpt>
      <trkpt lat="45.42754" lon="5.9816">
        <ele>328</ele>
        <time>2014-05-08T16:39:28Z</time>
      </trkpt>
      <trkpt lat="45.42777" lon="5.9816">
        <ele>328</ele>
        <time>2014-05-08T16:39:32Z</time>
      </trkpt>
      <trkpt lat="45.42799" lon="5.98159">
        <ele>329</ele>
        <time>2014-05-08T16:39:36Z</time>
      </trkpt>
      <trkpt lat="45.42821" lon="5.98158">
        <ele>329</ele>
        <time>2014-05-08T16:39:40Z</time>
      </trkpt>
      <trkpt lat="45.42841" lon="5.98158">
        <ele>330</ele>
        <time>2014-05-08T16:39:44Z</time>
      </trkpt>
      <trkpt lat="45.4286" lon="5.98158">
        <ele>330</ele>
        <time>2014-05-08T16:39:48Z</time>
      </trkpt>
      <trkpt lat="45.42882" lon="5.98158">
        <ele>330</ele>
        <time>2014-05-08T16:39:52Z</time>
      </trkpt>
      <trkpt lat="45.42902" lon="5.98158">
        <ele>330</ele>
        <time>2014-05-08T16:39:56Z</time>
      </trkpt>
      <trkpt lat="45.4292" lon="5.98156">
        <ele>330</ele>
        <time>2014-05-08T16:40:00Z</time>
      </trkpt>
      <trkpt lat="45.42941" lon="5.98157">
        <ele>330</ele>
        <time>2014-05-08T16:40:05Z</time>
      </trkpt>
      <trkpt lat="45.42962" lon="5.98155">
        <ele>330</ele>
        <time>2014-05-08T16:40:10Z</time>
      </trkpt>
      <trkpt lat="45.42983" lon="5.98155">
        <ele>330</ele>
        <time>2014-05-08T16:40:15Z</time>
      </trkpt>
      <trkpt lat="45.43002" lon="5.98155">
        <ele>329</ele>
        <time>2014-05-08T16:40:20Z</time>
      </trkpt>
      <trkpt lat="45.43021" lon="5.98157">
        <ele>330</ele>
        <time>2014-05-08T16:40:25Z</time>
      </trkpt>
      <trkpt lat="45.43025" lon="5.98183">
        <ele>329</ele>
        <time>2014-05-08T16:40:38Z</time>
      </trkpt>
      <trkpt lat="45.43015" lon="5.98205">
        <ele>329</ele>
        <time>2014-05-08T16:40:46Z</time>
      </trkpt>
      <trkpt lat="45.43009" lon="5.98229">
        <ele>329</ele>
        <time>2014-05-08T16:40:53Z</time>
      </trkpt>
      <trkpt lat="45.43002" lon="5.98256">
        <ele>329</ele>
        <time>2014-05-08T16:41:00Z</time>
      </trkpt>
      <trkpt lat="45.42988" lon="5.98277">
        <ele>330</ele>
        <time>2014-05-08T16:41:05Z</time>
      </trkpt>
      <trkpt lat="45.42972" lon="5.98292">
        <ele>330</ele>
        <time>2014-05-08T16:41:08Z</time>
      </trkpt>
      <trkpt lat="45.42956" lon="5.98313">
        <ele>330</ele>
        <time>2014-05-08T16:41:12Z</time>
      </trkpt>
      <trkpt lat="45.42941" lon="5.98339">
        <ele>330</ele>
        <time>2014-05-08T16:41:16Z</time>
      </trkpt>
      <trkpt lat="45.42931" lon="5.9836">
        <ele>330</ele>
        <time>2014-05-08T16:41:21Z</time>
      </trkpt>
      <trkpt lat="45.42917" lon="5.98379">
        <ele>330</ele>
        <time>2014-05-08T16:41:28Z</time>
      </trkpt>
      <trkpt lat="45.42911" lon="5.98404">
        <ele>329</ele>
        <time>2014-05-08T16:41:46Z</time>
      </trkpt>
    </trkseg>
  </trk>
</gpx>